<?xml version="1.0" encoding="UTF-8" standalone="no" ?>
<gpx xmlns="http://www.topografix.com/GPX/1/1" xmlns:xsi="http://www.w3.org/2001/XMLSchema-instance" xsi:schemaLocation="http://www.topografix.com/GPX/1/1 http://www.topografix.com/GPX/1/1/gpx.xsd" version="1.1" creator="VisuGPX - https://www.visugpx.com">
  <metadata>
    <name>Circuit VTT Compeyre </name>
    <desc><![CDATA[La randonnée est une Jolie boucle de 20 Km environ près d'un très beau village de la Vallée du Tarn: Compeyre, pendant la promenade, on peut admirer plusieurs Châteaux (Cabrières, Lugagnac) ainsi que de très beau paysage Aveyronnais et la vue sur le Tarn
 ]]></desc>
  </metadata>
  <wpt lat="44.17781" lon="3.09719">
    <ele>619</ele>
    <name><![CDATA[AUBERGE QUIERS]]></name>
    <desc><![CDATA[03-MAI-08 13:50:07]]></desc>
    <cmt><![CDATA[03-MAI-08 13:50:07]]></cmt>
  </wpt>
  <trk>
    <name><![CDATA[2008-05-04 stage jour 1]]></name>
    <trkseg>
      <trkpt lat="44.17778" lon="3.09685">
        <ele>618.75</ele>
        <time>2008-05-04T11:06:13Z</time>
      </trkpt>
      <trkpt lat="44.1777" lon="3.09689">
        <ele>617.78</ele>
        <time>2008-05-04T11:06:30Z</time>
      </trkpt>
      <trkpt lat="44.17781" lon="3.0972">
        <ele>622.59</ele>
        <time>2008-05-04T12:52:30Z</time>
      </trkpt>
      <trkpt lat="44.17781" lon="3.0972">
        <ele>622.59</ele>
        <time>2008-05-04T12:52:31Z</time>
      </trkpt>
      <trkpt lat="44.17781" lon="3.0972">
        <ele>622.59</ele>
        <time>2008-05-04T12:52:32Z</time>
      </trkpt>
      <trkpt lat="44.17782" lon="3.09728">
        <ele>623.07</ele>
        <time>2008-05-04T12:53:51Z</time>
      </trkpt>
      <trkpt lat="44.17784" lon="3.09716">
        <ele>623.07</ele>
        <time>2008-05-04T12:54:04Z</time>
      </trkpt>
      <trkpt lat="44.17784" lon="3.09716">
        <ele>623.55</ele>
        <time>2008-05-04T12:54:14Z</time>
      </trkpt>
      <trkpt lat="44.17787" lon="3.09683">
        <ele>621.15</ele>
        <time>2008-05-04T12:54:25Z</time>
      </trkpt>
      <trkpt lat="44.17788" lon="3.09678">
        <ele>620.19</ele>
        <time>2008-05-04T12:54:37Z</time>
      </trkpt>
      <trkpt lat="44.17788" lon="3.0968">
        <ele>620.19</ele>
        <time>2008-05-04T12:55:07Z</time>
      </trkpt>
      <trkpt lat="44.17763" lon="3.09651">
        <ele>616.82</ele>
        <time>2008-05-04T12:55:15Z</time>
      </trkpt>
      <trkpt lat="44.17759" lon="3.09645">
        <ele>616.82</ele>
        <time>2008-05-04T12:55:16Z</time>
      </trkpt>
      <trkpt lat="44.1773" lon="3.09602">
        <ele>613.46</ele>
        <time>2008-05-04T12:55:22Z</time>
      </trkpt>
      <trkpt lat="44.17718" lon="3.09583">
        <ele>612.5</ele>
        <time>2008-05-04T12:55:24Z</time>
      </trkpt>
      <trkpt lat="44.17706" lon="3.09557">
        <ele>611.06</ele>
        <time>2008-05-04T12:55:26Z</time>
      </trkpt>
      <trkpt lat="44.17671" lon="3.09458">
        <ele>610.57</ele>
        <time>2008-05-04T12:55:36Z</time>
      </trkpt>
      <trkpt lat="44.17668" lon="3.09452">
        <ele>610.09</ele>
        <time>2008-05-04T12:55:37Z</time>
      </trkpt>
      <trkpt lat="44.17664" lon="3.09445">
        <ele>609.61</ele>
        <time>2008-05-04T12:55:38Z</time>
      </trkpt>
      <trkpt lat="44.17659" lon="3.0944">
        <ele>609.61</ele>
        <time>2008-05-04T12:55:39Z</time>
      </trkpt>
      <trkpt lat="44.17654" lon="3.09436">
        <ele>609.13</ele>
        <time>2008-05-04T12:55:40Z</time>
      </trkpt>
      <trkpt lat="44.17649" lon="3.09434">
        <ele>609.13</ele>
        <time>2008-05-04T12:55:41Z</time>
      </trkpt>
      <trkpt lat="44.17644" lon="3.09434">
        <ele>608.65</ele>
        <time>2008-05-04T12:55:42Z</time>
      </trkpt>
      <trkpt lat="44.17638" lon="3.09433">
        <ele>608.65</ele>
        <time>2008-05-04T12:55:43Z</time>
      </trkpt>
      <trkpt lat="44.17633" lon="3.09432">
        <ele>608.65</ele>
        <time>2008-05-04T12:55:44Z</time>
      </trkpt>
      <trkpt lat="44.17623" lon="3.09433">
        <ele>609.13</ele>
        <time>2008-05-04T12:55:46Z</time>
      </trkpt>
      <trkpt lat="44.17619" lon="3.09434">
        <ele>609.13</ele>
        <time>2008-05-04T12:55:47Z</time>
      </trkpt>
      <trkpt lat="44.17607" lon="3.0944">
        <ele>608.65</ele>
        <time>2008-05-04T12:55:50Z</time>
      </trkpt>
      <trkpt lat="44.1759" lon="3.09439">
        <ele>609.13</ele>
        <time>2008-05-04T12:55:56Z</time>
      </trkpt>
      <trkpt lat="44.17582" lon="3.0942">
        <ele>605.77</ele>
        <time>2008-05-04T12:55:59Z</time>
      </trkpt>
      <trkpt lat="44.17572" lon="3.0939">
        <ele>601.92</ele>
        <time>2008-05-04T12:56:03Z</time>
      </trkpt>
      <trkpt lat="44.17563" lon="3.09363">
        <ele>597.12</ele>
        <time>2008-05-04T12:56:06Z</time>
      </trkpt>
      <trkpt lat="44.17555" lon="3.09341">
        <ele>593.75</ele>
        <time>2008-05-04T12:56:08Z</time>
      </trkpt>
      <trkpt lat="44.17543" lon="3.09295">
        <ele>589.91</ele>
        <time>2008-05-04T12:56:12Z</time>
      </trkpt>
      <trkpt lat="44.17541" lon="3.09283">
        <ele>589.91</ele>
        <time>2008-05-04T12:56:13Z</time>
      </trkpt>
      <trkpt lat="44.17539" lon="3.09271">
        <ele>589.43</ele>
        <time>2008-05-04T12:56:14Z</time>
      </trkpt>
      <trkpt lat="44.17528" lon="3.09232">
        <ele>587.02</ele>
        <time>2008-05-04T12:56:18Z</time>
      </trkpt>
      <trkpt lat="44.17519" lon="3.0921">
        <ele>583.66</ele>
        <time>2008-05-04T12:56:21Z</time>
      </trkpt>
      <trkpt lat="44.17515" lon="3.09204">
        <ele>582.22</ele>
        <time>2008-05-04T12:56:22Z</time>
      </trkpt>
      <trkpt lat="44.17495" lon="3.09173">
        <ele>577.41</ele>
        <time>2008-05-04T12:56:26Z</time>
      </trkpt>
      <trkpt lat="44.17479" lon="3.09144">
        <ele>573.08</ele>
        <time>2008-05-04T12:56:29Z</time>
      </trkpt>
      <trkpt lat="44.17467" lon="3.09124">
        <ele>569.72</ele>
        <time>2008-05-04T12:56:31Z</time>
      </trkpt>
      <trkpt lat="44.17462" lon="3.09115">
        <ele>568.76</ele>
        <time>2008-05-04T12:56:32Z</time>
      </trkpt>
      <trkpt lat="44.17453" lon="3.09091">
        <ele>564.91</ele>
        <time>2008-05-04T12:56:34Z</time>
      </trkpt>
      <trkpt lat="44.17447" lon="3.09066">
        <ele>561.55</ele>
        <time>2008-05-04T12:56:36Z</time>
      </trkpt>
      <trkpt lat="44.17445" lon="3.09053">
        <ele>560.59</ele>
        <time>2008-05-04T12:56:37Z</time>
      </trkpt>
      <trkpt lat="44.17445" lon="3.09018">
        <ele>556.74</ele>
        <time>2008-05-04T12:56:40Z</time>
      </trkpt>
      <trkpt lat="44.17438" lon="3.08971">
        <ele>552.9</ele>
        <time>2008-05-04T12:56:44Z</time>
      </trkpt>
      <trkpt lat="44.17429" lon="3.08917">
        <ele>549.05</ele>
        <time>2008-05-04T12:56:48Z</time>
      </trkpt>
      <trkpt lat="44.17428" lon="3.08904">
        <ele>547.61</ele>
        <time>2008-05-04T12:56:49Z</time>
      </trkpt>
      <trkpt lat="44.17426" lon="3.08877">
        <ele>545.2</ele>
        <time>2008-05-04T12:56:52Z</time>
      </trkpt>
      <trkpt lat="44.17427" lon="3.08872">
        <ele>544.72</ele>
        <time>2008-05-04T12:56:53Z</time>
      </trkpt>
      <trkpt lat="44.17429" lon="3.0887">
        <ele>544.24</ele>
        <time>2008-05-04T12:56:54Z</time>
      </trkpt>
      <trkpt lat="44.17432" lon="3.08867">
        <ele>543.28</ele>
        <time>2008-05-04T12:56:55Z</time>
      </trkpt>
      <trkpt lat="44.17434" lon="3.08864">
        <ele>542.32</ele>
        <time>2008-05-04T12:56:56Z</time>
      </trkpt>
      <trkpt lat="44.1744" lon="3.0886">
        <ele>540.4</ele>
        <time>2008-05-04T12:56:58Z</time>
      </trkpt>
      <trkpt lat="44.1745" lon="3.08856">
        <ele>537.51</ele>
        <time>2008-05-04T12:57:01Z</time>
      </trkpt>
      <trkpt lat="44.17464" lon="3.08872">
        <ele>534.63</ele>
        <time>2008-05-04T12:57:06Z</time>
      </trkpt>
      <trkpt lat="44.17467" lon="3.08877">
        <ele>534.15</ele>
        <time>2008-05-04T12:57:07Z</time>
      </trkpt>
      <trkpt lat="44.17471" lon="3.08881">
        <ele>533.67</ele>
        <time>2008-05-04T12:57:08Z</time>
      </trkpt>
      <trkpt lat="44.17476" lon="3.08887">
        <ele>533.67</ele>
        <time>2008-05-04T12:57:09Z</time>
      </trkpt>
      <trkpt lat="44.1748" lon="3.08893">
        <ele>533.67</ele>
        <time>2008-05-04T12:57:10Z</time>
      </trkpt>
      <trkpt lat="44.17484" lon="3.08899">
        <ele>533.67</ele>
        <time>2008-05-04T12:57:11Z</time>
      </trkpt>
      <trkpt lat="44.17489" lon="3.08904">
        <ele>533.67</ele>
        <time>2008-05-04T12:57:12Z</time>
      </trkpt>
      <trkpt lat="44.17493" lon="3.08908">
        <ele>533.19</ele>
        <time>2008-05-04T12:57:13Z</time>
      </trkpt>
      <trkpt lat="44.17498" lon="3.08911">
        <ele>533.19</ele>
        <time>2008-05-04T12:57:14Z</time>
      </trkpt>
      <trkpt lat="44.17503" lon="3.08912">
        <ele>533.19</ele>
        <time>2008-05-04T12:57:15Z</time>
      </trkpt>
      <trkpt lat="44.17506" lon="3.08913">
        <ele>533.19</ele>
        <time>2008-05-04T12:57:16Z</time>
      </trkpt>
      <trkpt lat="44.1751" lon="3.08911">
        <ele>533.19</ele>
        <time>2008-05-04T12:57:17Z</time>
      </trkpt>
      <trkpt lat="44.17513" lon="3.08909">
        <ele>533.67</ele>
        <time>2008-05-04T12:57:18Z</time>
      </trkpt>
      <trkpt lat="44.17515" lon="3.08906">
        <ele>533.67</ele>
        <time>2008-05-04T12:57:19Z</time>
      </trkpt>
      <trkpt lat="44.17517" lon="3.08904">
        <ele>534.15</ele>
        <time>2008-05-04T12:57:20Z</time>
      </trkpt>
      <trkpt lat="44.17519" lon="3.08902">
        <ele>534.63</ele>
        <time>2008-05-04T12:57:21Z</time>
      </trkpt>
      <trkpt lat="44.17521" lon="3.089">
        <ele>534.63</ele>
        <time>2008-05-04T12:57:22Z</time>
      </trkpt>
      <trkpt lat="44.17523" lon="3.08898">
        <ele>535.11</ele>
        <time>2008-05-04T12:57:23Z</time>
      </trkpt>
      <trkpt lat="44.17524" lon="3.08896">
        <ele>535.59</ele>
        <time>2008-05-04T12:57:24Z</time>
      </trkpt>
      <trkpt lat="44.17545" lon="3.08892">
        <ele>538.96</ele>
        <time>2008-05-04T12:57:34Z</time>
      </trkpt>
      <trkpt lat="44.17561" lon="3.08921">
        <ele>541.84</ele>
        <time>2008-05-04T12:57:47Z</time>
      </trkpt>
      <trkpt lat="44.17576" lon="3.08964">
        <ele>543.28</ele>
        <time>2008-05-04T12:58:00Z</time>
      </trkpt>
      <trkpt lat="44.1761" lon="3.08976">
        <ele>542.32</ele>
        <time>2008-05-04T12:58:12Z</time>
      </trkpt>
      <trkpt lat="44.17641" lon="3.09012">
        <ele>542.8</ele>
        <time>2008-05-04T12:58:23Z</time>
      </trkpt>
      <trkpt lat="44.17685" lon="3.09039">
        <ele>541.84</ele>
        <time>2008-05-04T12:58:35Z</time>
      </trkpt>
      <trkpt lat="44.17729" lon="3.09043">
        <ele>542.8</ele>
        <time>2008-05-04T12:58:47Z</time>
      </trkpt>
      <trkpt lat="44.17772" lon="3.09048">
        <ele>546.17</ele>
        <time>2008-05-04T12:59:00Z</time>
      </trkpt>
      <trkpt lat="44.1779" lon="3.09044">
        <ele>549.05</ele>
        <time>2008-05-04T12:59:07Z</time>
      </trkpt>
      <trkpt lat="44.17815" lon="3.09033">
        <ele>552.41</ele>
        <time>2008-05-04T12:59:16Z</time>
      </trkpt>
      <trkpt lat="44.17843" lon="3.0902">
        <ele>553.86</ele>
        <time>2008-05-04T12:59:28Z</time>
      </trkpt>
      <trkpt lat="44.17878" lon="3.09009">
        <ele>554.34</ele>
        <time>2008-05-04T12:59:41Z</time>
      </trkpt>
      <trkpt lat="44.17902" lon="3.09017">
        <ele>554.82</ele>
        <time>2008-05-04T12:59:51Z</time>
      </trkpt>
      <trkpt lat="44.17918" lon="3.09054">
        <ele>557.7</ele>
        <time>2008-05-04T13:00:02Z</time>
      </trkpt>
      <trkpt lat="44.1793" lon="3.09097">
        <ele>558.18</ele>
        <time>2008-05-04T13:00:15Z</time>
      </trkpt>
      <trkpt lat="44.17935" lon="3.09098">
        <ele>557.7</ele>
        <time>2008-05-04T13:00:16Z</time>
      </trkpt>
      <trkpt lat="44.1794" lon="3.09098">
        <ele>556.26</ele>
        <time>2008-05-04T13:00:17Z</time>
      </trkpt>
      <trkpt lat="44.17968" lon="3.09096">
        <ele>553.38</ele>
        <time>2008-05-04T13:00:21Z</time>
      </trkpt>
      <trkpt lat="44.18001" lon="3.09093">
        <ele>550.01</ele>
        <time>2008-05-04T13:00:25Z</time>
      </trkpt>
      <trkpt lat="44.18009" lon="3.09091">
        <ele>549.05</ele>
        <time>2008-05-04T13:00:26Z</time>
      </trkpt>
      <trkpt lat="44.18034" lon="3.0908">
        <ele>546.17</ele>
        <time>2008-05-04T13:00:29Z</time>
      </trkpt>
      <trkpt lat="44.18042" lon="3.09078">
        <ele>544.72</ele>
        <time>2008-05-04T13:00:30Z</time>
      </trkpt>
      <trkpt lat="44.1805" lon="3.09077">
        <ele>543.28</ele>
        <time>2008-05-04T13:00:31Z</time>
      </trkpt>
      <trkpt lat="44.18058" lon="3.09078">
        <ele>541.84</ele>
        <time>2008-05-04T13:00:32Z</time>
      </trkpt>
      <trkpt lat="44.18067" lon="3.0908">
        <ele>541.36</ele>
        <time>2008-05-04T13:00:33Z</time>
      </trkpt>
      <trkpt lat="44.18077" lon="3.09083">
        <ele>540.4</ele>
        <time>2008-05-04T13:00:34Z</time>
      </trkpt>
      <trkpt lat="44.18113" lon="3.09094">
        <ele>537.03</ele>
        <time>2008-05-04T13:00:38Z</time>
      </trkpt>
      <trkpt lat="44.1812" lon="3.091">
        <ele>536.07</ele>
        <time>2008-05-04T13:00:39Z</time>
      </trkpt>
      <trkpt lat="44.18126" lon="3.09108">
        <ele>535.59</ele>
        <time>2008-05-04T13:00:40Z</time>
      </trkpt>
      <trkpt lat="44.18131" lon="3.09116">
        <ele>535.11</ele>
        <time>2008-05-04T13:00:41Z</time>
      </trkpt>
      <trkpt lat="44.18135" lon="3.09125">
        <ele>535.11</ele>
        <time>2008-05-04T13:00:42Z</time>
      </trkpt>
      <trkpt lat="44.1814" lon="3.09135">
        <ele>534.63</ele>
        <time>2008-05-04T13:00:43Z</time>
      </trkpt>
      <trkpt lat="44.18144" lon="3.09146">
        <ele>534.15</ele>
        <time>2008-05-04T13:00:44Z</time>
      </trkpt>
      <trkpt lat="44.18148" lon="3.09154">
        <ele>533.67</ele>
        <time>2008-05-04T13:00:45Z</time>
      </trkpt>
      <trkpt lat="44.18154" lon="3.0916">
        <ele>533.67</ele>
        <time>2008-05-04T13:00:46Z</time>
      </trkpt>
      <trkpt lat="44.18171" lon="3.09177">
        <ele>533.19</ele>
        <time>2008-05-04T13:00:49Z</time>
      </trkpt>
      <trkpt lat="44.18176" lon="3.09185">
        <ele>532.23</ele>
        <time>2008-05-04T13:00:50Z</time>
      </trkpt>
      <trkpt lat="44.1818" lon="3.09194">
        <ele>531.27</ele>
        <time>2008-05-04T13:00:51Z</time>
      </trkpt>
      <trkpt lat="44.18182" lon="3.09205">
        <ele>531.27</ele>
        <time>2008-05-04T13:00:52Z</time>
      </trkpt>
      <trkpt lat="44.18183" lon="3.09216">
        <ele>530.3</ele>
        <time>2008-05-04T13:00:53Z</time>
      </trkpt>
      <trkpt lat="44.18183" lon="3.09226">
        <ele>529.34</ele>
        <time>2008-05-04T13:00:54Z</time>
      </trkpt>
      <trkpt lat="44.18182" lon="3.09236">
        <ele>528.86</ele>
        <time>2008-05-04T13:00:55Z</time>
      </trkpt>
      <trkpt lat="44.18182" lon="3.09244">
        <ele>528.38</ele>
        <time>2008-05-04T13:00:56Z</time>
      </trkpt>
      <trkpt lat="44.18182" lon="3.09251">
        <ele>527.9</ele>
        <time>2008-05-04T13:00:57Z</time>
      </trkpt>
      <trkpt lat="44.18183" lon="3.0926">
        <ele>528.38</ele>
        <time>2008-05-04T13:00:58Z</time>
      </trkpt>
      <trkpt lat="44.1819" lon="3.09264">
        <ele>529.34</ele>
        <time>2008-05-04T13:01:02Z</time>
      </trkpt>
      <trkpt lat="44.18216" lon="3.09202">
        <ele>529.34</ele>
        <time>2008-05-04T13:01:15Z</time>
      </trkpt>
      <trkpt lat="44.18222" lon="3.0916">
        <ele>532.23</ele>
        <time>2008-05-04T13:01:24Z</time>
      </trkpt>
      <trkpt lat="44.18223" lon="3.09098">
        <ele>535.59</ele>
        <time>2008-05-04T13:01:39Z</time>
      </trkpt>
      <trkpt lat="44.18236" lon="3.09049">
        <ele>537.99</ele>
        <time>2008-05-04T13:01:53Z</time>
      </trkpt>
      <trkpt lat="44.1825" lon="3.09012">
        <ele>541.36</ele>
        <time>2008-05-04T13:02:05Z</time>
      </trkpt>
      <trkpt lat="44.18283" lon="3.08993">
        <ele>543.28</ele>
        <time>2008-05-04T13:02:19Z</time>
      </trkpt>
      <trkpt lat="44.18293" lon="3.08996">
        <ele>543.28</ele>
        <time>2008-05-04T13:02:22Z</time>
      </trkpt>
      <trkpt lat="44.18319" lon="3.09004">
        <ele>542.8</ele>
        <time>2008-05-04T13:02:28Z</time>
      </trkpt>
      <trkpt lat="44.18324" lon="3.09006">
        <ele>543.28</ele>
        <time>2008-05-04T13:02:29Z</time>
      </trkpt>
      <trkpt lat="44.18349" lon="3.09017">
        <ele>542.32</ele>
        <time>2008-05-04T13:02:34Z</time>
      </trkpt>
      <trkpt lat="44.18354" lon="3.09021">
        <ele>541.84</ele>
        <time>2008-05-04T13:02:35Z</time>
      </trkpt>
      <trkpt lat="44.18359" lon="3.09026">
        <ele>541.84</ele>
        <time>2008-05-04T13:02:36Z</time>
      </trkpt>
      <trkpt lat="44.18378" lon="3.09047">
        <ele>540.4</ele>
        <time>2008-05-04T13:02:40Z</time>
      </trkpt>
      <trkpt lat="44.18384" lon="3.0905">
        <ele>539.92</ele>
        <time>2008-05-04T13:02:41Z</time>
      </trkpt>
      <trkpt lat="44.1839" lon="3.09049">
        <ele>539.92</ele>
        <time>2008-05-04T13:02:42Z</time>
      </trkpt>
      <trkpt lat="44.18395" lon="3.09046">
        <ele>539.92</ele>
        <time>2008-05-04T13:02:43Z</time>
      </trkpt>
      <trkpt lat="44.18399" lon="3.09041">
        <ele>539.44</ele>
        <time>2008-05-04T13:02:44Z</time>
      </trkpt>
      <trkpt lat="44.18403" lon="3.09036">
        <ele>539.92</ele>
        <time>2008-05-04T13:02:45Z</time>
      </trkpt>
      <trkpt lat="44.18411" lon="3.09021">
        <ele>540.88</ele>
        <time>2008-05-04T13:02:48Z</time>
      </trkpt>
      <trkpt lat="44.18414" lon="3.09018">
        <ele>541.36</ele>
        <time>2008-05-04T13:02:49Z</time>
      </trkpt>
      <trkpt lat="44.18417" lon="3.09016">
        <ele>541.36</ele>
        <time>2008-05-04T13:02:50Z</time>
      </trkpt>
      <trkpt lat="44.18421" lon="3.09014">
        <ele>541.84</ele>
        <time>2008-05-04T13:02:51Z</time>
      </trkpt>
      <trkpt lat="44.18424" lon="3.09013">
        <ele>541.84</ele>
        <time>2008-05-04T13:02:52Z</time>
      </trkpt>
      <trkpt lat="44.18428" lon="3.09013">
        <ele>541.84</ele>
        <time>2008-05-04T13:02:53Z</time>
      </trkpt>
      <trkpt lat="44.18432" lon="3.09013">
        <ele>542.32</ele>
        <time>2008-05-04T13:02:54Z</time>
      </trkpt>
      <trkpt lat="44.18482" lon="3.09006">
        <ele>544.24</ele>
        <time>2008-05-04T13:03:08Z</time>
      </trkpt>
      <trkpt lat="44.1851" lon="3.09001">
        <ele>545.2</ele>
        <time>2008-05-04T13:03:16Z</time>
      </trkpt>
      <trkpt lat="44.18513" lon="3.09">
        <ele>545.2</ele>
        <time>2008-05-04T13:03:17Z</time>
      </trkpt>
      <trkpt lat="44.18532" lon="3.08994">
        <ele>545.69</ele>
        <time>2008-05-04T13:03:22Z</time>
      </trkpt>
      <trkpt lat="44.18537" lon="3.08991">
        <ele>545.69</ele>
        <time>2008-05-04T13:03:23Z</time>
      </trkpt>
      <trkpt lat="44.18549" lon="3.08985">
        <ele>545.69</ele>
        <time>2008-05-04T13:03:26Z</time>
      </trkpt>
      <trkpt lat="44.18559" lon="3.08983">
        <ele>545.2</ele>
        <time>2008-05-04T13:03:28Z</time>
      </trkpt>
      <trkpt lat="44.18564" lon="3.08984">
        <ele>545.2</ele>
        <time>2008-05-04T13:03:29Z</time>
      </trkpt>
      <trkpt lat="44.18568" lon="3.08987">
        <ele>545.2</ele>
        <time>2008-05-04T13:03:30Z</time>
      </trkpt>
      <trkpt lat="44.18572" lon="3.0899">
        <ele>544.72</ele>
        <time>2008-05-04T13:03:31Z</time>
      </trkpt>
      <trkpt lat="44.18576" lon="3.08994">
        <ele>544.72</ele>
        <time>2008-05-04T13:03:32Z</time>
      </trkpt>
      <trkpt lat="44.18579" lon="3.08999">
        <ele>544.72</ele>
        <time>2008-05-04T13:03:33Z</time>
      </trkpt>
      <trkpt lat="44.18582" lon="3.09004">
        <ele>544.72</ele>
        <time>2008-05-04T13:03:34Z</time>
      </trkpt>
      <trkpt lat="44.18603" lon="3.09054">
        <ele>545.69</ele>
        <time>2008-05-04T13:03:45Z</time>
      </trkpt>
      <trkpt lat="44.18606" lon="3.09055">
        <ele>545.2</ele>
        <time>2008-05-04T13:03:46Z</time>
      </trkpt>
      <trkpt lat="44.18615" lon="3.09055">
        <ele>544.72</ele>
        <time>2008-05-04T13:03:48Z</time>
      </trkpt>
      <trkpt lat="44.18618" lon="3.09052">
        <ele>544.24</ele>
        <time>2008-05-04T13:03:49Z</time>
      </trkpt>
      <trkpt lat="44.1862" lon="3.09047">
        <ele>544.72</ele>
        <time>2008-05-04T13:03:50Z</time>
      </trkpt>
      <trkpt lat="44.18619" lon="3.09042">
        <ele>544.72</ele>
        <time>2008-05-04T13:03:51Z</time>
      </trkpt>
      <trkpt lat="44.18618" lon="3.09038">
        <ele>544.72</ele>
        <time>2008-05-04T13:03:52Z</time>
      </trkpt>
      <trkpt lat="44.18616" lon="3.09034">
        <ele>544.72</ele>
        <time>2008-05-04T13:03:53Z</time>
      </trkpt>
      <trkpt lat="44.18615" lon="3.09031">
        <ele>544.72</ele>
        <time>2008-05-04T13:03:54Z</time>
      </trkpt>
      <trkpt lat="44.18613" lon="3.09027">
        <ele>544.72</ele>
        <time>2008-05-04T13:03:55Z</time>
      </trkpt>
      <trkpt lat="44.18597" lon="3.08965">
        <ele>546.65</ele>
        <time>2008-05-04T13:04:08Z</time>
      </trkpt>
      <trkpt lat="44.18566" lon="3.08914">
        <ele>547.61</ele>
        <time>2008-05-04T13:04:21Z</time>
      </trkpt>
      <trkpt lat="44.18561" lon="3.08896">
        <ele>549.05</ele>
        <time>2008-05-04T13:04:26Z</time>
      </trkpt>
      <trkpt lat="44.18562" lon="3.08893">
        <ele>549.05</ele>
        <time>2008-05-04T13:04:27Z</time>
      </trkpt>
      <trkpt lat="44.18585" lon="3.08862">
        <ele>551.45</ele>
        <time>2008-05-04T13:04:38Z</time>
      </trkpt>
      <trkpt lat="44.18615" lon="3.08802">
        <ele>554.34</ele>
        <time>2008-05-04T13:04:56Z</time>
      </trkpt>
      <trkpt lat="44.18641" lon="3.08746">
        <ele>557.22</ele>
        <time>2008-05-04T13:05:13Z</time>
      </trkpt>
      <trkpt lat="44.18658" lon="3.08713">
        <ele>558.66</ele>
        <time>2008-05-04T13:05:25Z</time>
      </trkpt>
      <trkpt lat="44.18659" lon="3.08712">
        <ele>558.66</ele>
        <time>2008-05-04T13:05:26Z</time>
      </trkpt>
      <trkpt lat="44.18661" lon="3.08711">
        <ele>558.66</ele>
        <time>2008-05-04T13:05:27Z</time>
      </trkpt>
      <trkpt lat="44.18663" lon="3.0871">
        <ele>558.66</ele>
        <time>2008-05-04T13:05:28Z</time>
      </trkpt>
      <trkpt lat="44.18664" lon="3.08711">
        <ele>558.66</ele>
        <time>2008-05-04T13:05:29Z</time>
      </trkpt>
      <trkpt lat="44.18665" lon="3.08713">
        <ele>558.66</ele>
        <time>2008-05-04T13:05:30Z</time>
      </trkpt>
      <trkpt lat="44.18666" lon="3.08716">
        <ele>558.66</ele>
        <time>2008-05-04T13:05:31Z</time>
      </trkpt>
      <trkpt lat="44.18666" lon="3.08719">
        <ele>558.66</ele>
        <time>2008-05-04T13:05:32Z</time>
      </trkpt>
      <trkpt lat="44.18667" lon="3.08724">
        <ele>558.18</ele>
        <time>2008-05-04T13:05:33Z</time>
      </trkpt>
      <trkpt lat="44.18673" lon="3.08756">
        <ele>557.22</ele>
        <time>2008-05-04T13:05:38Z</time>
      </trkpt>
      <trkpt lat="44.18684" lon="3.08791">
        <ele>556.74</ele>
        <time>2008-05-04T13:05:43Z</time>
      </trkpt>
      <trkpt lat="44.18687" lon="3.08797">
        <ele>556.74</ele>
        <time>2008-05-04T13:05:44Z</time>
      </trkpt>
      <trkpt lat="44.1869" lon="3.08802">
        <ele>556.74</ele>
        <time>2008-05-04T13:05:45Z</time>
      </trkpt>
      <trkpt lat="44.18734" lon="3.08842">
        <ele>558.66</ele>
        <time>2008-05-04T13:05:58Z</time>
      </trkpt>
      <trkpt lat="44.1876" lon="3.08861">
        <ele>562.03</ele>
        <time>2008-05-04T13:06:06Z</time>
      </trkpt>
      <trkpt lat="44.18763" lon="3.08863">
        <ele>562.51</ele>
        <time>2008-05-04T13:06:07Z</time>
      </trkpt>
      <trkpt lat="44.18783" lon="3.0888">
        <ele>565.39</ele>
        <time>2008-05-04T13:06:14Z</time>
      </trkpt>
      <trkpt lat="44.18819" lon="3.08904">
        <ele>568.28</ele>
        <time>2008-05-04T13:06:26Z</time>
      </trkpt>
      <trkpt lat="44.18852" lon="3.08934">
        <ele>571.64</ele>
        <time>2008-05-04T13:06:39Z</time>
      </trkpt>
      <trkpt lat="44.18886" lon="3.08961">
        <ele>575.01</ele>
        <time>2008-05-04T13:06:53Z</time>
      </trkpt>
      <trkpt lat="44.18917" lon="3.08977">
        <ele>577.89</ele>
        <time>2008-05-04T13:07:05Z</time>
      </trkpt>
      <trkpt lat="44.18956" lon="3.08982">
        <ele>580.29</ele>
        <time>2008-05-04T13:07:19Z</time>
      </trkpt>
      <trkpt lat="44.18997" lon="3.09016">
        <ele>582.7</ele>
        <time>2008-05-04T13:07:35Z</time>
      </trkpt>
      <trkpt lat="44.19034" lon="3.09057">
        <ele>584.62</ele>
        <time>2008-05-04T13:07:51Z</time>
      </trkpt>
      <trkpt lat="44.19068" lon="3.09084">
        <ele>585.58</ele>
        <time>2008-05-04T13:08:04Z</time>
      </trkpt>
      <trkpt lat="44.19077" lon="3.09086">
        <ele>585.1</ele>
        <time>2008-05-04T13:08:06Z</time>
      </trkpt>
      <trkpt lat="44.1908" lon="3.09089">
        <ele>585.58</ele>
        <time>2008-05-04T13:08:07Z</time>
      </trkpt>
      <trkpt lat="44.19084" lon="3.09093">
        <ele>586.06</ele>
        <time>2008-05-04T13:08:08Z</time>
      </trkpt>
      <trkpt lat="44.19086" lon="3.09097">
        <ele>586.06</ele>
        <time>2008-05-04T13:08:09Z</time>
      </trkpt>
      <trkpt lat="44.19088" lon="3.09101">
        <ele>587.02</ele>
        <time>2008-05-04T13:08:10Z</time>
      </trkpt>
      <trkpt lat="44.19089" lon="3.09105">
        <ele>587.5</ele>
        <time>2008-05-04T13:08:11Z</time>
      </trkpt>
      <trkpt lat="44.19089" lon="3.09108">
        <ele>587.5</ele>
        <time>2008-05-04T13:08:12Z</time>
      </trkpt>
      <trkpt lat="44.19085" lon="3.0914">
        <ele>590.39</ele>
        <time>2008-05-04T13:08:22Z</time>
      </trkpt>
      <trkpt lat="44.19073" lon="3.09175">
        <ele>590.39</ele>
        <time>2008-05-04T13:08:32Z</time>
      </trkpt>
      <trkpt lat="44.19081" lon="3.09205">
        <ele>594.23</ele>
        <time>2008-05-04T13:08:42Z</time>
      </trkpt>
      <trkpt lat="44.19082" lon="3.09207">
        <ele>594.23</ele>
        <time>2008-05-04T13:08:43Z</time>
      </trkpt>
      <trkpt lat="44.19097" lon="3.0923">
        <ele>597.6</ele>
        <time>2008-05-04T13:08:55Z</time>
      </trkpt>
      <trkpt lat="44.19111" lon="3.09249">
        <ele>600.48</ele>
        <time>2008-05-04T13:09:06Z</time>
      </trkpt>
      <trkpt lat="44.19115" lon="3.09255">
        <ele>600.96</ele>
        <time>2008-05-04T13:09:09Z</time>
      </trkpt>
      <trkpt lat="44.19115" lon="3.09258">
        <ele>601.44</ele>
        <time>2008-05-04T13:09:10Z</time>
      </trkpt>
      <trkpt lat="44.19119" lon="3.09296">
        <ele>604.33</ele>
        <time>2008-05-04T13:09:24Z</time>
      </trkpt>
      <trkpt lat="44.19128" lon="3.09334">
        <ele>606.25</ele>
        <time>2008-05-04T13:09:38Z</time>
      </trkpt>
      <trkpt lat="44.19136" lon="3.0937">
        <ele>607.69</ele>
        <time>2008-05-04T13:09:52Z</time>
      </trkpt>
      <trkpt lat="44.19139" lon="3.09402">
        <ele>610.09</ele>
        <time>2008-05-04T13:10:05Z</time>
      </trkpt>
      <trkpt lat="44.1914" lon="3.09404">
        <ele>610.09</ele>
        <time>2008-05-04T13:10:06Z</time>
      </trkpt>
      <trkpt lat="44.1914" lon="3.09407">
        <ele>610.09</ele>
        <time>2008-05-04T13:10:07Z</time>
      </trkpt>
      <trkpt lat="44.1914" lon="3.09409">
        <ele>610.09</ele>
        <time>2008-05-04T13:10:08Z</time>
      </trkpt>
      <trkpt lat="44.1914" lon="3.09412">
        <ele>610.09</ele>
        <time>2008-05-04T13:10:09Z</time>
      </trkpt>
      <trkpt lat="44.19141" lon="3.09471">
        <ele>609.61</ele>
        <time>2008-05-04T13:10:22Z</time>
      </trkpt>
      <trkpt lat="44.19143" lon="3.0949">
        <ele>609.61</ele>
        <time>2008-05-04T13:10:25Z</time>
      </trkpt>
      <trkpt lat="44.19143" lon="3.09544">
        <ele>609.61</ele>
        <time>2008-05-04T13:10:36Z</time>
      </trkpt>
      <trkpt lat="44.19148" lon="3.09605">
        <ele>611.54</ele>
        <time>2008-05-04T13:10:49Z</time>
      </trkpt>
      <trkpt lat="44.19164" lon="3.09638">
        <ele>613.94</ele>
        <time>2008-05-04T13:11:01Z</time>
      </trkpt>
      <trkpt lat="44.19176" lon="3.0967">
        <ele>616.82</ele>
        <time>2008-05-04T13:11:14Z</time>
      </trkpt>
      <trkpt lat="44.19183" lon="3.09689">
        <ele>617.78</ele>
        <time>2008-05-04T13:11:23Z</time>
      </trkpt>
      <trkpt lat="44.19184" lon="3.09687">
        <ele>619.71</ele>
        <time>2008-05-04T13:11:40Z</time>
      </trkpt>
      <trkpt lat="44.1918" lon="3.09684">
        <ele>617.78</ele>
        <time>2008-05-04T13:11:52Z</time>
      </trkpt>
      <trkpt lat="44.19179" lon="3.0968">
        <ele>617.78</ele>
        <time>2008-05-04T13:11:55Z</time>
      </trkpt>
      <trkpt lat="44.19175" lon="3.09666">
        <ele>617.3</ele>
        <time>2008-05-04T13:12:06Z</time>
      </trkpt>
      <trkpt lat="44.19171" lon="3.09656">
        <ele>616.34</ele>
        <time>2008-05-04T13:12:17Z</time>
      </trkpt>
      <trkpt lat="44.19172" lon="3.09658">
        <ele>616.34</ele>
        <time>2008-05-04T13:12:42Z</time>
      </trkpt>
      <trkpt lat="44.19172" lon="3.09662">
        <ele>616.82</ele>
        <time>2008-05-04T13:13:50Z</time>
      </trkpt>
      <trkpt lat="44.19181" lon="3.09687">
        <ele>617.78</ele>
        <time>2008-05-04T13:14:05Z</time>
      </trkpt>
      <trkpt lat="44.19179" lon="3.09684">
        <ele>617.78</ele>
        <time>2008-05-04T13:14:17Z</time>
      </trkpt>
      <trkpt lat="44.19173" lon="3.09674">
        <ele>616.82</ele>
        <time>2008-05-04T13:14:28Z</time>
      </trkpt>
      <trkpt lat="44.19174" lon="3.09676">
        <ele>616.82</ele>
        <time>2008-05-04T13:14:31Z</time>
      </trkpt>
      <trkpt lat="44.19181" lon="3.09689">
        <ele>618.26</ele>
        <time>2008-05-04T13:14:38Z</time>
      </trkpt>
      <trkpt lat="44.19182" lon="3.09688">
        <ele>618.26</ele>
        <time>2008-05-04T13:14:50Z</time>
      </trkpt>
      <trkpt lat="44.19178" lon="3.0968">
        <ele>617.3</ele>
        <time>2008-05-04T13:14:54Z</time>
      </trkpt>
      <trkpt lat="44.19174" lon="3.09671">
        <ele>616.82</ele>
        <time>2008-05-04T13:14:57Z</time>
      </trkpt>
      <trkpt lat="44.19175" lon="3.09673">
        <ele>616.82</ele>
        <time>2008-05-04T13:15:06Z</time>
      </trkpt>
      <trkpt lat="44.19181" lon="3.09688">
        <ele>618.26</ele>
        <time>2008-05-04T13:15:12Z</time>
      </trkpt>
      <trkpt lat="44.19185" lon="3.0969">
        <ele>619.23</ele>
        <time>2008-05-04T13:15:14Z</time>
      </trkpt>
      <trkpt lat="44.19185" lon="3.09689">
        <ele>619.71</ele>
        <time>2008-05-04T13:15:15Z</time>
      </trkpt>
      <trkpt lat="44.19198" lon="3.0969">
        <ele>622.59</ele>
        <time>2008-05-04T13:15:26Z</time>
      </trkpt>
      <trkpt lat="44.192" lon="3.09692">
        <ele>623.07</ele>
        <time>2008-05-04T13:15:27Z</time>
      </trkpt>
      <trkpt lat="44.19206" lon="3.09704">
        <ele>624.03</ele>
        <time>2008-05-04T13:15:39Z</time>
      </trkpt>
      <trkpt lat="44.19213" lon="3.0971">
        <ele>627.4</ele>
        <time>2008-05-04T13:16:25Z</time>
      </trkpt>
      <trkpt lat="44.19216" lon="3.09714">
        <ele>628.84</ele>
        <time>2008-05-04T13:16:30Z</time>
      </trkpt>
      <trkpt lat="44.19223" lon="3.09717">
        <ele>629.8</ele>
        <time>2008-05-04T13:16:43Z</time>
      </trkpt>
      <trkpt lat="44.19228" lon="3.09722">
        <ele>629.8</ele>
        <time>2008-05-04T13:17:07Z</time>
      </trkpt>
      <trkpt lat="44.19233" lon="3.0972">
        <ele>629.8</ele>
        <time>2008-05-04T13:22:00Z</time>
      </trkpt>
      <trkpt lat="44.19239" lon="3.09713">
        <ele>630.76</ele>
        <time>2008-05-04T13:22:05Z</time>
      </trkpt>
      <trkpt lat="44.19241" lon="3.09708">
        <ele>631.24</ele>
        <time>2008-05-04T13:22:07Z</time>
      </trkpt>
      <trkpt lat="44.19241" lon="3.09702">
        <ele>631.72</ele>
        <time>2008-05-04T13:22:12Z</time>
      </trkpt>
      <trkpt lat="44.19236" lon="3.097">
        <ele>630.76</ele>
        <time>2008-05-04T13:22:24Z</time>
      </trkpt>
      <trkpt lat="44.19231" lon="3.09708">
        <ele>627.4</ele>
        <time>2008-05-04T13:22:28Z</time>
      </trkpt>
      <trkpt lat="44.1923" lon="3.0971">
        <ele>627.4</ele>
        <time>2008-05-04T13:22:29Z</time>
      </trkpt>
      <trkpt lat="44.1923" lon="3.09712">
        <ele>627.4</ele>
        <time>2008-05-04T13:22:42Z</time>
      </trkpt>
      <trkpt lat="44.1923" lon="3.09716">
        <ele>628.84</ele>
        <time>2008-05-04T13:22:51Z</time>
      </trkpt>
      <trkpt lat="44.19233" lon="3.09719">
        <ele>629.8</ele>
        <time>2008-05-04T13:23:04Z</time>
      </trkpt>
      <trkpt lat="44.19233" lon="3.09719">
        <ele>629.8</ele>
        <time>2008-05-04T13:23:38Z</time>
      </trkpt>
      <trkpt lat="44.19241" lon="3.09705">
        <ele>632.2</ele>
        <time>2008-05-04T13:23:48Z</time>
      </trkpt>
      <trkpt lat="44.19241" lon="3.09704">
        <ele>632.2</ele>
        <time>2008-05-04T13:23:49Z</time>
      </trkpt>
      <trkpt lat="44.19235" lon="3.09701">
        <ele>631.24</ele>
        <time>2008-05-04T13:23:59Z</time>
      </trkpt>
      <trkpt lat="44.19235" lon="3.09702">
        <ele>631.24</ele>
        <time>2008-05-04T13:24:00Z</time>
      </trkpt>
      <trkpt lat="44.19228" lon="3.0971">
        <ele>627.4</ele>
        <time>2008-05-04T13:24:04Z</time>
      </trkpt>
      <trkpt lat="44.19227" lon="3.09711">
        <ele>627.4</ele>
        <time>2008-05-04T13:24:05Z</time>
      </trkpt>
      <trkpt lat="44.19228" lon="3.09713">
        <ele>627.4</ele>
        <time>2008-05-04T13:24:08Z</time>
      </trkpt>
      <trkpt lat="44.19234" lon="3.09715">
        <ele>629.32</ele>
        <time>2008-05-04T13:24:21Z</time>
      </trkpt>
      <trkpt lat="44.19236" lon="3.09714">
        <ele>630.28</ele>
        <time>2008-05-04T13:24:39Z</time>
      </trkpt>
      <trkpt lat="44.19239" lon="3.09712">
        <ele>630.76</ele>
        <time>2008-05-04T13:24:58Z</time>
      </trkpt>
      <trkpt lat="44.1924" lon="3.09708">
        <ele>631.24</ele>
        <time>2008-05-04T13:25:00Z</time>
      </trkpt>
      <trkpt lat="44.1924" lon="3.09704">
        <ele>631.72</ele>
        <time>2008-05-04T13:25:04Z</time>
      </trkpt>
      <trkpt lat="44.19234" lon="3.09701">
        <ele>630.76</ele>
        <time>2008-05-04T13:25:12Z</time>
      </trkpt>
      <trkpt lat="44.1923" lon="3.09707">
        <ele>627.88</ele>
        <time>2008-05-04T13:25:15Z</time>
      </trkpt>
      <trkpt lat="44.19229" lon="3.09711">
        <ele>627.4</ele>
        <time>2008-05-04T13:25:17Z</time>
      </trkpt>
      <trkpt lat="44.19229" lon="3.09712">
        <ele>627.88</ele>
        <time>2008-05-04T13:25:38Z</time>
      </trkpt>
      <trkpt lat="44.19236" lon="3.09714">
        <ele>629.8</ele>
        <time>2008-05-04T13:25:51Z</time>
      </trkpt>
      <trkpt lat="44.19241" lon="3.09712">
        <ele>630.76</ele>
        <time>2008-05-04T13:26:12Z</time>
      </trkpt>
      <trkpt lat="44.19242" lon="3.09711">
        <ele>630.76</ele>
        <time>2008-05-04T13:26:19Z</time>
      </trkpt>
      <trkpt lat="44.19243" lon="3.09704">
        <ele>631.72</ele>
        <time>2008-05-04T13:26:24Z</time>
      </trkpt>
      <trkpt lat="44.19235" lon="3.097">
        <ele>630.76</ele>
        <time>2008-05-04T13:26:31Z</time>
      </trkpt>
      <trkpt lat="44.19229" lon="3.0971">
        <ele>627.88</ele>
        <time>2008-05-04T13:26:35Z</time>
      </trkpt>
      <trkpt lat="44.19229" lon="3.09712">
        <ele>627.4</ele>
        <time>2008-05-04T13:26:37Z</time>
      </trkpt>
      <trkpt lat="44.1924" lon="3.09711">
        <ele>630.76</ele>
        <time>2008-05-04T13:26:50Z</time>
      </trkpt>
      <trkpt lat="44.1924" lon="3.0971">
        <ele>630.76</ele>
        <time>2008-05-04T13:26:51Z</time>
      </trkpt>
      <trkpt lat="44.1924" lon="3.09704">
        <ele>631.24</ele>
        <time>2008-05-04T13:26:55Z</time>
      </trkpt>
      <trkpt lat="44.19239" lon="3.09703">
        <ele>630.76</ele>
        <time>2008-05-04T13:27:18Z</time>
      </trkpt>
      <trkpt lat="44.19236" lon="3.09703">
        <ele>630.28</ele>
        <time>2008-05-04T13:27:45Z</time>
      </trkpt>
      <trkpt lat="44.19231" lon="3.09713">
        <ele>627.88</ele>
        <time>2008-05-04T13:27:53Z</time>
      </trkpt>
      <trkpt lat="44.19233" lon="3.09716">
        <ele>628.84</ele>
        <time>2008-05-04T13:28:05Z</time>
      </trkpt>
      <trkpt lat="44.19235" lon="3.09715">
        <ele>630.28</ele>
        <time>2008-05-04T13:28:23Z</time>
      </trkpt>
      <trkpt lat="44.19235" lon="3.09715">
        <ele>630.28</ele>
        <time>2008-05-04T13:28:35Z</time>
      </trkpt>
      <trkpt lat="44.1924" lon="3.09711">
        <ele>631.24</ele>
        <time>2008-05-04T13:28:38Z</time>
      </trkpt>
      <trkpt lat="44.19239" lon="3.09705">
        <ele>631.72</ele>
        <time>2008-05-04T13:28:41Z</time>
      </trkpt>
      <trkpt lat="44.19233" lon="3.09703">
        <ele>630.76</ele>
        <time>2008-05-04T13:28:50Z</time>
      </trkpt>
      <trkpt lat="44.19229" lon="3.09707">
        <ele>627.88</ele>
        <time>2008-05-04T13:28:53Z</time>
      </trkpt>
      <trkpt lat="44.19231" lon="3.09716">
        <ele>628.84</ele>
        <time>2008-05-04T13:29:04Z</time>
      </trkpt>
      <trkpt lat="44.19232" lon="3.09717">
        <ele>628.84</ele>
        <time>2008-05-04T13:29:14Z</time>
      </trkpt>
      <trkpt lat="44.1924" lon="3.09712">
        <ele>630.76</ele>
        <time>2008-05-04T13:29:20Z</time>
      </trkpt>
      <trkpt lat="44.1924" lon="3.09703">
        <ele>631.72</ele>
        <time>2008-05-04T13:29:32Z</time>
      </trkpt>
      <trkpt lat="44.1924" lon="3.09703">
        <ele>631.72</ele>
        <time>2008-05-04T13:29:45Z</time>
      </trkpt>
      <trkpt lat="44.19235" lon="3.09701">
        <ele>630.76</ele>
        <time>2008-05-04T13:29:49Z</time>
      </trkpt>
      <trkpt lat="44.19229" lon="3.09707">
        <ele>627.4</ele>
        <time>2008-05-04T13:29:53Z</time>
      </trkpt>
      <trkpt lat="44.19227" lon="3.09711">
        <ele>627.4</ele>
        <time>2008-05-04T13:29:54Z</time>
      </trkpt>
      <trkpt lat="44.19229" lon="3.09714">
        <ele>627.88</ele>
        <time>2008-05-04T13:30:09Z</time>
      </trkpt>
      <trkpt lat="44.19231" lon="3.09713">
        <ele>627.88</ele>
        <time>2008-05-04T13:30:24Z</time>
      </trkpt>
      <trkpt lat="44.19233" lon="3.09717">
        <ele>629.32</ele>
        <time>2008-05-04T13:30:40Z</time>
      </trkpt>
      <trkpt lat="44.19237" lon="3.09714">
        <ele>630.28</ele>
        <time>2008-05-04T13:30:50Z</time>
      </trkpt>
      <trkpt lat="44.1924" lon="3.09703">
        <ele>631.24</ele>
        <time>2008-05-04T13:30:57Z</time>
      </trkpt>
      <trkpt lat="44.19228" lon="3.09705">
        <ele>627.4</ele>
        <time>2008-05-04T13:31:05Z</time>
      </trkpt>
      <trkpt lat="44.19228" lon="3.09707">
        <ele>626.92</ele>
        <time>2008-05-04T13:31:06Z</time>
      </trkpt>
      <trkpt lat="44.19228" lon="3.0971">
        <ele>626.92</ele>
        <time>2008-05-04T13:31:24Z</time>
      </trkpt>
      <trkpt lat="44.19229" lon="3.09711">
        <ele>627.4</ele>
        <time>2008-05-04T13:31:32Z</time>
      </trkpt>
      <trkpt lat="44.19234" lon="3.09714">
        <ele>629.32</ele>
        <time>2008-05-04T13:31:37Z</time>
      </trkpt>
      <trkpt lat="44.19241" lon="3.09702">
        <ele>631.24</ele>
        <time>2008-05-04T13:31:45Z</time>
      </trkpt>
      <trkpt lat="44.1923" lon="3.09704">
        <ele>627.4</ele>
        <time>2008-05-04T13:31:53Z</time>
      </trkpt>
      <trkpt lat="44.19229" lon="3.09707">
        <ele>627.4</ele>
        <time>2008-05-04T13:31:54Z</time>
      </trkpt>
      <trkpt lat="44.19235" lon="3.09717">
        <ele>628.36</ele>
        <time>2008-05-04T13:32:02Z</time>
      </trkpt>
      <trkpt lat="44.19233" lon="3.09714">
        <ele>629.32</ele>
        <time>2008-05-04T13:32:35Z</time>
      </trkpt>
      <trkpt lat="44.19232" lon="3.0972">
        <ele>629.32</ele>
        <time>2008-05-04T13:33:53Z</time>
      </trkpt>
      <trkpt lat="44.19232" lon="3.09722">
        <ele>628.84</ele>
        <time>2008-05-04T13:34:36Z</time>
      </trkpt>
      <trkpt lat="44.19231" lon="3.09731">
        <ele>628.36</ele>
        <time>2008-05-04T13:34:53Z</time>
      </trkpt>
      <trkpt lat="44.19232" lon="3.09735">
        <ele>627.88</ele>
        <time>2008-05-04T13:35:01Z</time>
      </trkpt>
      <trkpt lat="44.19237" lon="3.0975">
        <ele>625.96</ele>
        <time>2008-05-04T13:35:07Z</time>
      </trkpt>
      <trkpt lat="44.19243" lon="3.09751">
        <ele>626.44</ele>
        <time>2008-05-04T13:35:10Z</time>
      </trkpt>
      <trkpt lat="44.19267" lon="3.0974">
        <ele>622.59</ele>
        <time>2008-05-04T13:35:20Z</time>
      </trkpt>
      <trkpt lat="44.19286" lon="3.0974">
        <ele>618.75</ele>
        <time>2008-05-04T13:35:25Z</time>
      </trkpt>
      <trkpt lat="44.19291" lon="3.0974">
        <ele>617.78</ele>
        <time>2008-05-04T13:35:26Z</time>
      </trkpt>
      <trkpt lat="44.19312" lon="3.09741">
        <ele>613.46</ele>
        <time>2008-05-04T13:35:31Z</time>
      </trkpt>
      <trkpt lat="44.19318" lon="3.0974">
        <ele>612.5</ele>
        <time>2008-05-04T13:35:33Z</time>
      </trkpt>
      <trkpt lat="44.19321" lon="3.09738">
        <ele>611.06</ele>
        <time>2008-05-04T13:35:43Z</time>
      </trkpt>
      <trkpt lat="44.19331" lon="3.09741">
        <ele>609.61</ele>
        <time>2008-05-04T13:36:01Z</time>
      </trkpt>
      <trkpt lat="44.19337" lon="3.09743">
        <ele>608.65</ele>
        <time>2008-05-04T13:36:03Z</time>
      </trkpt>
      <trkpt lat="44.19352" lon="3.09753">
        <ele>606.73</ele>
        <time>2008-05-04T13:36:16Z</time>
      </trkpt>
      <trkpt lat="44.19353" lon="3.09752">
        <ele>606.73</ele>
        <time>2008-05-04T13:36:34Z</time>
      </trkpt>
      <trkpt lat="44.19353" lon="3.09746">
        <ele>607.21</ele>
        <time>2008-05-04T13:36:44Z</time>
      </trkpt>
      <trkpt lat="44.19352" lon="3.09749">
        <ele>607.21</ele>
        <time>2008-05-04T13:37:44Z</time>
      </trkpt>
      <trkpt lat="44.19352" lon="3.09751">
        <ele>606.73</ele>
        <time>2008-05-04T13:37:51Z</time>
      </trkpt>
      <trkpt lat="44.19353" lon="3.09743">
        <ele>607.21</ele>
        <time>2008-05-04T13:37:55Z</time>
      </trkpt>
      <trkpt lat="44.19358" lon="3.09717">
        <ele>608.65</ele>
        <time>2008-05-04T13:38:04Z</time>
      </trkpt>
      <trkpt lat="44.1936" lon="3.09709">
        <ele>608.65</ele>
        <time>2008-05-04T13:38:08Z</time>
      </trkpt>
      <trkpt lat="44.19357" lon="3.09729">
        <ele>607.69</ele>
        <time>2008-05-04T13:38:15Z</time>
      </trkpt>
      <trkpt lat="44.19356" lon="3.09738">
        <ele>606.73</ele>
        <time>2008-05-04T13:38:27Z</time>
      </trkpt>
      <trkpt lat="44.19356" lon="3.09737">
        <ele>607.69</ele>
        <time>2008-05-04T13:40:22Z</time>
      </trkpt>
      <trkpt lat="44.19362" lon="3.09704">
        <ele>609.13</ele>
        <time>2008-05-04T13:40:32Z</time>
      </trkpt>
      <trkpt lat="44.19364" lon="3.09693">
        <ele>609.61</ele>
        <time>2008-05-04T13:40:36Z</time>
      </trkpt>
      <trkpt lat="44.19364" lon="3.09706">
        <ele>608.65</ele>
        <time>2008-05-04T13:40:41Z</time>
      </trkpt>
      <trkpt lat="44.19355" lon="3.09739">
        <ele>607.21</ele>
        <time>2008-05-04T13:40:53Z</time>
      </trkpt>
      <trkpt lat="44.19355" lon="3.09744">
        <ele>606.73</ele>
        <time>2008-05-04T13:40:55Z</time>
      </trkpt>
      <trkpt lat="44.1935" lon="3.09747">
        <ele>606.73</ele>
        <time>2008-05-04T13:41:00Z</time>
      </trkpt>
      <trkpt lat="44.19356" lon="3.09714">
        <ele>608.65</ele>
        <time>2008-05-04T13:41:13Z</time>
      </trkpt>
      <trkpt lat="44.19357" lon="3.09706">
        <ele>609.13</ele>
        <time>2008-05-04T13:41:16Z</time>
      </trkpt>
      <trkpt lat="44.19359" lon="3.09714">
        <ele>608.65</ele>
        <time>2008-05-04T13:41:21Z</time>
      </trkpt>
      <trkpt lat="44.19355" lon="3.09736">
        <ele>607.69</ele>
        <time>2008-05-04T13:41:26Z</time>
      </trkpt>
      <trkpt lat="44.19351" lon="3.0974">
        <ele>607.21</ele>
        <time>2008-05-04T13:41:30Z</time>
      </trkpt>
      <trkpt lat="44.19354" lon="3.09728">
        <ele>607.69</ele>
        <time>2008-05-04T13:41:35Z</time>
      </trkpt>
      <trkpt lat="44.19361" lon="3.0969">
        <ele>609.61</ele>
        <time>2008-05-04T13:41:48Z</time>
      </trkpt>
      <trkpt lat="44.19364" lon="3.09686">
        <ele>610.09</ele>
        <time>2008-05-04T13:41:52Z</time>
      </trkpt>
      <trkpt lat="44.19363" lon="3.09703">
        <ele>609.13</ele>
        <time>2008-05-04T13:41:57Z</time>
      </trkpt>
      <trkpt lat="44.19356" lon="3.09741">
        <ele>606.73</ele>
        <time>2008-05-04T13:42:08Z</time>
      </trkpt>
      <trkpt lat="44.19356" lon="3.09743">
        <ele>606.73</ele>
        <time>2008-05-04T13:42:09Z</time>
      </trkpt>
      <trkpt lat="44.19355" lon="3.09744">
        <ele>606.73</ele>
        <time>2008-05-04T13:42:10Z</time>
      </trkpt>
      <trkpt lat="44.19352" lon="3.09744">
        <ele>606.73</ele>
        <time>2008-05-04T13:42:12Z</time>
      </trkpt>
      <trkpt lat="44.19352" lon="3.09742">
        <ele>606.73</ele>
        <time>2008-05-04T13:42:13Z</time>
      </trkpt>
      <trkpt lat="44.19352" lon="3.0974">
        <ele>607.21</ele>
        <time>2008-05-04T13:42:14Z</time>
      </trkpt>
      <trkpt lat="44.19352" lon="3.09737">
        <ele>607.69</ele>
        <time>2008-05-04T13:42:15Z</time>
      </trkpt>
      <trkpt lat="44.19353" lon="3.09734">
        <ele>607.69</ele>
        <time>2008-05-04T13:42:16Z</time>
      </trkpt>
      <trkpt lat="44.19354" lon="3.09731">
        <ele>607.69</ele>
        <time>2008-05-04T13:42:17Z</time>
      </trkpt>
      <trkpt lat="44.19354" lon="3.09728">
        <ele>607.69</ele>
        <time>2008-05-04T13:42:18Z</time>
      </trkpt>
      <trkpt lat="44.19363" lon="3.09699">
        <ele>609.13</ele>
        <time>2008-05-04T13:42:29Z</time>
      </trkpt>
      <trkpt lat="44.19363" lon="3.09693">
        <ele>609.61</ele>
        <time>2008-05-04T13:42:31Z</time>
      </trkpt>
      <trkpt lat="44.19363" lon="3.09691">
        <ele>609.61</ele>
        <time>2008-05-04T13:42:32Z</time>
      </trkpt>
      <trkpt lat="44.19365" lon="3.09693">
        <ele>609.61</ele>
        <time>2008-05-04T13:42:35Z</time>
      </trkpt>
      <trkpt lat="44.19365" lon="3.09696">
        <ele>609.13</ele>
        <time>2008-05-04T13:42:36Z</time>
      </trkpt>
      <trkpt lat="44.19365" lon="3.097">
        <ele>609.13</ele>
        <time>2008-05-04T13:42:37Z</time>
      </trkpt>
      <trkpt lat="44.19365" lon="3.09704">
        <ele>608.65</ele>
        <time>2008-05-04T13:42:38Z</time>
      </trkpt>
      <trkpt lat="44.19363" lon="3.09709">
        <ele>608.65</ele>
        <time>2008-05-04T13:42:39Z</time>
      </trkpt>
      <trkpt lat="44.19362" lon="3.09713">
        <ele>608.65</ele>
        <time>2008-05-04T13:42:40Z</time>
      </trkpt>
      <trkpt lat="44.19361" lon="3.09718">
        <ele>608.17</ele>
        <time>2008-05-04T13:42:41Z</time>
      </trkpt>
      <trkpt lat="44.1936" lon="3.09722">
        <ele>608.17</ele>
        <time>2008-05-04T13:42:42Z</time>
      </trkpt>
      <trkpt lat="44.19357" lon="3.09748">
        <ele>606.73</ele>
        <time>2008-05-04T13:42:49Z</time>
      </trkpt>
      <trkpt lat="44.19355" lon="3.09751">
        <ele>606.73</ele>
        <time>2008-05-04T13:42:50Z</time>
      </trkpt>
      <trkpt lat="44.19354" lon="3.09751">
        <ele>606.25</ele>
        <time>2008-05-04T13:42:51Z</time>
      </trkpt>
      <trkpt lat="44.19352" lon="3.09747">
        <ele>606.73</ele>
        <time>2008-05-04T13:43:18Z</time>
      </trkpt>
      <trkpt lat="44.19352" lon="3.09746">
        <ele>607.21</ele>
        <time>2008-05-04T13:46:19Z</time>
      </trkpt>
      <trkpt lat="44.19349" lon="3.09744">
        <ele>607.21</ele>
        <time>2008-05-04T13:46:21Z</time>
      </trkpt>
      <trkpt lat="44.19348" lon="3.09743">
        <ele>607.21</ele>
        <time>2008-05-04T13:46:38Z</time>
      </trkpt>
      <trkpt lat="44.1935" lon="3.09742">
        <ele>607.21</ele>
        <time>2008-05-04T13:46:45Z</time>
      </trkpt>
      <trkpt lat="44.19353" lon="3.09744">
        <ele>607.21</ele>
        <time>2008-05-04T13:46:48Z</time>
      </trkpt>
      <trkpt lat="44.19353" lon="3.09746">
        <ele>607.21</ele>
        <time>2008-05-04T13:46:49Z</time>
      </trkpt>
      <trkpt lat="44.19349" lon="3.09747">
        <ele>607.21</ele>
        <time>2008-05-04T13:46:52Z</time>
      </trkpt>
      <trkpt lat="44.19343" lon="3.09743">
        <ele>608.17</ele>
        <time>2008-05-04T13:47:03Z</time>
      </trkpt>
      <trkpt lat="44.19348" lon="3.09755">
        <ele>607.21</ele>
        <time>2008-05-04T13:47:43Z</time>
      </trkpt>
      <trkpt lat="44.19349" lon="3.09757">
        <ele>606.73</ele>
        <time>2008-05-04T13:47:45Z</time>
      </trkpt>
      <trkpt lat="44.19351" lon="3.09767">
        <ele>606.73</ele>
        <time>2008-05-04T13:47:51Z</time>
      </trkpt>
      <trkpt lat="44.19354" lon="3.09776">
        <ele>606.25</ele>
        <time>2008-05-04T13:47:55Z</time>
      </trkpt>
      <trkpt lat="44.1937" lon="3.09787">
        <ele>606.25</ele>
        <time>2008-05-04T13:48:02Z</time>
      </trkpt>
      <trkpt lat="44.19391" lon="3.09834">
        <ele>607.21</ele>
        <time>2008-05-04T13:48:17Z</time>
      </trkpt>
      <trkpt lat="44.19411" lon="3.09847">
        <ele>608.65</ele>
        <time>2008-05-04T13:48:27Z</time>
      </trkpt>
      <trkpt lat="44.1942" lon="3.09853">
        <ele>610.57</ele>
        <time>2008-05-04T13:48:31Z</time>
      </trkpt>
      <trkpt lat="44.19428" lon="3.09867">
        <ele>612.5</ele>
        <time>2008-05-04T13:48:36Z</time>
      </trkpt>
      <trkpt lat="44.1943" lon="3.09888">
        <ele>615.38</ele>
        <time>2008-05-04T13:48:43Z</time>
      </trkpt>
      <trkpt lat="44.19433" lon="3.09913">
        <ele>618.75</ele>
        <time>2008-05-04T13:48:52Z</time>
      </trkpt>
      <trkpt lat="44.19445" lon="3.09932">
        <ele>621.63</ele>
        <time>2008-05-04T13:49:02Z</time>
      </trkpt>
      <trkpt lat="44.1946" lon="3.09951">
        <ele>624.99</ele>
        <time>2008-05-04T13:49:13Z</time>
      </trkpt>
      <trkpt lat="44.19474" lon="3.0997">
        <ele>627.88</ele>
        <time>2008-05-04T13:49:24Z</time>
      </trkpt>
      <trkpt lat="44.19487" lon="3.09992">
        <ele>629.8</ele>
        <time>2008-05-04T13:49:35Z</time>
      </trkpt>
      <trkpt lat="44.19518" lon="3.10022">
        <ele>627.4</ele>
        <time>2008-05-04T13:49:48Z</time>
      </trkpt>
      <trkpt lat="44.19526" lon="3.10028">
        <ele>626.44</ele>
        <time>2008-05-04T13:49:50Z</time>
      </trkpt>
      <trkpt lat="44.19563" lon="3.10051">
        <ele>622.59</ele>
        <time>2008-05-04T13:49:57Z</time>
      </trkpt>
      <trkpt lat="44.19592" lon="3.10073">
        <ele>618.75</ele>
        <time>2008-05-04T13:50:02Z</time>
      </trkpt>
      <trkpt lat="44.19614" lon="3.10093">
        <ele>614.9</ele>
        <time>2008-05-04T13:50:07Z</time>
      </trkpt>
      <trkpt lat="44.19618" lon="3.10096">
        <ele>613.94</ele>
        <time>2008-05-04T13:50:08Z</time>
      </trkpt>
      <trkpt lat="44.19621" lon="3.10097">
        <ele>613.94</ele>
        <time>2008-05-04T13:50:09Z</time>
      </trkpt>
      <trkpt lat="44.19627" lon="3.10097">
        <ele>612.98</ele>
        <time>2008-05-04T13:50:10Z</time>
      </trkpt>
      <trkpt lat="44.19633" lon="3.10097">
        <ele>611.54</ele>
        <time>2008-05-04T13:50:11Z</time>
      </trkpt>
      <trkpt lat="44.19641" lon="3.10096">
        <ele>610.09</ele>
        <time>2008-05-04T13:50:12Z</time>
      </trkpt>
      <trkpt lat="44.1965" lon="3.10094">
        <ele>609.61</ele>
        <time>2008-05-04T13:50:13Z</time>
      </trkpt>
      <trkpt lat="44.1967" lon="3.10093">
        <ele>606.25</ele>
        <time>2008-05-04T13:50:15Z</time>
      </trkpt>
      <trkpt lat="44.19689" lon="3.10096">
        <ele>604.81</ele>
        <time>2008-05-04T13:50:17Z</time>
      </trkpt>
      <trkpt lat="44.19698" lon="3.10099">
        <ele>604.33</ele>
        <time>2008-05-04T13:50:18Z</time>
      </trkpt>
      <trkpt lat="44.19708" lon="3.10104">
        <ele>603.36</ele>
        <time>2008-05-04T13:50:19Z</time>
      </trkpt>
      <trkpt lat="44.19736" lon="3.10118">
        <ele>599.52</ele>
        <time>2008-05-04T13:50:22Z</time>
      </trkpt>
      <trkpt lat="44.19754" lon="3.10123">
        <ele>598.08</ele>
        <time>2008-05-04T13:50:24Z</time>
      </trkpt>
      <trkpt lat="44.1976" lon="3.10122">
        <ele>597.6</ele>
        <time>2008-05-04T13:50:25Z</time>
      </trkpt>
      <trkpt lat="44.19767" lon="3.10119">
        <ele>597.6</ele>
        <time>2008-05-04T13:50:26Z</time>
      </trkpt>
      <trkpt lat="44.19774" lon="3.10114">
        <ele>597.6</ele>
        <time>2008-05-04T13:50:27Z</time>
      </trkpt>
      <trkpt lat="44.19778" lon="3.10108">
        <ele>598.08</ele>
        <time>2008-05-04T13:50:28Z</time>
      </trkpt>
      <trkpt lat="44.19783" lon="3.10101">
        <ele>598.08</ele>
        <time>2008-05-04T13:50:29Z</time>
      </trkpt>
      <trkpt lat="44.19813" lon="3.10067">
        <ele>601.44</ele>
        <time>2008-05-04T13:50:36Z</time>
      </trkpt>
      <trkpt lat="44.19842" lon="3.10037">
        <ele>604.33</ele>
        <time>2008-05-04T13:50:48Z</time>
      </trkpt>
      <trkpt lat="44.19883" lon="3.10003">
        <ele>601.44</ele>
        <time>2008-05-04T13:50:59Z</time>
      </trkpt>
      <trkpt lat="44.19923" lon="3.0996">
        <ele>600</ele>
        <time>2008-05-04T13:51:06Z</time>
      </trkpt>
      <trkpt lat="44.19926" lon="3.09953">
        <ele>600</ele>
        <time>2008-05-04T13:51:07Z</time>
      </trkpt>
      <trkpt lat="44.19929" lon="3.09946">
        <ele>599.52</ele>
        <time>2008-05-04T13:51:08Z</time>
      </trkpt>
      <trkpt lat="44.1993" lon="3.09938">
        <ele>599.52</ele>
        <time>2008-05-04T13:51:09Z</time>
      </trkpt>
      <trkpt lat="44.19931" lon="3.0993">
        <ele>599.04</ele>
        <time>2008-05-04T13:51:10Z</time>
      </trkpt>
      <trkpt lat="44.19932" lon="3.09922">
        <ele>599.52</ele>
        <time>2008-05-04T13:51:11Z</time>
      </trkpt>
      <trkpt lat="44.19931" lon="3.09913">
        <ele>599.52</ele>
        <time>2008-05-04T13:51:12Z</time>
      </trkpt>
      <trkpt lat="44.19931" lon="3.09905">
        <ele>598.56</ele>
        <time>2008-05-04T13:51:13Z</time>
      </trkpt>
      <trkpt lat="44.19932" lon="3.0985">
        <ele>596.64</ele>
        <time>2008-05-04T13:51:19Z</time>
      </trkpt>
      <trkpt lat="44.19935" lon="3.09824">
        <ele>594.23</ele>
        <time>2008-05-04T13:51:22Z</time>
      </trkpt>
      <trkpt lat="44.19937" lon="3.09817">
        <ele>593.75</ele>
        <time>2008-05-04T13:51:23Z</time>
      </trkpt>
      <trkpt lat="44.19941" lon="3.09812">
        <ele>593.27</ele>
        <time>2008-05-04T13:51:24Z</time>
      </trkpt>
      <trkpt lat="44.19946" lon="3.09811">
        <ele>593.27</ele>
        <time>2008-05-04T13:51:25Z</time>
      </trkpt>
      <trkpt lat="44.19951" lon="3.09811">
        <ele>592.79</ele>
        <time>2008-05-04T13:51:26Z</time>
      </trkpt>
      <trkpt lat="44.19956" lon="3.0981">
        <ele>593.27</ele>
        <time>2008-05-04T13:51:27Z</time>
      </trkpt>
      <trkpt lat="44.19961" lon="3.09809">
        <ele>593.27</ele>
        <time>2008-05-04T13:51:28Z</time>
      </trkpt>
      <trkpt lat="44.19967" lon="3.09807">
        <ele>593.27</ele>
        <time>2008-05-04T13:51:29Z</time>
      </trkpt>
      <trkpt lat="44.19972" lon="3.09804">
        <ele>593.27</ele>
        <time>2008-05-04T13:51:30Z</time>
      </trkpt>
      <trkpt lat="44.19978" lon="3.09801">
        <ele>593.75</ele>
        <time>2008-05-04T13:51:31Z</time>
      </trkpt>
      <trkpt lat="44.19982" lon="3.09798">
        <ele>593.75</ele>
        <time>2008-05-04T13:51:32Z</time>
      </trkpt>
      <trkpt lat="44.20007" lon="3.09778">
        <ele>597.12</ele>
        <time>2008-05-04T13:51:39Z</time>
      </trkpt>
      <trkpt lat="44.20013" lon="3.09774">
        <ele>598.08</ele>
        <time>2008-05-04T13:51:41Z</time>
      </trkpt>
      <trkpt lat="44.2003" lon="3.09758">
        <ele>601.44</ele>
        <time>2008-05-04T13:51:52Z</time>
      </trkpt>
      <trkpt lat="44.20056" lon="3.09751">
        <ele>604.81</ele>
        <time>2008-05-04T13:52:05Z</time>
      </trkpt>
      <trkpt lat="44.20076" lon="3.09741">
        <ele>607.69</ele>
        <time>2008-05-04T13:52:17Z</time>
      </trkpt>
      <trkpt lat="44.20088" lon="3.09726">
        <ele>611.06</ele>
        <time>2008-05-04T13:52:27Z</time>
      </trkpt>
      <trkpt lat="44.20099" lon="3.09706">
        <ele>614.42</ele>
        <time>2008-05-04T13:52:38Z</time>
      </trkpt>
      <trkpt lat="44.20114" lon="3.09681">
        <ele>616.82</ele>
        <time>2008-05-04T13:52:52Z</time>
      </trkpt>
      <trkpt lat="44.20117" lon="3.09674">
        <ele>617.78</ele>
        <time>2008-05-04T13:52:56Z</time>
      </trkpt>
      <trkpt lat="44.20125" lon="3.0967">
        <ele>618.75</ele>
        <time>2008-05-04T13:53:01Z</time>
      </trkpt>
      <trkpt lat="44.20126" lon="3.09671">
        <ele>618.75</ele>
        <time>2008-05-04T13:53:02Z</time>
      </trkpt>
      <trkpt lat="44.20127" lon="3.09673">
        <ele>618.75</ele>
        <time>2008-05-04T13:53:03Z</time>
      </trkpt>
      <trkpt lat="44.20129" lon="3.09674">
        <ele>618.26</ele>
        <time>2008-05-04T13:53:04Z</time>
      </trkpt>
      <trkpt lat="44.20131" lon="3.09677">
        <ele>618.26</ele>
        <time>2008-05-04T13:53:05Z</time>
      </trkpt>
      <trkpt lat="44.20133" lon="3.09679">
        <ele>618.26</ele>
        <time>2008-05-04T13:53:06Z</time>
      </trkpt>
      <trkpt lat="44.20135" lon="3.09683">
        <ele>618.26</ele>
        <time>2008-05-04T13:53:07Z</time>
      </trkpt>
      <trkpt lat="44.20148" lon="3.09695">
        <ele>617.3</ele>
        <time>2008-05-04T13:53:11Z</time>
      </trkpt>
      <trkpt lat="44.20153" lon="3.09699">
        <ele>617.3</ele>
        <time>2008-05-04T13:53:12Z</time>
      </trkpt>
      <trkpt lat="44.2019" lon="3.09735">
        <ele>614.9</ele>
        <time>2008-05-04T13:53:21Z</time>
      </trkpt>
      <trkpt lat="44.20211" lon="3.0978">
        <ele>614.42</ele>
        <time>2008-05-04T13:53:36Z</time>
      </trkpt>
      <trkpt lat="44.20222" lon="3.09806">
        <ele>614.42</ele>
        <time>2008-05-04T13:53:49Z</time>
      </trkpt>
      <trkpt lat="44.20228" lon="3.09862">
        <ele>613.94</ele>
        <time>2008-05-04T13:54:02Z</time>
      </trkpt>
      <trkpt lat="44.20228" lon="3.09892">
        <ele>612.98</ele>
        <time>2008-05-04T13:54:08Z</time>
      </trkpt>
      <trkpt lat="44.20226" lon="3.09957">
        <ele>610.09</ele>
        <time>2008-05-04T13:54:18Z</time>
      </trkpt>
      <trkpt lat="44.20228" lon="3.09965">
        <ele>610.09</ele>
        <time>2008-05-04T13:54:19Z</time>
      </trkpt>
      <trkpt lat="44.20231" lon="3.09972">
        <ele>609.61</ele>
        <time>2008-05-04T13:54:20Z</time>
      </trkpt>
      <trkpt lat="44.20235" lon="3.09979">
        <ele>609.61</ele>
        <time>2008-05-04T13:54:21Z</time>
      </trkpt>
      <trkpt lat="44.20263" lon="3.10031">
        <ele>610.09</ele>
        <time>2008-05-04T13:54:32Z</time>
      </trkpt>
      <trkpt lat="44.20283" lon="3.10056">
        <ele>612.02</ele>
        <time>2008-05-04T13:54:44Z</time>
      </trkpt>
      <trkpt lat="44.20313" lon="3.1007">
        <ele>615.38</ele>
        <time>2008-05-04T13:54:58Z</time>
      </trkpt>
      <trkpt lat="44.2034" lon="3.10082">
        <ele>617.78</ele>
        <time>2008-05-04T13:55:12Z</time>
      </trkpt>
      <trkpt lat="44.20372" lon="3.10083">
        <ele>619.23</ele>
        <time>2008-05-04T13:55:25Z</time>
      </trkpt>
      <trkpt lat="44.20409" lon="3.10093">
        <ele>620.19</ele>
        <time>2008-05-04T13:55:39Z</time>
      </trkpt>
      <trkpt lat="44.20451" lon="3.1011">
        <ele>621.63</ele>
        <time>2008-05-04T13:55:54Z</time>
      </trkpt>
      <trkpt lat="44.20486" lon="3.10125">
        <ele>622.11</ele>
        <time>2008-05-04T13:56:06Z</time>
      </trkpt>
      <trkpt lat="44.20527" lon="3.10133">
        <ele>622.59</ele>
        <time>2008-05-04T13:56:19Z</time>
      </trkpt>
      <trkpt lat="44.20567" lon="3.1013">
        <ele>622.59</ele>
        <time>2008-05-04T13:56:30Z</time>
      </trkpt>
      <trkpt lat="44.20624" lon="3.10111">
        <ele>623.07</ele>
        <time>2008-05-04T13:56:46Z</time>
      </trkpt>
      <trkpt lat="44.20662" lon="3.10098">
        <ele>625.47</ele>
        <time>2008-05-04T13:57:00Z</time>
      </trkpt>
      <trkpt lat="44.20697" lon="3.10079">
        <ele>628.36</ele>
        <time>2008-05-04T13:57:14Z</time>
      </trkpt>
      <trkpt lat="44.20732" lon="3.10069">
        <ele>630.28</ele>
        <time>2008-05-04T13:57:27Z</time>
      </trkpt>
      <trkpt lat="44.20766" lon="3.10057">
        <ele>633.17</ele>
        <time>2008-05-04T13:57:41Z</time>
      </trkpt>
      <trkpt lat="44.20803" lon="3.10052">
        <ele>635.57</ele>
        <time>2008-05-04T13:57:57Z</time>
      </trkpt>
      <trkpt lat="44.20833" lon="3.10052">
        <ele>637.49</ele>
        <time>2008-05-04T13:58:11Z</time>
      </trkpt>
      <trkpt lat="44.20857" lon="3.10051">
        <ele>640.38</ele>
        <time>2008-05-04T13:58:23Z</time>
      </trkpt>
      <trkpt lat="44.20882" lon="3.10039">
        <ele>643.74</ele>
        <time>2008-05-04T13:58:35Z</time>
      </trkpt>
      <trkpt lat="44.20907" lon="3.10033">
        <ele>646.62</ele>
        <time>2008-05-04T13:58:50Z</time>
      </trkpt>
      <trkpt lat="44.20946" lon="3.10041">
        <ele>647.1</ele>
        <time>2008-05-04T13:59:05Z</time>
      </trkpt>
      <trkpt lat="44.20982" lon="3.10048">
        <ele>647.59</ele>
        <time>2008-05-04T13:59:17Z</time>
      </trkpt>
      <trkpt lat="44.21018" lon="3.1008">
        <ele>648.55</ele>
        <time>2008-05-04T13:59:31Z</time>
      </trkpt>
      <trkpt lat="44.2105" lon="3.1011">
        <ele>649.03</ele>
        <time>2008-05-04T13:59:45Z</time>
      </trkpt>
      <trkpt lat="44.21081" lon="3.10125">
        <ele>649.99</ele>
        <time>2008-05-04T13:59:59Z</time>
      </trkpt>
      <trkpt lat="44.21117" lon="3.10139">
        <ele>652.39</ele>
        <time>2008-05-04T14:00:14Z</time>
      </trkpt>
      <trkpt lat="44.21157" lon="3.10155">
        <ele>655.28</ele>
        <time>2008-05-04T14:00:30Z</time>
      </trkpt>
      <trkpt lat="44.21188" lon="3.10177">
        <ele>656.72</ele>
        <time>2008-05-04T14:00:44Z</time>
      </trkpt>
      <trkpt lat="44.21218" lon="3.10205">
        <ele>654.31</ele>
        <time>2008-05-04T14:00:57Z</time>
      </trkpt>
      <trkpt lat="44.21229" lon="3.10212">
        <ele>652.87</ele>
        <time>2008-05-04T14:01:00Z</time>
      </trkpt>
      <trkpt lat="44.21231" lon="3.10216">
        <ele>652.39</ele>
        <time>2008-05-04T14:01:01Z</time>
      </trkpt>
      <trkpt lat="44.21232" lon="3.1022">
        <ele>652.39</ele>
        <time>2008-05-04T14:01:02Z</time>
      </trkpt>
      <trkpt lat="44.2123" lon="3.10225">
        <ele>652.39</ele>
        <time>2008-05-04T14:01:03Z</time>
      </trkpt>
      <trkpt lat="44.21229" lon="3.10228">
        <ele>652.39</ele>
        <time>2008-05-04T14:01:04Z</time>
      </trkpt>
      <trkpt lat="44.21227" lon="3.1023">
        <ele>652.87</ele>
        <time>2008-05-04T14:01:05Z</time>
      </trkpt>
      <trkpt lat="44.21225" lon="3.10232">
        <ele>652.87</ele>
        <time>2008-05-04T14:01:06Z</time>
      </trkpt>
      <trkpt lat="44.21223" lon="3.10234">
        <ele>652.87</ele>
        <time>2008-05-04T14:01:07Z</time>
      </trkpt>
      <trkpt lat="44.21221" lon="3.10235">
        <ele>653.35</ele>
        <time>2008-05-04T14:01:08Z</time>
      </trkpt>
      <trkpt lat="44.21217" lon="3.10238">
        <ele>653.35</ele>
        <time>2008-05-04T14:01:22Z</time>
      </trkpt>
      <trkpt lat="44.21201" lon="3.10248">
        <ele>655.28</ele>
        <time>2008-05-04T14:03:35Z</time>
      </trkpt>
      <trkpt lat="44.21177" lon="3.10265">
        <ele>657.2</ele>
        <time>2008-05-04T14:03:49Z</time>
      </trkpt>
      <trkpt lat="44.21152" lon="3.10275">
        <ele>658.64</ele>
        <time>2008-05-04T14:04:02Z</time>
      </trkpt>
      <trkpt lat="44.21125" lon="3.10286">
        <ele>659.6</ele>
        <time>2008-05-04T14:04:16Z</time>
      </trkpt>
      <trkpt lat="44.21108" lon="3.10302">
        <ele>662.01</ele>
        <time>2008-05-04T14:04:30Z</time>
      </trkpt>
      <trkpt lat="44.21105" lon="3.10307">
        <ele>662.97</ele>
        <time>2008-05-04T14:04:34Z</time>
      </trkpt>
      <trkpt lat="44.21105" lon="3.10308">
        <ele>662.97</ele>
        <time>2008-05-04T14:04:35Z</time>
      </trkpt>
      <trkpt lat="44.21093" lon="3.10325">
        <ele>664.89</ele>
        <time>2008-05-04T14:04:48Z</time>
      </trkpt>
      <trkpt lat="44.21091" lon="3.10325">
        <ele>664.89</ele>
        <time>2008-05-04T14:04:49Z</time>
      </trkpt>
      <trkpt lat="44.2109" lon="3.10326">
        <ele>664.89</ele>
        <time>2008-05-04T14:04:50Z</time>
      </trkpt>
      <trkpt lat="44.21066" lon="3.1035">
        <ele>667.77</ele>
        <time>2008-05-04T14:05:06Z</time>
      </trkpt>
      <trkpt lat="44.21057" lon="3.10359">
        <ele>668.73</ele>
        <time>2008-05-04T14:05:13Z</time>
      </trkpt>
      <trkpt lat="44.21043" lon="3.10372">
        <ele>670.66</ele>
        <time>2008-05-04T14:05:24Z</time>
      </trkpt>
      <trkpt lat="44.21032" lon="3.10384">
        <ele>672.58</ele>
        <time>2008-05-04T14:05:35Z</time>
      </trkpt>
      <trkpt lat="44.21027" lon="3.1039">
        <ele>673.06</ele>
        <time>2008-05-04T14:05:39Z</time>
      </trkpt>
      <trkpt lat="44.21025" lon="3.10393">
        <ele>673.54</ele>
        <time>2008-05-04T14:05:43Z</time>
      </trkpt>
      <trkpt lat="44.21024" lon="3.10394">
        <ele>674.02</ele>
        <time>2008-05-04T14:05:44Z</time>
      </trkpt>
      <trkpt lat="44.21021" lon="3.10395">
        <ele>674.02</ele>
        <time>2008-05-04T14:05:46Z</time>
      </trkpt>
      <trkpt lat="44.21019" lon="3.10395">
        <ele>674.5</ele>
        <time>2008-05-04T14:05:47Z</time>
      </trkpt>
      <trkpt lat="44.21008" lon="3.10402">
        <ele>677.87</ele>
        <time>2008-05-04T14:05:56Z</time>
      </trkpt>
      <trkpt lat="44.21005" lon="3.10402">
        <ele>678.35</ele>
        <time>2008-05-04T14:05:59Z</time>
      </trkpt>
      <trkpt lat="44.21004" lon="3.10402">
        <ele>678.35</ele>
        <time>2008-05-04T14:06:00Z</time>
      </trkpt>
      <trkpt lat="44.20999" lon="3.10401">
        <ele>678.83</ele>
        <time>2008-05-04T14:06:12Z</time>
      </trkpt>
      <trkpt lat="44.20997" lon="3.10402">
        <ele>679.79</ele>
        <time>2008-05-04T14:06:19Z</time>
      </trkpt>
      <trkpt lat="44.20992" lon="3.10402">
        <ele>680.75</ele>
        <time>2008-05-04T14:06:32Z</time>
      </trkpt>
      <trkpt lat="44.20983" lon="3.10401">
        <ele>682.67</ele>
        <time>2008-05-04T14:06:46Z</time>
      </trkpt>
      <trkpt lat="44.20975" lon="3.10403">
        <ele>684.12</ele>
        <time>2008-05-04T14:07:03Z</time>
      </trkpt>
      <trkpt lat="44.2097" lon="3.10411">
        <ele>685.08</ele>
        <time>2008-05-04T14:07:19Z</time>
      </trkpt>
      <trkpt lat="44.2097" lon="3.10412">
        <ele>685.56</ele>
        <time>2008-05-04T14:07:20Z</time>
      </trkpt>
      <trkpt lat="44.2097" lon="3.10414">
        <ele>685.56</ele>
        <time>2008-05-04T14:07:21Z</time>
      </trkpt>
      <trkpt lat="44.20968" lon="3.10436">
        <ele>688.92</ele>
        <time>2008-05-04T14:07:32Z</time>
      </trkpt>
      <trkpt lat="44.20966" lon="3.1044">
        <ele>689.88</ele>
        <time>2008-05-04T14:07:35Z</time>
      </trkpt>
      <trkpt lat="44.20966" lon="3.10443">
        <ele>689.88</ele>
        <time>2008-05-04T14:07:37Z</time>
      </trkpt>
      <trkpt lat="44.20965" lon="3.10443">
        <ele>689.88</ele>
        <time>2008-05-04T14:07:38Z</time>
      </trkpt>
      <trkpt lat="44.20963" lon="3.10445">
        <ele>690.36</ele>
        <time>2008-05-04T14:07:39Z</time>
      </trkpt>
      <trkpt lat="44.20963" lon="3.10446">
        <ele>690.36</ele>
        <time>2008-05-04T14:07:40Z</time>
      </trkpt>
      <trkpt lat="44.20961" lon="3.10447">
        <ele>690.36</ele>
        <time>2008-05-04T14:07:41Z</time>
      </trkpt>
      <trkpt lat="44.2096" lon="3.10448">
        <ele>690.36</ele>
        <time>2008-05-04T14:07:42Z</time>
      </trkpt>
      <trkpt lat="44.20959" lon="3.10448">
        <ele>690.84</ele>
        <time>2008-05-04T14:07:43Z</time>
      </trkpt>
      <trkpt lat="44.20957" lon="3.10449">
        <ele>690.84</ele>
        <time>2008-05-04T14:07:44Z</time>
      </trkpt>
      <trkpt lat="44.20956" lon="3.1045">
        <ele>690.84</ele>
        <time>2008-05-04T14:07:45Z</time>
      </trkpt>
      <trkpt lat="44.20939" lon="3.1046">
        <ele>692.29</ele>
        <time>2008-05-04T14:08:00Z</time>
      </trkpt>
      <trkpt lat="44.20938" lon="3.10461">
        <ele>692.77</ele>
        <time>2008-05-04T14:08:01Z</time>
      </trkpt>
      <trkpt lat="44.20937" lon="3.10461">
        <ele>692.77</ele>
        <time>2008-05-04T14:08:02Z</time>
      </trkpt>
      <trkpt lat="44.20928" lon="3.10465">
        <ele>694.21</ele>
        <time>2008-05-04T14:08:09Z</time>
      </trkpt>
      <trkpt lat="44.20926" lon="3.10467">
        <ele>694.21</ele>
        <time>2008-05-04T14:08:10Z</time>
      </trkpt>
      <trkpt lat="44.20925" lon="3.10468">
        <ele>694.21</ele>
        <time>2008-05-04T14:08:11Z</time>
      </trkpt>
      <trkpt lat="44.20922" lon="3.10471">
        <ele>694.21</ele>
        <time>2008-05-04T14:08:14Z</time>
      </trkpt>
      <trkpt lat="44.20915" lon="3.10474">
        <ele>694.69</ele>
        <time>2008-05-04T14:08:26Z</time>
      </trkpt>
      <trkpt lat="44.20901" lon="3.10486">
        <ele>696.13</ele>
        <time>2008-05-04T14:18:34Z</time>
      </trkpt>
      <trkpt lat="44.20883" lon="3.10511">
        <ele>697.57</ele>
        <time>2008-05-04T14:18:49Z</time>
      </trkpt>
      <trkpt lat="44.20873" lon="3.10543">
        <ele>698.05</ele>
        <time>2008-05-04T14:19:03Z</time>
      </trkpt>
      <trkpt lat="44.20872" lon="3.10591">
        <ele>697.09</ele>
        <time>2008-05-04T14:19:17Z</time>
      </trkpt>
      <trkpt lat="44.20868" lon="3.10616">
        <ele>696.13</ele>
        <time>2008-05-04T14:19:22Z</time>
      </trkpt>
      <trkpt lat="44.20867" lon="3.10622">
        <ele>695.65</ele>
        <time>2008-05-04T14:19:23Z</time>
      </trkpt>
      <trkpt lat="44.20845" lon="3.10687">
        <ele>695.17</ele>
        <time>2008-05-04T14:19:35Z</time>
      </trkpt>
      <trkpt lat="44.20828" lon="3.10727">
        <ele>693.73</ele>
        <time>2008-05-04T14:19:44Z</time>
      </trkpt>
      <trkpt lat="44.20802" lon="3.10746">
        <ele>692.29</ele>
        <time>2008-05-04T14:19:50Z</time>
      </trkpt>
      <trkpt lat="44.20792" lon="3.10753">
        <ele>691.81</ele>
        <time>2008-05-04T14:19:52Z</time>
      </trkpt>
      <trkpt lat="44.20777" lon="3.10765">
        <ele>691.81</ele>
        <time>2008-05-04T14:19:55Z</time>
      </trkpt>
      <trkpt lat="44.20759" lon="3.1079">
        <ele>691.81</ele>
        <time>2008-05-04T14:20:04Z</time>
      </trkpt>
      <trkpt lat="44.20758" lon="3.10794">
        <ele>691.33</ele>
        <time>2008-05-04T14:20:06Z</time>
      </trkpt>
      <trkpt lat="44.20753" lon="3.10797">
        <ele>690.84</ele>
        <time>2008-05-04T14:20:17Z</time>
      </trkpt>
      <trkpt lat="44.20748" lon="3.10818">
        <ele>689.4</ele>
        <time>2008-05-04T14:20:53Z</time>
      </trkpt>
      <trkpt lat="44.20746" lon="3.10823">
        <ele>688.92</ele>
        <time>2008-05-04T14:20:54Z</time>
      </trkpt>
      <trkpt lat="44.20743" lon="3.10828">
        <ele>688.44</ele>
        <time>2008-05-04T14:20:55Z</time>
      </trkpt>
      <trkpt lat="44.20732" lon="3.10839">
        <ele>685.56</ele>
        <time>2008-05-04T14:20:58Z</time>
      </trkpt>
      <trkpt lat="44.20726" lon="3.10842">
        <ele>684.12</ele>
        <time>2008-05-04T14:20:59Z</time>
      </trkpt>
      <trkpt lat="44.20721" lon="3.10845">
        <ele>683.63</ele>
        <time>2008-05-04T14:21:00Z</time>
      </trkpt>
      <trkpt lat="44.20715" lon="3.10847">
        <ele>682.67</ele>
        <time>2008-05-04T14:21:01Z</time>
      </trkpt>
      <trkpt lat="44.20709" lon="3.10849">
        <ele>681.71</ele>
        <time>2008-05-04T14:21:02Z</time>
      </trkpt>
      <trkpt lat="44.20704" lon="3.10848">
        <ele>680.75</ele>
        <time>2008-05-04T14:21:03Z</time>
      </trkpt>
      <trkpt lat="44.20698" lon="3.10848">
        <ele>679.79</ele>
        <time>2008-05-04T14:21:04Z</time>
      </trkpt>
      <trkpt lat="44.20693" lon="3.10846">
        <ele>679.31</ele>
        <time>2008-05-04T14:21:05Z</time>
      </trkpt>
      <trkpt lat="44.20687" lon="3.10844">
        <ele>677.87</ele>
        <time>2008-05-04T14:21:06Z</time>
      </trkpt>
      <trkpt lat="44.20682" lon="3.10841">
        <ele>676.91</ele>
        <time>2008-05-04T14:21:07Z</time>
      </trkpt>
      <trkpt lat="44.20668" lon="3.10835">
        <ele>674.5</ele>
        <time>2008-05-04T14:21:10Z</time>
      </trkpt>
      <trkpt lat="44.20663" lon="3.10835">
        <ele>673.54</ele>
        <time>2008-05-04T14:21:11Z</time>
      </trkpt>
      <trkpt lat="44.20646" lon="3.10839">
        <ele>670.18</ele>
        <time>2008-05-04T14:21:16Z</time>
      </trkpt>
      <trkpt lat="44.20624" lon="3.10849">
        <ele>666.81</ele>
        <time>2008-05-04T14:21:21Z</time>
      </trkpt>
      <trkpt lat="44.20606" lon="3.10857">
        <ele>663.45</ele>
        <time>2008-05-04T14:21:24Z</time>
      </trkpt>
      <trkpt lat="44.20602" lon="3.1086">
        <ele>662.49</ele>
        <time>2008-05-04T14:21:25Z</time>
      </trkpt>
      <trkpt lat="44.20594" lon="3.10866">
        <ele>660.56</ele>
        <time>2008-05-04T14:21:27Z</time>
      </trkpt>
      <trkpt lat="44.20586" lon="3.10873">
        <ele>658.16</ele>
        <time>2008-05-04T14:21:29Z</time>
      </trkpt>
      <trkpt lat="44.20582" lon="3.10876">
        <ele>657.2</ele>
        <time>2008-05-04T14:21:30Z</time>
      </trkpt>
      <trkpt lat="44.20579" lon="3.10879">
        <ele>656.24</ele>
        <time>2008-05-04T14:21:31Z</time>
      </trkpt>
      <trkpt lat="44.20575" lon="3.10881">
        <ele>655.76</ele>
        <time>2008-05-04T14:21:32Z</time>
      </trkpt>
      <trkpt lat="44.2057" lon="3.10882">
        <ele>655.28</ele>
        <time>2008-05-04T14:21:33Z</time>
      </trkpt>
      <trkpt lat="44.20565" lon="3.10882">
        <ele>655.28</ele>
        <time>2008-05-04T14:21:34Z</time>
      </trkpt>
      <trkpt lat="44.20561" lon="3.10881">
        <ele>654.8</ele>
        <time>2008-05-04T14:21:35Z</time>
      </trkpt>
      <trkpt lat="44.20557" lon="3.10878">
        <ele>654.31</ele>
        <time>2008-05-04T14:21:36Z</time>
      </trkpt>
      <trkpt lat="44.20554" lon="3.10877">
        <ele>654.31</ele>
        <time>2008-05-04T14:21:37Z</time>
      </trkpt>
      <trkpt lat="44.20547" lon="3.10873">
        <ele>653.35</ele>
        <time>2008-05-04T14:21:48Z</time>
      </trkpt>
      <trkpt lat="44.20547" lon="3.10873">
        <ele>652.39</ele>
        <time>2008-05-04T14:22:51Z</time>
      </trkpt>
      <trkpt lat="44.20534" lon="3.10879">
        <ele>649.03</ele>
        <time>2008-05-04T14:22:57Z</time>
      </trkpt>
      <trkpt lat="44.20525" lon="3.10882">
        <ele>646.62</ele>
        <time>2008-05-04T14:23:01Z</time>
      </trkpt>
      <trkpt lat="44.20522" lon="3.10881">
        <ele>645.66</ele>
        <time>2008-05-04T14:23:04Z</time>
      </trkpt>
      <trkpt lat="44.20521" lon="3.10882">
        <ele>645.18</ele>
        <time>2008-05-04T14:23:05Z</time>
      </trkpt>
      <trkpt lat="44.20512" lon="3.10898">
        <ele>642.3</ele>
        <time>2008-05-04T14:23:13Z</time>
      </trkpt>
      <trkpt lat="44.20518" lon="3.10914">
        <ele>639.41</ele>
        <time>2008-05-04T14:23:20Z</time>
      </trkpt>
      <trkpt lat="44.2052" lon="3.10917">
        <ele>638.93</ele>
        <time>2008-05-04T14:23:21Z</time>
      </trkpt>
      <trkpt lat="44.20521" lon="3.10919">
        <ele>638.45</ele>
        <time>2008-05-04T14:23:22Z</time>
      </trkpt>
      <trkpt lat="44.20523" lon="3.10928">
        <ele>637.01</ele>
        <time>2008-05-04T14:23:25Z</time>
      </trkpt>
      <trkpt lat="44.20522" lon="3.1093">
        <ele>636.53</ele>
        <time>2008-05-04T14:23:26Z</time>
      </trkpt>
      <trkpt lat="44.20521" lon="3.10931">
        <ele>636.05</ele>
        <time>2008-05-04T14:23:27Z</time>
      </trkpt>
      <trkpt lat="44.20519" lon="3.10932">
        <ele>636.05</ele>
        <time>2008-05-04T14:23:28Z</time>
      </trkpt>
      <trkpt lat="44.20515" lon="3.10935">
        <ele>635.57</ele>
        <time>2008-05-04T14:23:29Z</time>
      </trkpt>
      <trkpt lat="44.20513" lon="3.10937">
        <ele>635.57</ele>
        <time>2008-05-04T14:23:30Z</time>
      </trkpt>
      <trkpt lat="44.2051" lon="3.10938">
        <ele>635.09</ele>
        <time>2008-05-04T14:23:31Z</time>
      </trkpt>
      <trkpt lat="44.20507" lon="3.10939">
        <ele>635.09</ele>
        <time>2008-05-04T14:23:32Z</time>
      </trkpt>
      <trkpt lat="44.20493" lon="3.10962">
        <ele>632.2</ele>
        <time>2008-05-04T14:23:40Z</time>
      </trkpt>
      <trkpt lat="44.20491" lon="3.10966">
        <ele>631.72</ele>
        <time>2008-05-04T14:23:41Z</time>
      </trkpt>
      <trkpt lat="44.20487" lon="3.10968">
        <ele>631.72</ele>
        <time>2008-05-04T14:23:42Z</time>
      </trkpt>
      <trkpt lat="44.20482" lon="3.10972">
        <ele>631.72</ele>
        <time>2008-05-04T14:23:43Z</time>
      </trkpt>
      <trkpt lat="44.20479" lon="3.10975">
        <ele>631.72</ele>
        <time>2008-05-04T14:23:44Z</time>
      </trkpt>
      <trkpt lat="44.20475" lon="3.10978">
        <ele>631.72</ele>
        <time>2008-05-04T14:23:45Z</time>
      </trkpt>
      <trkpt lat="44.20472" lon="3.10983">
        <ele>631.24</ele>
        <time>2008-05-04T14:23:46Z</time>
      </trkpt>
      <trkpt lat="44.20468" lon="3.10988">
        <ele>631.24</ele>
        <time>2008-05-04T14:23:47Z</time>
      </trkpt>
      <trkpt lat="44.20442" lon="3.11026">
        <ele>629.8</ele>
        <time>2008-05-04T14:23:57Z</time>
      </trkpt>
      <trkpt lat="44.2044" lon="3.11031">
        <ele>628.36</ele>
        <time>2008-05-04T14:23:58Z</time>
      </trkpt>
      <trkpt lat="44.20438" lon="3.11037">
        <ele>626.44</ele>
        <time>2008-05-04T14:23:59Z</time>
      </trkpt>
      <trkpt lat="44.20429" lon="3.11066">
        <ele>623.07</ele>
        <time>2008-05-04T14:24:05Z</time>
      </trkpt>
      <trkpt lat="44.20421" lon="3.11079">
        <ele>619.71</ele>
        <time>2008-05-04T14:24:08Z</time>
      </trkpt>
      <trkpt lat="44.20416" lon="3.11088">
        <ele>618.26</ele>
        <time>2008-05-04T14:24:10Z</time>
      </trkpt>
      <trkpt lat="44.20414" lon="3.11094">
        <ele>617.3</ele>
        <time>2008-05-04T14:24:11Z</time>
      </trkpt>
      <trkpt lat="44.20412" lon="3.11101">
        <ele>616.34</ele>
        <time>2008-05-04T14:24:12Z</time>
      </trkpt>
      <trkpt lat="44.20405" lon="3.11123">
        <ele>612.98</ele>
        <time>2008-05-04T14:24:15Z</time>
      </trkpt>
      <trkpt lat="44.20403" lon="3.11131">
        <ele>612.02</ele>
        <time>2008-05-04T14:24:16Z</time>
      </trkpt>
      <trkpt lat="44.20399" lon="3.11137">
        <ele>611.06</ele>
        <time>2008-05-04T14:24:17Z</time>
      </trkpt>
      <trkpt lat="44.20389" lon="3.1115">
        <ele>610.09</ele>
        <time>2008-05-04T14:24:19Z</time>
      </trkpt>
      <trkpt lat="44.20383" lon="3.11156">
        <ele>609.13</ele>
        <time>2008-05-04T14:24:20Z</time>
      </trkpt>
      <trkpt lat="44.20377" lon="3.1116">
        <ele>609.13</ele>
        <time>2008-05-04T14:24:21Z</time>
      </trkpt>
      <trkpt lat="44.20371" lon="3.11164">
        <ele>608.17</ele>
        <time>2008-05-04T14:24:22Z</time>
      </trkpt>
      <trkpt lat="44.20366" lon="3.11166">
        <ele>607.21</ele>
        <time>2008-05-04T14:24:23Z</time>
      </trkpt>
      <trkpt lat="44.20361" lon="3.11169">
        <ele>607.21</ele>
        <time>2008-05-04T14:24:24Z</time>
      </trkpt>
      <trkpt lat="44.20357" lon="3.11174">
        <ele>606.25</ele>
        <time>2008-05-04T14:24:25Z</time>
      </trkpt>
      <trkpt lat="44.20354" lon="3.1118">
        <ele>605.29</ele>
        <time>2008-05-04T14:24:26Z</time>
      </trkpt>
      <trkpt lat="44.2035" lon="3.11186">
        <ele>604.33</ele>
        <time>2008-05-04T14:24:27Z</time>
      </trkpt>
      <trkpt lat="44.20346" lon="3.11192">
        <ele>604.33</ele>
        <time>2008-05-04T14:24:28Z</time>
      </trkpt>
      <trkpt lat="44.20341" lon="3.11196">
        <ele>603.85</ele>
        <time>2008-05-04T14:24:29Z</time>
      </trkpt>
      <trkpt lat="44.20336" lon="3.11198">
        <ele>603.36</ele>
        <time>2008-05-04T14:24:30Z</time>
      </trkpt>
      <trkpt lat="44.2033" lon="3.11199">
        <ele>602.88</ele>
        <time>2008-05-04T14:24:31Z</time>
      </trkpt>
      <trkpt lat="44.20325" lon="3.11198">
        <ele>601.92</ele>
        <time>2008-05-04T14:24:32Z</time>
      </trkpt>
      <trkpt lat="44.20319" lon="3.11196">
        <ele>601.44</ele>
        <time>2008-05-04T14:24:33Z</time>
      </trkpt>
      <trkpt lat="44.20313" lon="3.11195">
        <ele>600.96</ele>
        <time>2008-05-04T14:24:34Z</time>
      </trkpt>
      <trkpt lat="44.20305" lon="3.11195">
        <ele>600.48</ele>
        <time>2008-05-04T14:24:35Z</time>
      </trkpt>
      <trkpt lat="44.20298" lon="3.11198">
        <ele>599.52</ele>
        <time>2008-05-04T14:24:36Z</time>
      </trkpt>
      <trkpt lat="44.20292" lon="3.11202">
        <ele>599.52</ele>
        <time>2008-05-04T14:24:37Z</time>
      </trkpt>
      <trkpt lat="44.20285" lon="3.11208">
        <ele>599.52</ele>
        <time>2008-05-04T14:24:38Z</time>
      </trkpt>
      <trkpt lat="44.20258" lon="3.11224">
        <ele>596.64</ele>
        <time>2008-05-04T14:24:44Z</time>
      </trkpt>
      <trkpt lat="44.20252" lon="3.11224">
        <ele>595.67</ele>
        <time>2008-05-04T14:24:46Z</time>
      </trkpt>
      <trkpt lat="44.20251" lon="3.11222">
        <ele>595.67</ele>
        <time>2008-05-04T14:24:47Z</time>
      </trkpt>
      <trkpt lat="44.20248" lon="3.11219">
        <ele>595.19</ele>
        <time>2008-05-04T14:25:00Z</time>
      </trkpt>
      <trkpt lat="44.20251" lon="3.1122">
        <ele>595.19</ele>
        <time>2008-05-04T14:25:46Z</time>
      </trkpt>
      <trkpt lat="44.20252" lon="3.11221">
        <ele>595.67</ele>
        <time>2008-05-04T14:26:03Z</time>
      </trkpt>
      <trkpt lat="44.20254" lon="3.1122">
        <ele>595.67</ele>
        <time>2008-05-04T14:26:04Z</time>
      </trkpt>
      <trkpt lat="44.20255" lon="3.11219">
        <ele>595.67</ele>
        <time>2008-05-04T14:26:05Z</time>
      </trkpt>
      <trkpt lat="44.20256" lon="3.11218">
        <ele>595.19</ele>
        <time>2008-05-04T14:26:06Z</time>
      </trkpt>
      <trkpt lat="44.20258" lon="3.11217">
        <ele>595.67</ele>
        <time>2008-05-04T14:26:07Z</time>
      </trkpt>
      <trkpt lat="44.20259" lon="3.11217">
        <ele>595.67</ele>
        <time>2008-05-04T14:26:08Z</time>
      </trkpt>
      <trkpt lat="44.20261" lon="3.11217">
        <ele>595.67</ele>
        <time>2008-05-04T14:26:09Z</time>
      </trkpt>
      <trkpt lat="44.20262" lon="3.11217">
        <ele>596.15</ele>
        <time>2008-05-04T14:26:10Z</time>
      </trkpt>
      <trkpt lat="44.20263" lon="3.11218">
        <ele>596.15</ele>
        <time>2008-05-04T14:26:11Z</time>
      </trkpt>
      <trkpt lat="44.20264" lon="3.11218">
        <ele>596.64</ele>
        <time>2008-05-04T14:26:12Z</time>
      </trkpt>
      <trkpt lat="44.20265" lon="3.1122">
        <ele>596.64</ele>
        <time>2008-05-04T14:26:13Z</time>
      </trkpt>
      <trkpt lat="44.20264" lon="3.11223">
        <ele>596.64</ele>
        <time>2008-05-04T14:26:27Z</time>
      </trkpt>
      <trkpt lat="44.20261" lon="3.1122">
        <ele>596.64</ele>
        <time>2008-05-04T14:26:36Z</time>
      </trkpt>
      <trkpt lat="44.20257" lon="3.11215">
        <ele>596.64</ele>
        <time>2008-05-04T14:26:38Z</time>
      </trkpt>
      <trkpt lat="44.20257" lon="3.1121">
        <ele>597.6</ele>
        <time>2008-05-04T14:26:42Z</time>
      </trkpt>
      <trkpt lat="44.20259" lon="3.11212">
        <ele>597.12</ele>
        <time>2008-05-04T14:26:53Z</time>
      </trkpt>
      <trkpt lat="44.20261" lon="3.11211">
        <ele>597.6</ele>
        <time>2008-05-04T14:27:14Z</time>
      </trkpt>
      <trkpt lat="44.20267" lon="3.11208">
        <ele>597.6</ele>
        <time>2008-05-04T14:27:33Z</time>
      </trkpt>
      <trkpt lat="44.20272" lon="3.11223">
        <ele>596.64</ele>
        <time>2008-05-04T14:27:44Z</time>
      </trkpt>
      <trkpt lat="44.20267" lon="3.11227">
        <ele>596.15</ele>
        <time>2008-05-04T14:27:49Z</time>
      </trkpt>
      <trkpt lat="44.20256" lon="3.11213">
        <ele>596.64</ele>
        <time>2008-05-04T14:27:58Z</time>
      </trkpt>
      <trkpt lat="44.20256" lon="3.11209">
        <ele>597.12</ele>
        <time>2008-05-04T14:28:01Z</time>
      </trkpt>
      <trkpt lat="44.20261" lon="3.11205">
        <ele>597.6</ele>
        <time>2008-05-04T14:28:05Z</time>
      </trkpt>
      <trkpt lat="44.20273" lon="3.11206">
        <ele>597.12</ele>
        <time>2008-05-04T14:28:12Z</time>
      </trkpt>
      <trkpt lat="44.20277" lon="3.11214">
        <ele>596.64</ele>
        <time>2008-05-04T14:28:15Z</time>
      </trkpt>
      <trkpt lat="44.20273" lon="3.11223">
        <ele>596.64</ele>
        <time>2008-05-04T14:28:20Z</time>
      </trkpt>
      <trkpt lat="44.20265" lon="3.11227">
        <ele>596.15</ele>
        <time>2008-05-04T14:28:32Z</time>
      </trkpt>
      <trkpt lat="44.20264" lon="3.11225">
        <ele>595.67</ele>
        <time>2008-05-04T14:28:46Z</time>
      </trkpt>
      <trkpt lat="44.20256" lon="3.11215">
        <ele>596.15</ele>
        <time>2008-05-04T14:28:51Z</time>
      </trkpt>
      <trkpt lat="44.20261" lon="3.11208">
        <ele>597.12</ele>
        <time>2008-05-04T14:29:02Z</time>
      </trkpt>
      <trkpt lat="44.20274" lon="3.11206">
        <ele>597.6</ele>
        <time>2008-05-04T14:29:10Z</time>
      </trkpt>
      <trkpt lat="44.20274" lon="3.11224">
        <ele>596.64</ele>
        <time>2008-05-04T14:29:19Z</time>
      </trkpt>
      <trkpt lat="44.20272" lon="3.11227">
        <ele>596.15</ele>
        <time>2008-05-04T14:29:21Z</time>
      </trkpt>
      <trkpt lat="44.20268" lon="3.11227">
        <ele>596.15</ele>
        <time>2008-05-04T14:29:23Z</time>
      </trkpt>
      <trkpt lat="44.2026" lon="3.1122">
        <ele>595.67</ele>
        <time>2008-05-04T14:29:29Z</time>
      </trkpt>
      <trkpt lat="44.20257" lon="3.11215">
        <ele>596.15</ele>
        <time>2008-05-04T14:29:31Z</time>
      </trkpt>
      <trkpt lat="44.20255" lon="3.11213">
        <ele>596.15</ele>
        <time>2008-05-04T14:29:33Z</time>
      </trkpt>
      <trkpt lat="44.20275" lon="3.11207">
        <ele>597.12</ele>
        <time>2008-05-04T14:29:47Z</time>
      </trkpt>
      <trkpt lat="44.20272" lon="3.11224">
        <ele>596.15</ele>
        <time>2008-05-04T14:29:56Z</time>
      </trkpt>
      <trkpt lat="44.20259" lon="3.11219">
        <ele>595.67</ele>
        <time>2008-05-04T14:30:06Z</time>
      </trkpt>
      <trkpt lat="44.20257" lon="3.11215">
        <ele>595.67</ele>
        <time>2008-05-04T14:30:16Z</time>
      </trkpt>
      <trkpt lat="44.20257" lon="3.11215">
        <ele>596.15</ele>
        <time>2008-05-04T14:30:47Z</time>
      </trkpt>
      <trkpt lat="44.2026" lon="3.11211">
        <ele>597.12</ele>
        <time>2008-05-04T14:31:00Z</time>
      </trkpt>
      <trkpt lat="44.20262" lon="3.1121">
        <ele>597.12</ele>
        <time>2008-05-04T14:31:13Z</time>
      </trkpt>
      <trkpt lat="44.20264" lon="3.1121">
        <ele>597.6</ele>
        <time>2008-05-04T14:31:22Z</time>
      </trkpt>
      <trkpt lat="44.20273" lon="3.11223">
        <ele>596.15</ele>
        <time>2008-05-04T14:31:35Z</time>
      </trkpt>
      <trkpt lat="44.20272" lon="3.11226">
        <ele>596.15</ele>
        <time>2008-05-04T14:31:37Z</time>
      </trkpt>
      <trkpt lat="44.20265" lon="3.11226">
        <ele>596.15</ele>
        <time>2008-05-04T14:31:50Z</time>
      </trkpt>
      <trkpt lat="44.20256" lon="3.11215">
        <ele>596.15</ele>
        <time>2008-05-04T14:31:59Z</time>
      </trkpt>
      <trkpt lat="44.20256" lon="3.1121">
        <ele>597.12</ele>
        <time>2008-05-04T14:32:02Z</time>
      </trkpt>
      <trkpt lat="44.20277" lon="3.11206">
        <ele>597.12</ele>
        <time>2008-05-04T14:32:15Z</time>
      </trkpt>
      <trkpt lat="44.20269" lon="3.11226">
        <ele>595.67</ele>
        <time>2008-05-04T14:32:25Z</time>
      </trkpt>
      <trkpt lat="44.20264" lon="3.11225">
        <ele>596.15</ele>
        <time>2008-05-04T14:32:29Z</time>
      </trkpt>
      <trkpt lat="44.20255" lon="3.11214">
        <ele>596.15</ele>
        <time>2008-05-04T14:32:35Z</time>
      </trkpt>
      <trkpt lat="44.20265" lon="3.11206">
        <ele>597.6</ele>
        <time>2008-05-04T14:32:43Z</time>
      </trkpt>
      <trkpt lat="44.20273" lon="3.11207">
        <ele>597.12</ele>
        <time>2008-05-04T14:32:47Z</time>
      </trkpt>
      <trkpt lat="44.20277" lon="3.1121">
        <ele>596.64</ele>
        <time>2008-05-04T14:32:49Z</time>
      </trkpt>
      <trkpt lat="44.20273" lon="3.11224">
        <ele>596.15</ele>
        <time>2008-05-04T14:32:55Z</time>
      </trkpt>
      <trkpt lat="44.20262" lon="3.11224">
        <ele>595.67</ele>
        <time>2008-05-04T14:33:05Z</time>
      </trkpt>
      <trkpt lat="44.20257" lon="3.11216">
        <ele>595.67</ele>
        <time>2008-05-04T14:33:10Z</time>
      </trkpt>
      <trkpt lat="44.2026" lon="3.11209">
        <ele>597.12</ele>
        <time>2008-05-04T14:33:15Z</time>
      </trkpt>
      <trkpt lat="44.20271" lon="3.11205">
        <ele>597.12</ele>
        <time>2008-05-04T14:33:22Z</time>
      </trkpt>
      <trkpt lat="44.20276" lon="3.11218">
        <ele>596.15</ele>
        <time>2008-05-04T14:33:30Z</time>
      </trkpt>
      <trkpt lat="44.20269" lon="3.11227">
        <ele>595.67</ele>
        <time>2008-05-04T14:33:36Z</time>
      </trkpt>
      <trkpt lat="44.20261" lon="3.11223">
        <ele>595.19</ele>
        <time>2008-05-04T14:33:42Z</time>
      </trkpt>
      <trkpt lat="44.20255" lon="3.11215">
        <ele>596.15</ele>
        <time>2008-05-04T14:33:46Z</time>
      </trkpt>
      <trkpt lat="44.20261" lon="3.11209">
        <ele>596.64</ele>
        <time>2008-05-04T14:33:51Z</time>
      </trkpt>
      <trkpt lat="44.20272" lon="3.11206">
        <ele>597.12</ele>
        <time>2008-05-04T14:33:58Z</time>
      </trkpt>
      <trkpt lat="44.20272" lon="3.11221">
        <ele>596.64</ele>
        <time>2008-05-04T14:34:07Z</time>
      </trkpt>
      <trkpt lat="44.20266" lon="3.11224">
        <ele>595.67</ele>
        <time>2008-05-04T14:34:15Z</time>
      </trkpt>
      <trkpt lat="44.20265" lon="3.11216">
        <ele>595.67</ele>
        <time>2008-05-04T14:34:25Z</time>
      </trkpt>
      <trkpt lat="44.20268" lon="3.11221">
        <ele>595.67</ele>
        <time>2008-05-04T14:34:38Z</time>
      </trkpt>
      <trkpt lat="44.20269" lon="3.11222">
        <ele>595.67</ele>
        <time>2008-05-04T14:34:45Z</time>
      </trkpt>
      <trkpt lat="44.20264" lon="3.11222">
        <ele>595.67</ele>
        <time>2008-05-04T14:34:52Z</time>
      </trkpt>
      <trkpt lat="44.20266" lon="3.11214">
        <ele>595.67</ele>
        <time>2008-05-04T14:34:56Z</time>
      </trkpt>
      <trkpt lat="44.20269" lon="3.11218">
        <ele>595.67</ele>
        <time>2008-05-04T14:35:10Z</time>
      </trkpt>
      <trkpt lat="44.20266" lon="3.11218">
        <ele>595.19</ele>
        <time>2008-05-04T14:35:22Z</time>
      </trkpt>
      <trkpt lat="44.20261" lon="3.11219">
        <ele>594.71</ele>
        <time>2008-05-04T14:35:42Z</time>
      </trkpt>
      <trkpt lat="44.20254" lon="3.1122">
        <ele>593.75</ele>
        <time>2008-05-04T14:36:03Z</time>
      </trkpt>
      <trkpt lat="44.20254" lon="3.11219">
        <ele>593.75</ele>
        <time>2008-05-04T14:36:55Z</time>
      </trkpt>
      <trkpt lat="44.20254" lon="3.1122">
        <ele>593.75</ele>
        <time>2008-05-04T14:44:42Z</time>
      </trkpt>
      <trkpt lat="44.20255" lon="3.1122">
        <ele>593.75</ele>
        <time>2008-05-04T14:45:17Z</time>
      </trkpt>
      <trkpt lat="44.20237" lon="3.11227">
        <ele>591.35</ele>
        <time>2008-05-04T14:45:25Z</time>
      </trkpt>
      <trkpt lat="44.20228" lon="3.11248">
        <ele>588.46</ele>
        <time>2008-05-04T14:45:30Z</time>
      </trkpt>
      <trkpt lat="44.20209" lon="3.11248">
        <ele>586.54</ele>
        <time>2008-05-04T14:45:35Z</time>
      </trkpt>
      <trkpt lat="44.20205" lon="3.11246">
        <ele>586.06</ele>
        <time>2008-05-04T14:45:36Z</time>
      </trkpt>
      <trkpt lat="44.20191" lon="3.11241">
        <ele>584.62</ele>
        <time>2008-05-04T14:45:39Z</time>
      </trkpt>
      <trkpt lat="44.20167" lon="3.11234">
        <ele>581.25</ele>
        <time>2008-05-04T14:45:45Z</time>
      </trkpt>
      <trkpt lat="44.20153" lon="3.11229">
        <ele>577.89</ele>
        <time>2008-05-04T14:45:48Z</time>
      </trkpt>
      <trkpt lat="44.20134" lon="3.11221">
        <ele>573.56</ele>
        <time>2008-05-04T14:45:52Z</time>
      </trkpt>
      <trkpt lat="44.20117" lon="3.11213">
        <ele>570.68</ele>
        <time>2008-05-04T14:45:56Z</time>
      </trkpt>
      <trkpt lat="44.20101" lon="3.11207">
        <ele>567.32</ele>
        <time>2008-05-04T14:45:59Z</time>
      </trkpt>
      <trkpt lat="44.20085" lon="3.11201">
        <ele>563.47</ele>
        <time>2008-05-04T14:46:02Z</time>
      </trkpt>
      <trkpt lat="44.2007" lon="3.11197">
        <ele>560.11</ele>
        <time>2008-05-04T14:46:05Z</time>
      </trkpt>
      <trkpt lat="44.20064" lon="3.11194">
        <ele>558.66</ele>
        <time>2008-05-04T14:46:07Z</time>
      </trkpt>
      <trkpt lat="44.20057" lon="3.11191">
        <ele>556.74</ele>
        <time>2008-05-04T14:46:18Z</time>
      </trkpt>
      <trkpt lat="44.2003" lon="3.11187">
        <ele>553.86</ele>
        <time>2008-05-04T14:46:39Z</time>
      </trkpt>
      <trkpt lat="44.20016" lon="3.11183">
        <ele>551.93</ele>
        <time>2008-05-04T14:46:42Z</time>
      </trkpt>
      <trkpt lat="44.20012" lon="3.11181">
        <ele>551.45</ele>
        <time>2008-05-04T14:46:43Z</time>
      </trkpt>
      <trkpt lat="44.20008" lon="3.11178">
        <ele>550.97</ele>
        <time>2008-05-04T14:46:44Z</time>
      </trkpt>
      <trkpt lat="44.19992" lon="3.11172">
        <ele>547.61</ele>
        <time>2008-05-04T14:46:48Z</time>
      </trkpt>
      <trkpt lat="44.19976" lon="3.11166">
        <ele>544.24</ele>
        <time>2008-05-04T14:46:52Z</time>
      </trkpt>
      <trkpt lat="44.19962" lon="3.1116">
        <ele>540.88</ele>
        <time>2008-05-04T14:46:56Z</time>
      </trkpt>
      <trkpt lat="44.19949" lon="3.11159">
        <ele>537.99</ele>
        <time>2008-05-04T14:47:00Z</time>
      </trkpt>
      <trkpt lat="44.19937" lon="3.11155">
        <ele>534.63</ele>
        <time>2008-05-04T14:47:04Z</time>
      </trkpt>
      <trkpt lat="44.19924" lon="3.11158">
        <ele>532.23</ele>
        <time>2008-05-04T14:47:09Z</time>
      </trkpt>
      <trkpt lat="44.19923" lon="3.11162">
        <ele>531.75</ele>
        <time>2008-05-04T14:47:10Z</time>
      </trkpt>
      <trkpt lat="44.19923" lon="3.11166">
        <ele>531.75</ele>
        <time>2008-05-04T14:47:11Z</time>
      </trkpt>
      <trkpt lat="44.19923" lon="3.11171">
        <ele>531.75</ele>
        <time>2008-05-04T14:47:12Z</time>
      </trkpt>
      <trkpt lat="44.19925" lon="3.11175">
        <ele>531.75</ele>
        <time>2008-05-04T14:47:13Z</time>
      </trkpt>
      <trkpt lat="44.19932" lon="3.11212">
        <ele>533.19</ele>
        <time>2008-05-04T14:47:24Z</time>
      </trkpt>
      <trkpt lat="44.19932" lon="3.11215">
        <ele>533.19</ele>
        <time>2008-05-04T14:47:25Z</time>
      </trkpt>
      <trkpt lat="44.19932" lon="3.11217">
        <ele>533.19</ele>
        <time>2008-05-04T14:47:26Z</time>
      </trkpt>
      <trkpt lat="44.19932" lon="3.11219">
        <ele>532.71</ele>
        <time>2008-05-04T14:47:27Z</time>
      </trkpt>
      <trkpt lat="44.19932" lon="3.11222">
        <ele>532.71</ele>
        <time>2008-05-04T14:47:28Z</time>
      </trkpt>
      <trkpt lat="44.19932" lon="3.11226">
        <ele>532.71</ele>
        <time>2008-05-04T14:47:29Z</time>
      </trkpt>
      <trkpt lat="44.19931" lon="3.11229">
        <ele>532.71</ele>
        <time>2008-05-04T14:47:30Z</time>
      </trkpt>
      <trkpt lat="44.19931" lon="3.11233">
        <ele>532.71</ele>
        <time>2008-05-04T14:47:31Z</time>
      </trkpt>
      <trkpt lat="44.19931" lon="3.11237">
        <ele>532.71</ele>
        <time>2008-05-04T14:47:32Z</time>
      </trkpt>
      <trkpt lat="44.1993" lon="3.11242">
        <ele>532.23</ele>
        <time>2008-05-04T14:47:33Z</time>
      </trkpt>
      <trkpt lat="44.19928" lon="3.11246">
        <ele>532.23</ele>
        <time>2008-05-04T14:47:34Z</time>
      </trkpt>
      <trkpt lat="44.19926" lon="3.1125">
        <ele>532.71</ele>
        <time>2008-05-04T14:47:35Z</time>
      </trkpt>
      <trkpt lat="44.19924" lon="3.11254">
        <ele>532.71</ele>
        <time>2008-05-04T14:47:36Z</time>
      </trkpt>
      <trkpt lat="44.19887" lon="3.11306">
        <ele>528.86</ele>
        <time>2008-05-04T14:47:47Z</time>
      </trkpt>
      <trkpt lat="44.19876" lon="3.1133">
        <ele>525.98</ele>
        <time>2008-05-04T14:47:50Z</time>
      </trkpt>
      <trkpt lat="44.19871" lon="3.11345">
        <ele>524.06</ele>
        <time>2008-05-04T14:47:52Z</time>
      </trkpt>
      <trkpt lat="44.19871" lon="3.11351">
        <ele>523.58</ele>
        <time>2008-05-04T14:47:53Z</time>
      </trkpt>
      <trkpt lat="44.19871" lon="3.11358">
        <ele>523.09</ele>
        <time>2008-05-04T14:47:54Z</time>
      </trkpt>
      <trkpt lat="44.19873" lon="3.11365">
        <ele>522.13</ele>
        <time>2008-05-04T14:47:55Z</time>
      </trkpt>
      <trkpt lat="44.19877" lon="3.11373">
        <ele>521.17</ele>
        <time>2008-05-04T14:47:56Z</time>
      </trkpt>
      <trkpt lat="44.19882" lon="3.11382">
        <ele>519.25</ele>
        <time>2008-05-04T14:47:57Z</time>
      </trkpt>
      <trkpt lat="44.19888" lon="3.11389">
        <ele>518.77</ele>
        <time>2008-05-04T14:47:58Z</time>
      </trkpt>
      <trkpt lat="44.19899" lon="3.11408">
        <ele>515.4</ele>
        <time>2008-05-04T14:48:00Z</time>
      </trkpt>
      <trkpt lat="44.19909" lon="3.11426">
        <ele>513</ele>
        <time>2008-05-04T14:48:02Z</time>
      </trkpt>
      <trkpt lat="44.19912" lon="3.11434">
        <ele>511.56</ele>
        <time>2008-05-04T14:48:03Z</time>
      </trkpt>
      <trkpt lat="44.19913" lon="3.11444">
        <ele>510.6</ele>
        <time>2008-05-04T14:48:04Z</time>
      </trkpt>
      <trkpt lat="44.19913" lon="3.11463">
        <ele>507.23</ele>
        <time>2008-05-04T14:48:06Z</time>
      </trkpt>
      <trkpt lat="44.19915" lon="3.11472">
        <ele>505.31</ele>
        <time>2008-05-04T14:48:07Z</time>
      </trkpt>
      <trkpt lat="44.19917" lon="3.11482">
        <ele>504.83</ele>
        <time>2008-05-04T14:48:08Z</time>
      </trkpt>
      <trkpt lat="44.1992" lon="3.1149">
        <ele>502.91</ele>
        <time>2008-05-04T14:48:09Z</time>
      </trkpt>
      <trkpt lat="44.19923" lon="3.11498">
        <ele>501.46</ele>
        <time>2008-05-04T14:48:10Z</time>
      </trkpt>
      <trkpt lat="44.19925" lon="3.11505">
        <ele>500.5</ele>
        <time>2008-05-04T14:48:11Z</time>
      </trkpt>
      <trkpt lat="44.19925" lon="3.11512">
        <ele>499.54</ele>
        <time>2008-05-04T14:48:12Z</time>
      </trkpt>
      <trkpt lat="44.19922" lon="3.11517">
        <ele>499.06</ele>
        <time>2008-05-04T14:48:13Z</time>
      </trkpt>
      <trkpt lat="44.19919" lon="3.11519">
        <ele>498.1</ele>
        <time>2008-05-04T14:48:14Z</time>
      </trkpt>
      <trkpt lat="44.19916" lon="3.11522">
        <ele>498.1</ele>
        <time>2008-05-04T14:48:15Z</time>
      </trkpt>
      <trkpt lat="44.19912" lon="3.1152">
        <ele>498.1</ele>
        <time>2008-05-04T14:48:16Z</time>
      </trkpt>
      <trkpt lat="44.19909" lon="3.11518">
        <ele>498.58</ele>
        <time>2008-05-04T14:48:17Z</time>
      </trkpt>
      <trkpt lat="44.19907" lon="3.11516">
        <ele>498.58</ele>
        <time>2008-05-04T14:48:18Z</time>
      </trkpt>
      <trkpt lat="44.19889" lon="3.11499">
        <ele>500.5</ele>
        <time>2008-05-04T14:48:26Z</time>
      </trkpt>
      <trkpt lat="44.19887" lon="3.11499">
        <ele>500.5</ele>
        <time>2008-05-04T14:48:27Z</time>
      </trkpt>
      <trkpt lat="44.19885" lon="3.11499">
        <ele>500.98</ele>
        <time>2008-05-04T14:48:28Z</time>
      </trkpt>
      <trkpt lat="44.19883" lon="3.11498">
        <ele>500.5</ele>
        <time>2008-05-04T14:48:29Z</time>
      </trkpt>
      <trkpt lat="44.19881" lon="3.11497">
        <ele>500.98</ele>
        <time>2008-05-04T14:48:30Z</time>
      </trkpt>
      <trkpt lat="44.19878" lon="3.11496">
        <ele>500.5</ele>
        <time>2008-05-04T14:48:31Z</time>
      </trkpt>
      <trkpt lat="44.19848" lon="3.11491">
        <ele>500.02</ele>
        <time>2008-05-04T14:48:42Z</time>
      </trkpt>
      <trkpt lat="44.19844" lon="3.11491">
        <ele>499.54</ele>
        <time>2008-05-04T14:48:43Z</time>
      </trkpt>
      <trkpt lat="44.19839" lon="3.11491">
        <ele>499.54</ele>
        <time>2008-05-04T14:48:44Z</time>
      </trkpt>
      <trkpt lat="44.19835" lon="3.11491">
        <ele>499.06</ele>
        <time>2008-05-04T14:48:45Z</time>
      </trkpt>
      <trkpt lat="44.1983" lon="3.11491">
        <ele>499.06</ele>
        <time>2008-05-04T14:48:46Z</time>
      </trkpt>
      <trkpt lat="44.19825" lon="3.11492">
        <ele>498.1</ele>
        <time>2008-05-04T14:48:47Z</time>
      </trkpt>
      <trkpt lat="44.1982" lon="3.11493">
        <ele>497.62</ele>
        <time>2008-05-04T14:48:48Z</time>
      </trkpt>
      <trkpt lat="44.19779" lon="3.11488">
        <ele>494.26</ele>
        <time>2008-05-04T14:48:55Z</time>
      </trkpt>
      <trkpt lat="44.19763" lon="3.11487">
        <ele>492.81</ele>
        <time>2008-05-04T14:48:58Z</time>
      </trkpt>
      <trkpt lat="44.19759" lon="3.11488">
        <ele>492.81</ele>
        <time>2008-05-04T14:48:59Z</time>
      </trkpt>
      <trkpt lat="44.19755" lon="3.11491">
        <ele>492.33</ele>
        <time>2008-05-04T14:49:00Z</time>
      </trkpt>
      <trkpt lat="44.19751" lon="3.11495">
        <ele>491.85</ele>
        <time>2008-05-04T14:49:01Z</time>
      </trkpt>
      <trkpt lat="44.19747" lon="3.11499">
        <ele>491.37</ele>
        <time>2008-05-04T14:49:02Z</time>
      </trkpt>
      <trkpt lat="44.19743" lon="3.11505">
        <ele>490.89</ele>
        <time>2008-05-04T14:49:03Z</time>
      </trkpt>
      <trkpt lat="44.1974" lon="3.11512">
        <ele>490.41</ele>
        <time>2008-05-04T14:49:04Z</time>
      </trkpt>
      <trkpt lat="44.19737" lon="3.11518">
        <ele>490.41</ele>
        <time>2008-05-04T14:49:05Z</time>
      </trkpt>
      <trkpt lat="44.19715" lon="3.11562">
        <ele>489.93</ele>
        <time>2008-05-04T14:49:16Z</time>
      </trkpt>
      <trkpt lat="44.19711" lon="3.1157">
        <ele>489.45</ele>
        <time>2008-05-04T14:49:18Z</time>
      </trkpt>
      <trkpt lat="44.19707" lon="3.11573">
        <ele>489.45</ele>
        <time>2008-05-04T14:49:19Z</time>
      </trkpt>
      <trkpt lat="44.19703" lon="3.11573">
        <ele>488.97</ele>
        <time>2008-05-04T14:49:20Z</time>
      </trkpt>
      <trkpt lat="44.19697" lon="3.11575">
        <ele>488.49</ele>
        <time>2008-05-04T14:49:21Z</time>
      </trkpt>
      <trkpt lat="44.19692" lon="3.1158">
        <ele>488.01</ele>
        <time>2008-05-04T14:49:22Z</time>
      </trkpt>
      <trkpt lat="44.19687" lon="3.11584">
        <ele>488.01</ele>
        <time>2008-05-04T14:49:23Z</time>
      </trkpt>
      <trkpt lat="44.19683" lon="3.11589">
        <ele>488.01</ele>
        <time>2008-05-04T14:49:24Z</time>
      </trkpt>
      <trkpt lat="44.1968" lon="3.11594">
        <ele>488.01</ele>
        <time>2008-05-04T14:49:25Z</time>
      </trkpt>
      <trkpt lat="44.19677" lon="3.116">
        <ele>487.53</ele>
        <time>2008-05-04T14:49:26Z</time>
      </trkpt>
      <trkpt lat="44.19671" lon="3.1161">
        <ele>487.05</ele>
        <time>2008-05-04T14:49:28Z</time>
      </trkpt>
      <trkpt lat="44.19667" lon="3.11615">
        <ele>487.05</ele>
        <time>2008-05-04T14:49:29Z</time>
      </trkpt>
      <trkpt lat="44.19659" lon="3.11626">
        <ele>486.08</ele>
        <time>2008-05-04T14:49:31Z</time>
      </trkpt>
      <trkpt lat="44.19654" lon="3.11634">
        <ele>486.08</ele>
        <time>2008-05-04T14:49:32Z</time>
      </trkpt>
      <trkpt lat="44.19652" lon="3.11641">
        <ele>485.6</ele>
        <time>2008-05-04T14:49:33Z</time>
      </trkpt>
      <trkpt lat="44.1965" lon="3.11649">
        <ele>485.12</ele>
        <time>2008-05-04T14:49:34Z</time>
      </trkpt>
      <trkpt lat="44.19649" lon="3.11656">
        <ele>484.16</ele>
        <time>2008-05-04T14:49:35Z</time>
      </trkpt>
      <trkpt lat="44.1965" lon="3.11664">
        <ele>483.68</ele>
        <time>2008-05-04T14:49:36Z</time>
      </trkpt>
      <trkpt lat="44.19651" lon="3.11672">
        <ele>483.2</ele>
        <time>2008-05-04T14:49:37Z</time>
      </trkpt>
      <trkpt lat="44.19652" lon="3.11679">
        <ele>483.2</ele>
        <time>2008-05-04T14:49:38Z</time>
      </trkpt>
      <trkpt lat="44.19653" lon="3.11684">
        <ele>482.72</ele>
        <time>2008-05-04T14:49:39Z</time>
      </trkpt>
      <trkpt lat="44.19653" lon="3.11687">
        <ele>482.24</ele>
        <time>2008-05-04T14:49:40Z</time>
      </trkpt>
      <trkpt lat="44.19653" lon="3.1169">
        <ele>482.72</ele>
        <time>2008-05-04T14:49:41Z</time>
      </trkpt>
      <trkpt lat="44.19653" lon="3.11692">
        <ele>482.24</ele>
        <time>2008-05-04T14:49:42Z</time>
      </trkpt>
      <trkpt lat="44.19652" lon="3.11693">
        <ele>482.24</ele>
        <time>2008-05-04T14:49:43Z</time>
      </trkpt>
      <trkpt lat="44.19649" lon="3.11694">
        <ele>482.24</ele>
        <time>2008-05-04T14:49:44Z</time>
      </trkpt>
      <trkpt lat="44.19647" lon="3.11694">
        <ele>482.24</ele>
        <time>2008-05-04T14:49:45Z</time>
      </trkpt>
      <trkpt lat="44.1963" lon="3.11703">
        <ele>480.8</ele>
        <time>2008-05-04T14:49:50Z</time>
      </trkpt>
      <trkpt lat="44.19626" lon="3.11707">
        <ele>480.32</ele>
        <time>2008-05-04T14:49:51Z</time>
      </trkpt>
      <trkpt lat="44.19624" lon="3.11712">
        <ele>479.84</ele>
        <time>2008-05-04T14:49:52Z</time>
      </trkpt>
      <trkpt lat="44.19621" lon="3.11718">
        <ele>478.87</ele>
        <time>2008-05-04T14:49:53Z</time>
      </trkpt>
      <trkpt lat="44.1962" lon="3.11724">
        <ele>478.39</ele>
        <time>2008-05-04T14:49:54Z</time>
      </trkpt>
      <trkpt lat="44.1962" lon="3.1173">
        <ele>477.91</ele>
        <time>2008-05-04T14:49:55Z</time>
      </trkpt>
      <trkpt lat="44.19619" lon="3.11734">
        <ele>477.43</ele>
        <time>2008-05-04T14:49:56Z</time>
      </trkpt>
      <trkpt lat="44.19619" lon="3.11739">
        <ele>476.95</ele>
        <time>2008-05-04T14:49:57Z</time>
      </trkpt>
      <trkpt lat="44.19616" lon="3.11744">
        <ele>476.95</ele>
        <time>2008-05-04T14:49:58Z</time>
      </trkpt>
      <trkpt lat="44.19613" lon="3.11747">
        <ele>476.47</ele>
        <time>2008-05-04T14:49:59Z</time>
      </trkpt>
      <trkpt lat="44.19611" lon="3.1175">
        <ele>476.47</ele>
        <time>2008-05-04T14:50:00Z</time>
      </trkpt>
      <trkpt lat="44.19607" lon="3.11753">
        <ele>476.47</ele>
        <time>2008-05-04T14:50:01Z</time>
      </trkpt>
      <trkpt lat="44.19593" lon="3.11762">
        <ele>475.03</ele>
        <time>2008-05-04T14:50:04Z</time>
      </trkpt>
      <trkpt lat="44.19584" lon="3.11771">
        <ele>474.07</ele>
        <time>2008-05-04T14:50:06Z</time>
      </trkpt>
      <trkpt lat="44.19573" lon="3.11786">
        <ele>473.11</ele>
        <time>2008-05-04T14:50:09Z</time>
      </trkpt>
      <trkpt lat="44.19571" lon="3.11791">
        <ele>473.11</ele>
        <time>2008-05-04T14:50:10Z</time>
      </trkpt>
      <trkpt lat="44.19558" lon="3.11818">
        <ele>471.66</ele>
        <time>2008-05-04T14:50:14Z</time>
      </trkpt>
      <trkpt lat="44.19554" lon="3.11823">
        <ele>472.14</ele>
        <time>2008-05-04T14:50:15Z</time>
      </trkpt>
      <trkpt lat="44.19541" lon="3.11842">
        <ele>471.18</ele>
        <time>2008-05-04T14:50:19Z</time>
      </trkpt>
      <trkpt lat="44.19516" lon="3.11868">
        <ele>473.11</ele>
        <time>2008-05-04T14:50:30Z</time>
      </trkpt>
      <trkpt lat="44.19488" lon="3.11908">
        <ele>472.14</ele>
        <time>2008-05-04T14:50:41Z</time>
      </trkpt>
      <trkpt lat="44.19485" lon="3.11913">
        <ele>472.14</ele>
        <time>2008-05-04T14:50:42Z</time>
      </trkpt>
      <trkpt lat="44.19467" lon="3.11939">
        <ele>470.7</ele>
        <time>2008-05-04T14:50:47Z</time>
      </trkpt>
      <trkpt lat="44.19463" lon="3.11941">
        <ele>469.74</ele>
        <time>2008-05-04T14:50:48Z</time>
      </trkpt>
      <trkpt lat="44.19459" lon="3.11942">
        <ele>468.78</ele>
        <time>2008-05-04T14:50:49Z</time>
      </trkpt>
      <trkpt lat="44.19455" lon="3.11942">
        <ele>468.3</ele>
        <time>2008-05-04T14:50:50Z</time>
      </trkpt>
      <trkpt lat="44.1945" lon="3.11944">
        <ele>467.82</ele>
        <time>2008-05-04T14:50:51Z</time>
      </trkpt>
      <trkpt lat="44.19447" lon="3.11948">
        <ele>467.34</ele>
        <time>2008-05-04T14:50:52Z</time>
      </trkpt>
      <trkpt lat="44.19444" lon="3.11952">
        <ele>466.38</ele>
        <time>2008-05-04T14:50:53Z</time>
      </trkpt>
      <trkpt lat="44.19442" lon="3.11956">
        <ele>465.42</ele>
        <time>2008-05-04T14:50:54Z</time>
      </trkpt>
      <trkpt lat="44.19441" lon="3.11961">
        <ele>465.42</ele>
        <time>2008-05-04T14:50:55Z</time>
      </trkpt>
      <trkpt lat="44.1944" lon="3.11965">
        <ele>464.45</ele>
        <time>2008-05-04T14:50:56Z</time>
      </trkpt>
      <trkpt lat="44.19439" lon="3.11969">
        <ele>463.49</ele>
        <time>2008-05-04T14:50:57Z</time>
      </trkpt>
      <trkpt lat="44.19438" lon="3.11973">
        <ele>463.01</ele>
        <time>2008-05-04T14:50:58Z</time>
      </trkpt>
      <trkpt lat="44.19438" lon="3.11982">
        <ele>462.05</ele>
        <time>2008-05-04T14:51:00Z</time>
      </trkpt>
      <trkpt lat="44.19441" lon="3.11991">
        <ele>460.61</ele>
        <time>2008-05-04T14:51:02Z</time>
      </trkpt>
      <trkpt lat="44.19444" lon="3.11994">
        <ele>459.65</ele>
        <time>2008-05-04T14:51:03Z</time>
      </trkpt>
      <trkpt lat="44.19455" lon="3.12011">
        <ele>456.76</ele>
        <time>2008-05-04T14:51:08Z</time>
      </trkpt>
      <trkpt lat="44.19458" lon="3.12014">
        <ele>456.28</ele>
        <time>2008-05-04T14:51:09Z</time>
      </trkpt>
      <trkpt lat="44.19464" lon="3.12017">
        <ele>454.84</ele>
        <time>2008-05-04T14:51:12Z</time>
      </trkpt>
      <trkpt lat="44.19467" lon="3.12016">
        <ele>454.36</ele>
        <time>2008-05-04T14:51:13Z</time>
      </trkpt>
      <trkpt lat="44.19469" lon="3.12017">
        <ele>453.88</ele>
        <time>2008-05-04T14:51:14Z</time>
      </trkpt>
      <trkpt lat="44.19472" lon="3.12017">
        <ele>453.4</ele>
        <time>2008-05-04T14:51:15Z</time>
      </trkpt>
      <trkpt lat="44.19473" lon="3.1202">
        <ele>452.92</ele>
        <time>2008-05-04T14:51:16Z</time>
      </trkpt>
      <trkpt lat="44.19473" lon="3.12024">
        <ele>452.44</ele>
        <time>2008-05-04T14:51:17Z</time>
      </trkpt>
      <trkpt lat="44.19472" lon="3.12028">
        <ele>451.96</ele>
        <time>2008-05-04T14:51:18Z</time>
      </trkpt>
      <trkpt lat="44.1946" lon="3.12051">
        <ele>448.59</ele>
        <time>2008-05-04T14:51:27Z</time>
      </trkpt>
      <trkpt lat="44.19441" lon="3.12089">
        <ele>445.71</ele>
        <time>2008-05-04T14:51:37Z</time>
      </trkpt>
      <trkpt lat="44.19441" lon="3.12111">
        <ele>445.23</ele>
        <time>2008-05-04T14:51:42Z</time>
      </trkpt>
      <trkpt lat="44.19442" lon="3.12117">
        <ele>445.23</ele>
        <time>2008-05-04T14:51:43Z</time>
      </trkpt>
      <trkpt lat="44.19447" lon="3.12156">
        <ele>443.79</ele>
        <time>2008-05-04T14:51:54Z</time>
      </trkpt>
      <trkpt lat="44.19446" lon="3.12157">
        <ele>443.31</ele>
        <time>2008-05-04T14:52:46Z</time>
      </trkpt>
      <trkpt lat="44.19446" lon="3.1216">
        <ele>443.31</ele>
        <time>2008-05-04T14:52:47Z</time>
      </trkpt>
      <trkpt lat="44.19433" lon="3.12198">
        <ele>442.82</ele>
        <time>2008-05-04T14:52:59Z</time>
      </trkpt>
      <trkpt lat="44.19402" lon="3.12244">
        <ele>442.82</ele>
        <time>2008-05-04T14:53:13Z</time>
      </trkpt>
      <trkpt lat="44.19388" lon="3.12265">
        <ele>441.86</ele>
        <time>2008-05-04T14:53:18Z</time>
      </trkpt>
      <trkpt lat="44.19357" lon="3.12333">
        <ele>439.94</ele>
        <time>2008-05-04T14:53:30Z</time>
      </trkpt>
      <trkpt lat="44.19349" lon="3.12352">
        <ele>439.46</ele>
        <time>2008-05-04T14:53:33Z</time>
      </trkpt>
      <trkpt lat="44.19347" lon="3.1236">
        <ele>438.98</ele>
        <time>2008-05-04T14:53:34Z</time>
      </trkpt>
      <trkpt lat="44.19337" lon="3.12403">
        <ele>435.61</ele>
        <time>2008-05-04T14:53:39Z</time>
      </trkpt>
      <trkpt lat="44.19324" lon="3.12446">
        <ele>432.25</ele>
        <time>2008-05-04T14:53:43Z</time>
      </trkpt>
      <trkpt lat="44.1932" lon="3.12456">
        <ele>431.77</ele>
        <time>2008-05-04T14:53:44Z</time>
      </trkpt>
      <trkpt lat="44.19296" lon="3.12501">
        <ele>427.44</ele>
        <time>2008-05-04T14:53:48Z</time>
      </trkpt>
      <trkpt lat="44.19288" lon="3.12511">
        <ele>426.48</ele>
        <time>2008-05-04T14:53:49Z</time>
      </trkpt>
      <trkpt lat="44.19249" lon="3.12549">
        <ele>422.64</ele>
        <time>2008-05-04T14:53:53Z</time>
      </trkpt>
      <trkpt lat="44.19239" lon="3.1256">
        <ele>420.71</ele>
        <time>2008-05-04T14:53:54Z</time>
      </trkpt>
      <trkpt lat="44.19231" lon="3.12573">
        <ele>418.79</ele>
        <time>2008-05-04T14:53:55Z</time>
      </trkpt>
      <trkpt lat="44.19216" lon="3.12596">
        <ele>416.39</ele>
        <time>2008-05-04T14:53:57Z</time>
      </trkpt>
      <trkpt lat="44.19207" lon="3.12605">
        <ele>415.43</ele>
        <time>2008-05-04T14:53:58Z</time>
      </trkpt>
      <trkpt lat="44.19162" lon="3.12635">
        <ele>411.58</ele>
        <time>2008-05-04T14:54:03Z</time>
      </trkpt>
      <trkpt lat="44.19112" lon="3.12651">
        <ele>413.5</ele>
        <time>2008-05-04T14:54:13Z</time>
      </trkpt>
      <trkpt lat="44.19095" lon="3.12693">
        <ele>413.98</ele>
        <time>2008-05-04T14:54:24Z</time>
      </trkpt>
      <trkpt lat="44.19096" lon="3.12761">
        <ele>413.98</ele>
        <time>2008-05-04T14:54:38Z</time>
      </trkpt>
      <trkpt lat="44.19081" lon="3.1284">
        <ele>411.58</ele>
        <time>2008-05-04T14:54:51Z</time>
      </trkpt>
      <trkpt lat="44.19066" lon="3.12927">
        <ele>408.22</ele>
        <time>2008-05-04T14:55:02Z</time>
      </trkpt>
      <trkpt lat="44.19066" lon="3.12936">
        <ele>408.22</ele>
        <time>2008-05-04T14:55:03Z</time>
      </trkpt>
      <trkpt lat="44.19066" lon="3.12945">
        <ele>407.74</ele>
        <time>2008-05-04T14:55:04Z</time>
      </trkpt>
      <trkpt lat="44.19067" lon="3.12954">
        <ele>407.74</ele>
        <time>2008-05-04T14:55:05Z</time>
      </trkpt>
      <trkpt lat="44.19074" lon="3.13026">
        <ele>406.77</ele>
        <time>2008-05-04T14:55:14Z</time>
      </trkpt>
      <trkpt lat="44.19074" lon="3.13031">
        <ele>406.77</ele>
        <time>2008-05-04T14:55:15Z</time>
      </trkpt>
      <trkpt lat="44.19073" lon="3.13036">
        <ele>406.77</ele>
        <time>2008-05-04T14:55:16Z</time>
      </trkpt>
      <trkpt lat="44.1907" lon="3.13039">
        <ele>406.29</ele>
        <time>2008-05-04T14:55:17Z</time>
      </trkpt>
      <trkpt lat="44.19066" lon="3.13041">
        <ele>406.29</ele>
        <time>2008-05-04T14:55:18Z</time>
      </trkpt>
      <trkpt lat="44.19062" lon="3.13041">
        <ele>405.81</ele>
        <time>2008-05-04T14:55:19Z</time>
      </trkpt>
      <trkpt lat="44.19057" lon="3.13042">
        <ele>405.81</ele>
        <time>2008-05-04T14:55:20Z</time>
      </trkpt>
      <trkpt lat="44.18998" lon="3.1305">
        <ele>402.45</ele>
        <time>2008-05-04T14:55:29Z</time>
      </trkpt>
      <trkpt lat="44.18953" lon="3.13047">
        <ele>399.08</ele>
        <time>2008-05-04T14:55:35Z</time>
      </trkpt>
      <trkpt lat="44.18936" lon="3.13047">
        <ele>398.6</ele>
        <time>2008-05-04T14:55:37Z</time>
      </trkpt>
      <trkpt lat="44.18901" lon="3.13044">
        <ele>395.24</ele>
        <time>2008-05-04T14:55:41Z</time>
      </trkpt>
      <trkpt lat="44.18856" lon="3.1304">
        <ele>393.8</ele>
        <time>2008-05-04T14:55:48Z</time>
      </trkpt>
      <trkpt lat="44.18855" lon="3.13037">
        <ele>393.8</ele>
        <time>2008-05-04T14:55:49Z</time>
      </trkpt>
      <trkpt lat="44.18853" lon="3.13034">
        <ele>393.8</ele>
        <time>2008-05-04T14:55:50Z</time>
      </trkpt>
      <trkpt lat="44.18853" lon="3.1303">
        <ele>393.8</ele>
        <time>2008-05-04T14:55:51Z</time>
      </trkpt>
      <trkpt lat="44.18854" lon="3.13027">
        <ele>394.28</ele>
        <time>2008-05-04T14:55:52Z</time>
      </trkpt>
      <trkpt lat="44.18855" lon="3.13022">
        <ele>394.28</ele>
        <time>2008-05-04T14:55:53Z</time>
      </trkpt>
      <trkpt lat="44.18855" lon="3.13017">
        <ele>394.28</ele>
        <time>2008-05-04T14:55:54Z</time>
      </trkpt>
      <trkpt lat="44.18855" lon="3.13013">
        <ele>394.76</ele>
        <time>2008-05-04T14:55:55Z</time>
      </trkpt>
      <trkpt lat="44.18856" lon="3.13009">
        <ele>394.76</ele>
        <time>2008-05-04T14:55:56Z</time>
      </trkpt>
      <trkpt lat="44.18857" lon="3.13006">
        <ele>394.76</ele>
        <time>2008-05-04T14:55:57Z</time>
      </trkpt>
      <trkpt lat="44.18857" lon="3.13002">
        <ele>394.76</ele>
        <time>2008-05-04T14:55:58Z</time>
      </trkpt>
      <trkpt lat="44.1887" lon="3.1295">
        <ele>396.2</ele>
        <time>2008-05-04T14:56:12Z</time>
      </trkpt>
      <trkpt lat="44.18874" lon="3.1291">
        <ele>397.64</ele>
        <time>2008-05-04T14:56:25Z</time>
      </trkpt>
      <trkpt lat="44.18871" lon="3.12864">
        <ele>400.05</ele>
        <time>2008-05-04T14:56:40Z</time>
      </trkpt>
      <trkpt lat="44.18869" lon="3.12824">
        <ele>403.41</ele>
        <time>2008-05-04T14:56:56Z</time>
      </trkpt>
      <trkpt lat="44.18868" lon="3.12778">
        <ele>406.29</ele>
        <time>2008-05-04T14:57:12Z</time>
      </trkpt>
      <trkpt lat="44.18867" lon="3.12764">
        <ele>407.26</ele>
        <time>2008-05-04T14:57:18Z</time>
      </trkpt>
      <trkpt lat="44.18867" lon="3.12762">
        <ele>407.74</ele>
        <time>2008-05-04T14:57:19Z</time>
      </trkpt>
      <trkpt lat="44.18867" lon="3.1276">
        <ele>407.74</ele>
        <time>2008-05-04T14:57:20Z</time>
      </trkpt>
      <trkpt lat="44.18863" lon="3.12739">
        <ele>409.66</ele>
        <time>2008-05-04T14:57:31Z</time>
      </trkpt>
      <trkpt lat="44.18863" lon="3.12737">
        <ele>410.14</ele>
        <time>2008-05-04T14:57:32Z</time>
      </trkpt>
      <trkpt lat="44.18862" lon="3.12734">
        <ele>410.14</ele>
        <time>2008-05-04T14:57:33Z</time>
      </trkpt>
      <trkpt lat="44.1885" lon="3.12701">
        <ele>413.02</ele>
        <time>2008-05-04T14:57:48Z</time>
      </trkpt>
      <trkpt lat="44.18845" lon="3.12666">
        <ele>415.43</ele>
        <time>2008-05-04T14:58:02Z</time>
      </trkpt>
      <trkpt lat="44.18853" lon="3.12626">
        <ele>417.83</ele>
        <time>2008-05-04T14:58:17Z</time>
      </trkpt>
      <trkpt lat="44.18867" lon="3.12599">
        <ele>420.23</ele>
        <time>2008-05-04T14:58:32Z</time>
      </trkpt>
      <trkpt lat="44.18879" lon="3.12585">
        <ele>421.68</ele>
        <time>2008-05-04T14:58:40Z</time>
      </trkpt>
      <trkpt lat="44.18879" lon="3.12583">
        <ele>421.68</ele>
        <time>2008-05-04T14:58:41Z</time>
      </trkpt>
      <trkpt lat="44.1888" lon="3.12581">
        <ele>422.16</ele>
        <time>2008-05-04T14:58:42Z</time>
      </trkpt>
      <trkpt lat="44.18881" lon="3.12579">
        <ele>422.64</ele>
        <time>2008-05-04T14:58:43Z</time>
      </trkpt>
      <trkpt lat="44.18883" lon="3.12578">
        <ele>422.64</ele>
        <time>2008-05-04T14:58:44Z</time>
      </trkpt>
      <trkpt lat="44.18883" lon="3.12577">
        <ele>422.64</ele>
        <time>2008-05-04T14:58:45Z</time>
      </trkpt>
      <trkpt lat="44.18893" lon="3.12561">
        <ele>424.08</ele>
        <time>2008-05-04T14:58:54Z</time>
      </trkpt>
      <trkpt lat="44.18895" lon="3.12559">
        <ele>424.56</ele>
        <time>2008-05-04T14:58:55Z</time>
      </trkpt>
      <trkpt lat="44.18896" lon="3.12557">
        <ele>425.04</ele>
        <time>2008-05-04T14:58:56Z</time>
      </trkpt>
      <trkpt lat="44.18897" lon="3.12555">
        <ele>425.04</ele>
        <time>2008-05-04T14:58:57Z</time>
      </trkpt>
      <trkpt lat="44.18898" lon="3.12553">
        <ele>425.04</ele>
        <time>2008-05-04T14:58:58Z</time>
      </trkpt>
      <trkpt lat="44.18898" lon="3.12551">
        <ele>425.52</ele>
        <time>2008-05-04T14:58:59Z</time>
      </trkpt>
      <trkpt lat="44.189" lon="3.12547">
        <ele>426</ele>
        <time>2008-05-04T14:59:01Z</time>
      </trkpt>
      <trkpt lat="44.189" lon="3.12545">
        <ele>426</ele>
        <time>2008-05-04T14:59:02Z</time>
      </trkpt>
      <trkpt lat="44.18902" lon="3.12544">
        <ele>426</ele>
        <time>2008-05-04T14:59:03Z</time>
      </trkpt>
      <trkpt lat="44.18918" lon="3.12518">
        <ele>428.89</ele>
        <time>2008-05-04T14:59:16Z</time>
      </trkpt>
      <trkpt lat="44.1893" lon="3.12488">
        <ele>430.81</ele>
        <time>2008-05-04T14:59:29Z</time>
      </trkpt>
      <trkpt lat="44.18932" lon="3.12462">
        <ele>431.77</ele>
        <time>2008-05-04T14:59:41Z</time>
      </trkpt>
      <trkpt lat="44.1893" lon="3.1246">
        <ele>432.25</ele>
        <time>2008-05-04T14:59:44Z</time>
      </trkpt>
      <trkpt lat="44.18927" lon="3.12457">
        <ele>432.25</ele>
        <time>2008-05-04T14:59:45Z</time>
      </trkpt>
      <trkpt lat="44.18924" lon="3.12455">
        <ele>432.73</ele>
        <time>2008-05-04T14:59:46Z</time>
      </trkpt>
      <trkpt lat="44.18921" lon="3.12454">
        <ele>432.73</ele>
        <time>2008-05-04T14:59:47Z</time>
      </trkpt>
      <trkpt lat="44.18919" lon="3.12452">
        <ele>432.73</ele>
        <time>2008-05-04T14:59:48Z</time>
      </trkpt>
      <trkpt lat="44.18895" lon="3.12451">
        <ele>434.65</ele>
        <time>2008-05-04T15:00:00Z</time>
      </trkpt>
      <trkpt lat="44.18871" lon="3.12454">
        <ele>436.1</ele>
        <time>2008-05-04T15:00:13Z</time>
      </trkpt>
      <trkpt lat="44.18851" lon="3.12471">
        <ele>438.5</ele>
        <time>2008-05-04T15:00:26Z</time>
      </trkpt>
      <trkpt lat="44.1883" lon="3.12505">
        <ele>440.42</ele>
        <time>2008-05-04T15:00:40Z</time>
      </trkpt>
      <trkpt lat="44.18803" lon="3.12523">
        <ele>442.34</ele>
        <time>2008-05-04T15:00:55Z</time>
      </trkpt>
      <trkpt lat="44.18777" lon="3.12532">
        <ele>444.75</ele>
        <time>2008-05-04T15:01:07Z</time>
      </trkpt>
      <trkpt lat="44.18753" lon="3.12554">
        <ele>447.15</ele>
        <time>2008-05-04T15:01:20Z</time>
      </trkpt>
      <trkpt lat="44.18728" lon="3.12557">
        <ele>449.07</ele>
        <time>2008-05-04T15:01:34Z</time>
      </trkpt>
      <trkpt lat="44.18704" lon="3.12547">
        <ele>451</ele>
        <time>2008-05-04T15:01:47Z</time>
      </trkpt>
      <trkpt lat="44.18683" lon="3.12535">
        <ele>453.4</ele>
        <time>2008-05-04T15:02:01Z</time>
      </trkpt>
      <trkpt lat="44.18676" lon="3.12532">
        <ele>453.88</ele>
        <time>2008-05-04T15:02:05Z</time>
      </trkpt>
      <trkpt lat="44.18669" lon="3.1253">
        <ele>454.36</ele>
        <time>2008-05-04T15:02:09Z</time>
      </trkpt>
      <trkpt lat="44.18648" lon="3.12517">
        <ele>456.28</ele>
        <time>2008-05-04T15:02:22Z</time>
      </trkpt>
      <trkpt lat="44.1863" lon="3.12498">
        <ele>459.65</ele>
        <time>2008-05-04T15:02:35Z</time>
      </trkpt>
      <trkpt lat="44.18602" lon="3.12503">
        <ele>460.61</ele>
        <time>2008-05-04T15:02:49Z</time>
      </trkpt>
      <trkpt lat="44.18579" lon="3.12492">
        <ele>462.53</ele>
        <time>2008-05-04T15:03:02Z</time>
      </trkpt>
      <trkpt lat="44.18564" lon="3.12477">
        <ele>464.45</ele>
        <time>2008-05-04T15:03:13Z</time>
      </trkpt>
      <trkpt lat="44.18547" lon="3.12463">
        <ele>466.38</ele>
        <time>2008-05-04T15:03:23Z</time>
      </trkpt>
      <trkpt lat="44.18545" lon="3.12461">
        <ele>466.38</ele>
        <time>2008-05-04T15:03:24Z</time>
      </trkpt>
      <trkpt lat="44.18543" lon="3.1246">
        <ele>466.38</ele>
        <time>2008-05-04T15:03:25Z</time>
      </trkpt>
      <trkpt lat="44.1854" lon="3.12458">
        <ele>466.38</ele>
        <time>2008-05-04T15:03:26Z</time>
      </trkpt>
      <trkpt lat="44.18537" lon="3.12457">
        <ele>466.86</ele>
        <time>2008-05-04T15:03:27Z</time>
      </trkpt>
      <trkpt lat="44.18535" lon="3.12457">
        <ele>466.86</ele>
        <time>2008-05-04T15:03:28Z</time>
      </trkpt>
      <trkpt lat="44.18532" lon="3.12458">
        <ele>467.34</ele>
        <time>2008-05-04T15:03:29Z</time>
      </trkpt>
      <trkpt lat="44.18519" lon="3.12451">
        <ele>467.82</ele>
        <time>2008-05-04T15:03:37Z</time>
      </trkpt>
      <trkpt lat="44.18517" lon="3.12449">
        <ele>468.3</ele>
        <time>2008-05-04T15:03:38Z</time>
      </trkpt>
      <trkpt lat="44.18514" lon="3.12447">
        <ele>467.82</ele>
        <time>2008-05-04T15:03:39Z</time>
      </trkpt>
      <trkpt lat="44.18512" lon="3.12445">
        <ele>467.82</ele>
        <time>2008-05-04T15:03:40Z</time>
      </trkpt>
      <trkpt lat="44.1851" lon="3.12446">
        <ele>468.3</ele>
        <time>2008-05-04T15:03:41Z</time>
      </trkpt>
      <trkpt lat="44.18507" lon="3.12445">
        <ele>468.3</ele>
        <time>2008-05-04T15:03:42Z</time>
      </trkpt>
      <trkpt lat="44.18504" lon="3.12444">
        <ele>468.3</ele>
        <time>2008-05-04T15:03:43Z</time>
      </trkpt>
      <trkpt lat="44.18502" lon="3.12444">
        <ele>468.3</ele>
        <time>2008-05-04T15:03:44Z</time>
      </trkpt>
      <trkpt lat="44.18476" lon="3.12435">
        <ele>469.26</ele>
        <time>2008-05-04T15:03:56Z</time>
      </trkpt>
      <trkpt lat="44.18454" lon="3.12413">
        <ele>470.7</ele>
        <time>2008-05-04T15:04:08Z</time>
      </trkpt>
      <trkpt lat="44.18448" lon="3.12402">
        <ele>471.66</ele>
        <time>2008-05-04T15:04:12Z</time>
      </trkpt>
      <trkpt lat="44.18446" lon="3.12399">
        <ele>471.66</ele>
        <time>2008-05-04T15:04:13Z</time>
      </trkpt>
      <trkpt lat="44.18445" lon="3.12397">
        <ele>472.14</ele>
        <time>2008-05-04T15:04:14Z</time>
      </trkpt>
      <trkpt lat="44.18443" lon="3.12395">
        <ele>472.14</ele>
        <time>2008-05-04T15:04:15Z</time>
      </trkpt>
      <trkpt lat="44.18441" lon="3.12392">
        <ele>472.14</ele>
        <time>2008-05-04T15:04:16Z</time>
      </trkpt>
      <trkpt lat="44.18417" lon="3.12377">
        <ele>475.03</ele>
        <time>2008-05-04T15:04:27Z</time>
      </trkpt>
      <trkpt lat="44.18385" lon="3.12363">
        <ele>476.95</ele>
        <time>2008-05-04T15:04:42Z</time>
      </trkpt>
      <trkpt lat="44.18366" lon="3.12348">
        <ele>477.91</ele>
        <time>2008-05-04T15:04:53Z</time>
      </trkpt>
      <trkpt lat="44.18337" lon="3.12324">
        <ele>478.39</ele>
        <time>2008-05-04T15:05:04Z</time>
      </trkpt>
      <trkpt lat="44.18305" lon="3.12309">
        <ele>480.32</ele>
        <time>2008-05-04T15:05:15Z</time>
      </trkpt>
      <trkpt lat="44.18281" lon="3.12291">
        <ele>483.68</ele>
        <time>2008-05-04T15:05:27Z</time>
      </trkpt>
      <trkpt lat="44.18267" lon="3.12275">
        <ele>484.64</ele>
        <time>2008-05-04T15:05:37Z</time>
      </trkpt>
      <trkpt lat="44.18249" lon="3.1225">
        <ele>487.05</ele>
        <time>2008-05-04T15:05:50Z</time>
      </trkpt>
      <trkpt lat="44.18229" lon="3.12225">
        <ele>489.45</ele>
        <time>2008-05-04T15:06:03Z</time>
      </trkpt>
      <trkpt lat="44.1821" lon="3.12205">
        <ele>490.41</ele>
        <time>2008-05-04T15:06:14Z</time>
      </trkpt>
      <trkpt lat="44.18208" lon="3.12204">
        <ele>490.41</ele>
        <time>2008-05-04T15:06:15Z</time>
      </trkpt>
      <trkpt lat="44.18182" lon="3.12188">
        <ele>492.33</ele>
        <time>2008-05-04T15:06:28Z</time>
      </trkpt>
      <trkpt lat="44.18158" lon="3.12189">
        <ele>494.74</ele>
        <time>2008-05-04T15:06:41Z</time>
      </trkpt>
      <trkpt lat="44.18134" lon="3.12186">
        <ele>496.66</ele>
        <time>2008-05-04T15:06:54Z</time>
      </trkpt>
      <trkpt lat="44.18108" lon="3.12184">
        <ele>500.02</ele>
        <time>2008-05-04T15:07:08Z</time>
      </trkpt>
      <trkpt lat="44.18081" lon="3.12173">
        <ele>502.43</ele>
        <time>2008-05-04T15:07:23Z</time>
      </trkpt>
      <trkpt lat="44.18078" lon="3.1217">
        <ele>502.43</ele>
        <time>2008-05-04T15:07:25Z</time>
      </trkpt>
      <trkpt lat="44.18064" lon="3.12151">
        <ele>504.83</ele>
        <time>2008-05-04T15:07:37Z</time>
      </trkpt>
      <trkpt lat="44.18043" lon="3.12136">
        <ele>506.27</ele>
        <time>2008-05-04T15:07:49Z</time>
      </trkpt>
      <trkpt lat="44.18025" lon="3.12115">
        <ele>508.19</ele>
        <time>2008-05-04T15:08:02Z</time>
      </trkpt>
      <trkpt lat="44.18026" lon="3.12113">
        <ele>508.67</ele>
        <time>2008-05-04T15:08:03Z</time>
      </trkpt>
      <trkpt lat="44.18026" lon="3.12112">
        <ele>508.67</ele>
        <time>2008-05-04T15:08:04Z</time>
      </trkpt>
      <trkpt lat="44.18027" lon="3.1211">
        <ele>508.67</ele>
        <time>2008-05-04T15:08:05Z</time>
      </trkpt>
      <trkpt lat="44.18028" lon="3.12108">
        <ele>508.67</ele>
        <time>2008-05-04T15:08:06Z</time>
      </trkpt>
      <trkpt lat="44.1804" lon="3.12087">
        <ele>511.56</ele>
        <time>2008-05-04T15:08:18Z</time>
      </trkpt>
      <trkpt lat="44.18041" lon="3.12085">
        <ele>511.56</ele>
        <time>2008-05-04T15:08:19Z</time>
      </trkpt>
      <trkpt lat="44.18042" lon="3.12083">
        <ele>512.04</ele>
        <time>2008-05-04T15:08:20Z</time>
      </trkpt>
      <trkpt lat="44.18043" lon="3.1208">
        <ele>512.04</ele>
        <time>2008-05-04T15:08:21Z</time>
      </trkpt>
      <trkpt lat="44.18044" lon="3.12078">
        <ele>512.04</ele>
        <time>2008-05-04T15:08:22Z</time>
      </trkpt>
      <trkpt lat="44.18046" lon="3.12076">
        <ele>512.04</ele>
        <time>2008-05-04T15:08:23Z</time>
      </trkpt>
      <trkpt lat="44.18047" lon="3.12074">
        <ele>512.52</ele>
        <time>2008-05-04T15:08:24Z</time>
      </trkpt>
      <trkpt lat="44.18048" lon="3.12072">
        <ele>512.52</ele>
        <time>2008-05-04T15:08:25Z</time>
      </trkpt>
      <trkpt lat="44.18051" lon="3.12069">
        <ele>512.52</ele>
        <time>2008-05-04T15:08:26Z</time>
      </trkpt>
      <trkpt lat="44.18051" lon="3.12066">
        <ele>512.52</ele>
        <time>2008-05-04T15:08:27Z</time>
      </trkpt>
      <trkpt lat="44.18052" lon="3.12064">
        <ele>512.52</ele>
        <time>2008-05-04T15:08:28Z</time>
      </trkpt>
      <trkpt lat="44.18055" lon="3.12046">
        <ele>512.52</ele>
        <time>2008-05-04T15:08:38Z</time>
      </trkpt>
      <trkpt lat="44.18061" lon="3.12033">
        <ele>512.52</ele>
        <time>2008-05-04T15:09:55Z</time>
      </trkpt>
      <trkpt lat="44.18064" lon="3.12033">
        <ele>513</ele>
        <time>2008-05-04T15:09:56Z</time>
      </trkpt>
      <trkpt lat="44.18095" lon="3.12046">
        <ele>513.96</ele>
        <time>2008-05-04T15:10:09Z</time>
      </trkpt>
      <trkpt lat="44.18136" lon="3.12065">
        <ele>515.88</ele>
        <time>2008-05-04T15:10:27Z</time>
      </trkpt>
      <trkpt lat="44.18166" lon="3.12073">
        <ele>517.81</ele>
        <time>2008-05-04T15:10:41Z</time>
      </trkpt>
      <trkpt lat="44.18194" lon="3.12079">
        <ele>519.73</ele>
        <time>2008-05-04T15:10:54Z</time>
      </trkpt>
      <trkpt lat="44.18197" lon="3.12079">
        <ele>520.21</ele>
        <time>2008-05-04T15:10:55Z</time>
      </trkpt>
      <trkpt lat="44.18199" lon="3.12081">
        <ele>520.21</ele>
        <time>2008-05-04T15:10:56Z</time>
      </trkpt>
      <trkpt lat="44.18201" lon="3.12081">
        <ele>520.21</ele>
        <time>2008-05-04T15:10:57Z</time>
      </trkpt>
      <trkpt lat="44.18203" lon="3.12082">
        <ele>520.69</ele>
        <time>2008-05-04T15:10:58Z</time>
      </trkpt>
      <trkpt lat="44.18222" lon="3.12098">
        <ele>523.58</ele>
        <time>2008-05-04T15:11:12Z</time>
      </trkpt>
      <trkpt lat="44.18241" lon="3.12103">
        <ele>525.98</ele>
        <time>2008-05-04T15:11:25Z</time>
      </trkpt>
      <trkpt lat="44.18262" lon="3.12106">
        <ele>527.9</ele>
        <time>2008-05-04T15:11:39Z</time>
      </trkpt>
      <trkpt lat="44.18277" lon="3.12108">
        <ele>529.34</ele>
        <time>2008-05-04T15:11:50Z</time>
      </trkpt>
      <trkpt lat="44.18279" lon="3.12109">
        <ele>529.82</ele>
        <time>2008-05-04T15:11:51Z</time>
      </trkpt>
      <trkpt lat="44.18281" lon="3.12109">
        <ele>529.82</ele>
        <time>2008-05-04T15:11:52Z</time>
      </trkpt>
      <trkpt lat="44.18283" lon="3.12109">
        <ele>529.82</ele>
        <time>2008-05-04T15:11:53Z</time>
      </trkpt>
      <trkpt lat="44.18284" lon="3.12109">
        <ele>529.82</ele>
        <time>2008-05-04T15:11:54Z</time>
      </trkpt>
      <trkpt lat="44.18302" lon="3.12113">
        <ele>532.23</ele>
        <time>2008-05-04T15:12:07Z</time>
      </trkpt>
      <trkpt lat="44.18316" lon="3.12117">
        <ele>533.67</ele>
        <time>2008-05-04T15:12:18Z</time>
      </trkpt>
      <trkpt lat="44.18318" lon="3.12117">
        <ele>533.67</ele>
        <time>2008-05-04T15:12:19Z</time>
      </trkpt>
      <trkpt lat="44.1832" lon="3.12117">
        <ele>533.67</ele>
        <time>2008-05-04T15:12:20Z</time>
      </trkpt>
      <trkpt lat="44.18322" lon="3.12117">
        <ele>534.15</ele>
        <time>2008-05-04T15:12:21Z</time>
      </trkpt>
      <trkpt lat="44.18324" lon="3.12117">
        <ele>534.15</ele>
        <time>2008-05-04T15:12:22Z</time>
      </trkpt>
      <trkpt lat="44.18342" lon="3.12123">
        <ele>535.59</ele>
        <time>2008-05-04T15:12:35Z</time>
      </trkpt>
      <trkpt lat="44.18345" lon="3.12124">
        <ele>536.07</ele>
        <time>2008-05-04T15:12:37Z</time>
      </trkpt>
      <trkpt lat="44.1835" lon="3.12124">
        <ele>536.07</ele>
        <time>2008-05-04T15:12:40Z</time>
      </trkpt>
      <trkpt lat="44.18352" lon="3.12125">
        <ele>536.55</ele>
        <time>2008-05-04T15:12:41Z</time>
      </trkpt>
      <trkpt lat="44.18359" lon="3.12125">
        <ele>537.03</ele>
        <time>2008-05-04T15:12:45Z</time>
      </trkpt>
      <trkpt lat="44.1836" lon="3.12125">
        <ele>537.03</ele>
        <time>2008-05-04T15:12:46Z</time>
      </trkpt>
      <trkpt lat="44.1838" lon="3.12132">
        <ele>538.96</ele>
        <time>2008-05-04T15:13:00Z</time>
      </trkpt>
      <trkpt lat="44.18405" lon="3.12134">
        <ele>541.36</ele>
        <time>2008-05-04T15:13:14Z</time>
      </trkpt>
      <trkpt lat="44.18407" lon="3.12134">
        <ele>541.36</ele>
        <time>2008-05-04T15:13:15Z</time>
      </trkpt>
      <trkpt lat="44.1841" lon="3.12135">
        <ele>541.84</ele>
        <time>2008-05-04T15:13:16Z</time>
      </trkpt>
      <trkpt lat="44.18432" lon="3.12141">
        <ele>543.76</ele>
        <time>2008-05-04T15:13:29Z</time>
      </trkpt>
      <trkpt lat="44.18433" lon="3.12142">
        <ele>544.24</ele>
        <time>2008-05-04T15:13:30Z</time>
      </trkpt>
      <trkpt lat="44.18434" lon="3.12142">
        <ele>544.24</ele>
        <time>2008-05-04T15:13:31Z</time>
      </trkpt>
      <trkpt lat="44.18458" lon="3.1215">
        <ele>546.17</ele>
        <time>2008-05-04T15:13:45Z</time>
      </trkpt>
      <trkpt lat="44.18487" lon="3.12155">
        <ele>549.53</ele>
        <time>2008-05-04T15:14:03Z</time>
      </trkpt>
      <trkpt lat="44.1851" lon="3.12167">
        <ele>551.93</ele>
        <time>2008-05-04T15:14:17Z</time>
      </trkpt>
      <trkpt lat="44.18515" lon="3.1217">
        <ele>552.41</ele>
        <time>2008-05-04T15:14:21Z</time>
      </trkpt>
      <trkpt lat="44.18516" lon="3.12171">
        <ele>552.9</ele>
        <time>2008-05-04T15:14:22Z</time>
      </trkpt>
      <trkpt lat="44.18535" lon="3.12178">
        <ele>555.3</ele>
        <time>2008-05-04T15:14:35Z</time>
      </trkpt>
      <trkpt lat="44.18559" lon="3.12182">
        <ele>557.22</ele>
        <time>2008-05-04T15:14:48Z</time>
      </trkpt>
      <trkpt lat="44.1858" lon="3.12188">
        <ele>559.62</ele>
        <time>2008-05-04T15:15:01Z</time>
      </trkpt>
      <trkpt lat="44.18597" lon="3.12175">
        <ele>561.55</ele>
        <time>2008-05-04T15:15:13Z</time>
      </trkpt>
      <trkpt lat="44.18597" lon="3.12172">
        <ele>561.55</ele>
        <time>2008-05-04T15:15:14Z</time>
      </trkpt>
      <trkpt lat="44.18596" lon="3.12163">
        <ele>562.03</ele>
        <time>2008-05-04T15:15:19Z</time>
      </trkpt>
      <trkpt lat="44.18593" lon="3.12161">
        <ele>562.99</ele>
        <time>2008-05-04T15:15:22Z</time>
      </trkpt>
      <trkpt lat="44.18573" lon="3.12152">
        <ele>564.43</ele>
        <time>2008-05-04T15:15:35Z</time>
      </trkpt>
      <trkpt lat="44.18567" lon="3.12141">
        <ele>565.39</ele>
        <time>2008-05-04T15:15:42Z</time>
      </trkpt>
      <trkpt lat="44.1855" lon="3.12127">
        <ele>567.32</ele>
        <time>2008-05-04T15:15:55Z</time>
      </trkpt>
      <trkpt lat="44.18546" lon="3.12119">
        <ele>568.28</ele>
        <time>2008-05-04T15:16:00Z</time>
      </trkpt>
      <trkpt lat="44.18548" lon="3.12117">
        <ele>568.28</ele>
        <time>2008-05-04T15:16:01Z</time>
      </trkpt>
      <trkpt lat="44.18548" lon="3.12115">
        <ele>568.28</ele>
        <time>2008-05-04T15:16:02Z</time>
      </trkpt>
      <trkpt lat="44.18553" lon="3.1211">
        <ele>569.24</ele>
        <time>2008-05-04T15:16:08Z</time>
      </trkpt>
      <trkpt lat="44.18566" lon="3.12109">
        <ele>570.68</ele>
        <time>2008-05-04T15:16:19Z</time>
      </trkpt>
      <trkpt lat="44.18574" lon="3.121">
        <ele>571.64</ele>
        <time>2008-05-04T15:16:26Z</time>
      </trkpt>
      <trkpt lat="44.18575" lon="3.12098">
        <ele>571.64</ele>
        <time>2008-05-04T15:16:27Z</time>
      </trkpt>
      <trkpt lat="44.18575" lon="3.12097">
        <ele>572.12</ele>
        <time>2008-05-04T15:16:28Z</time>
      </trkpt>
      <trkpt lat="44.18575" lon="3.12095">
        <ele>572.12</ele>
        <time>2008-05-04T15:16:29Z</time>
      </trkpt>
      <trkpt lat="44.18575" lon="3.12093">
        <ele>572.12</ele>
        <time>2008-05-04T15:16:30Z</time>
      </trkpt>
      <trkpt lat="44.18576" lon="3.12091">
        <ele>572.12</ele>
        <time>2008-05-04T15:16:31Z</time>
      </trkpt>
      <trkpt lat="44.18576" lon="3.12089">
        <ele>572.12</ele>
        <time>2008-05-04T15:16:32Z</time>
      </trkpt>
      <trkpt lat="44.18585" lon="3.1205">
        <ele>572.6</ele>
        <time>2008-05-04T15:16:45Z</time>
      </trkpt>
      <trkpt lat="44.18586" lon="3.12003">
        <ele>573.08</ele>
        <time>2008-05-04T15:16:57Z</time>
      </trkpt>
      <trkpt lat="44.18598" lon="3.11966">
        <ele>573.56</ele>
        <time>2008-05-04T15:17:08Z</time>
      </trkpt>
      <trkpt lat="44.18628" lon="3.11938">
        <ele>575.49</ele>
        <time>2008-05-04T15:17:22Z</time>
      </trkpt>
      <trkpt lat="44.18653" lon="3.119">
        <ele>578.37</ele>
        <time>2008-05-04T15:17:37Z</time>
      </trkpt>
      <trkpt lat="44.18656" lon="3.11889">
        <ele>578.85</ele>
        <time>2008-05-04T15:17:41Z</time>
      </trkpt>
      <trkpt lat="44.18681" lon="3.1183">
        <ele>579.33</ele>
        <time>2008-05-04T15:17:55Z</time>
      </trkpt>
      <trkpt lat="44.18715" lon="3.11766">
        <ele>580.77</ele>
        <time>2008-05-04T15:18:10Z</time>
      </trkpt>
      <trkpt lat="44.18741" lon="3.11718">
        <ele>583.66</ele>
        <time>2008-05-04T15:18:23Z</time>
      </trkpt>
      <trkpt lat="44.18759" lon="3.11673">
        <ele>585.58</ele>
        <time>2008-05-04T15:18:36Z</time>
      </trkpt>
      <trkpt lat="44.18787" lon="3.11629">
        <ele>587.5</ele>
        <time>2008-05-04T15:18:51Z</time>
      </trkpt>
      <trkpt lat="44.188" lon="3.11604">
        <ele>589.43</ele>
        <time>2008-05-04T15:19:01Z</time>
      </trkpt>
      <trkpt lat="44.188" lon="3.11601">
        <ele>589.91</ele>
        <time>2008-05-04T15:19:02Z</time>
      </trkpt>
      <trkpt lat="44.18811" lon="3.11582">
        <ele>591.83</ele>
        <time>2008-05-04T15:19:12Z</time>
      </trkpt>
      <trkpt lat="44.18812" lon="3.11579">
        <ele>592.31</ele>
        <time>2008-05-04T15:19:13Z</time>
      </trkpt>
      <trkpt lat="44.18813" lon="3.11575">
        <ele>592.79</ele>
        <time>2008-05-04T15:19:15Z</time>
      </trkpt>
      <trkpt lat="44.1882" lon="3.1156">
        <ele>594.23</ele>
        <time>2008-05-04T15:19:24Z</time>
      </trkpt>
      <trkpt lat="44.18821" lon="3.11558">
        <ele>594.23</ele>
        <time>2008-05-04T15:19:25Z</time>
      </trkpt>
      <trkpt lat="44.18822" lon="3.11556">
        <ele>594.71</ele>
        <time>2008-05-04T15:19:26Z</time>
      </trkpt>
      <trkpt lat="44.18825" lon="3.11552">
        <ele>594.71</ele>
        <time>2008-05-04T15:19:27Z</time>
      </trkpt>
      <trkpt lat="44.18827" lon="3.11549">
        <ele>595.19</ele>
        <time>2008-05-04T15:19:28Z</time>
      </trkpt>
      <trkpt lat="44.1883" lon="3.11547">
        <ele>595.19</ele>
        <time>2008-05-04T15:19:29Z</time>
      </trkpt>
      <trkpt lat="44.18831" lon="3.11546">
        <ele>595.19</ele>
        <time>2008-05-04T15:19:30Z</time>
      </trkpt>
      <trkpt lat="44.18843" lon="3.11531">
        <ele>596.64</ele>
        <time>2008-05-04T15:19:38Z</time>
      </trkpt>
      <trkpt lat="44.18844" lon="3.1153">
        <ele>596.64</ele>
        <time>2008-05-04T15:19:39Z</time>
      </trkpt>
      <trkpt lat="44.18845" lon="3.11528">
        <ele>596.64</ele>
        <time>2008-05-04T15:19:40Z</time>
      </trkpt>
      <trkpt lat="44.18847" lon="3.11527">
        <ele>597.12</ele>
        <time>2008-05-04T15:19:41Z</time>
      </trkpt>
      <trkpt lat="44.18849" lon="3.11525">
        <ele>597.12</ele>
        <time>2008-05-04T15:19:42Z</time>
      </trkpt>
      <trkpt lat="44.18851" lon="3.11523">
        <ele>597.6</ele>
        <time>2008-05-04T15:19:43Z</time>
      </trkpt>
      <trkpt lat="44.18862" lon="3.11514">
        <ele>598.56</ele>
        <time>2008-05-04T15:19:48Z</time>
      </trkpt>
      <trkpt lat="44.18865" lon="3.11511">
        <ele>598.56</ele>
        <time>2008-05-04T15:19:49Z</time>
      </trkpt>
      <trkpt lat="44.18862" lon="3.11508">
        <ele>599.04</ele>
        <time>2008-05-04T15:20:09Z</time>
      </trkpt>
      <trkpt lat="44.18863" lon="3.1151">
        <ele>602.4</ele>
        <time>2008-05-04T15:24:51Z</time>
      </trkpt>
      <trkpt lat="44.18863" lon="3.1151">
        <ele>602.4</ele>
        <time>2008-05-04T15:24:52Z</time>
      </trkpt>
      <trkpt lat="44.18859" lon="3.11504">
        <ele>602.4</ele>
        <time>2008-05-04T15:28:21Z</time>
      </trkpt>
      <trkpt lat="44.18856" lon="3.11508">
        <ele>602.4</ele>
        <time>2008-05-04T15:28:42Z</time>
      </trkpt>
      <trkpt lat="44.18855" lon="3.11509">
        <ele>602.88</ele>
        <time>2008-05-04T15:28:43Z</time>
      </trkpt>
      <trkpt lat="44.18853" lon="3.1151">
        <ele>602.88</ele>
        <time>2008-05-04T15:28:44Z</time>
      </trkpt>
      <trkpt lat="44.18851" lon="3.11511">
        <ele>602.88</ele>
        <time>2008-05-04T15:28:45Z</time>
      </trkpt>
      <trkpt lat="44.1885" lon="3.11512">
        <ele>602.88</ele>
        <time>2008-05-04T15:28:46Z</time>
      </trkpt>
      <trkpt lat="44.18848" lon="3.11513">
        <ele>602.88</ele>
        <time>2008-05-04T15:28:47Z</time>
      </trkpt>
      <trkpt lat="44.18828" lon="3.11522">
        <ele>604.81</ele>
        <time>2008-05-04T15:28:59Z</time>
      </trkpt>
      <trkpt lat="44.18808" lon="3.11533">
        <ele>606.25</ele>
        <time>2008-05-04T15:29:10Z</time>
      </trkpt>
      <trkpt lat="44.18806" lon="3.11533">
        <ele>606.25</ele>
        <time>2008-05-04T15:29:11Z</time>
      </trkpt>
      <trkpt lat="44.18803" lon="3.11534">
        <ele>606.25</ele>
        <time>2008-05-04T15:29:12Z</time>
      </trkpt>
      <trkpt lat="44.18801" lon="3.11536">
        <ele>606.25</ele>
        <time>2008-05-04T15:29:13Z</time>
      </trkpt>
      <trkpt lat="44.18799" lon="3.11538">
        <ele>606.73</ele>
        <time>2008-05-04T15:29:14Z</time>
      </trkpt>
      <trkpt lat="44.18798" lon="3.11538">
        <ele>607.21</ele>
        <time>2008-05-04T15:29:15Z</time>
      </trkpt>
      <trkpt lat="44.18796" lon="3.1154">
        <ele>607.21</ele>
        <time>2008-05-04T15:29:16Z</time>
      </trkpt>
      <trkpt lat="44.18795" lon="3.11542">
        <ele>607.21</ele>
        <time>2008-05-04T15:29:17Z</time>
      </trkpt>
      <trkpt lat="44.18793" lon="3.11544">
        <ele>607.21</ele>
        <time>2008-05-04T15:29:18Z</time>
      </trkpt>
      <trkpt lat="44.18791" lon="3.11546">
        <ele>607.69</ele>
        <time>2008-05-04T15:29:19Z</time>
      </trkpt>
      <trkpt lat="44.18789" lon="3.11547">
        <ele>607.69</ele>
        <time>2008-05-04T15:29:20Z</time>
      </trkpt>
      <trkpt lat="44.18787" lon="3.11549">
        <ele>608.17</ele>
        <time>2008-05-04T15:29:21Z</time>
      </trkpt>
      <trkpt lat="44.18764" lon="3.11559">
        <ele>609.61</ele>
        <time>2008-05-04T15:29:32Z</time>
      </trkpt>
      <trkpt lat="44.18738" lon="3.11572">
        <ele>611.54</ele>
        <time>2008-05-04T15:29:46Z</time>
      </trkpt>
      <trkpt lat="44.18712" lon="3.11586">
        <ele>612.02</ele>
        <time>2008-05-04T15:29:59Z</time>
      </trkpt>
      <trkpt lat="44.18686" lon="3.11614">
        <ele>612.98</ele>
        <time>2008-05-04T15:30:12Z</time>
      </trkpt>
      <trkpt lat="44.18661" lon="3.11644">
        <ele>612.98</ele>
        <time>2008-05-04T15:30:26Z</time>
      </trkpt>
      <trkpt lat="44.18634" lon="3.11687">
        <ele>614.9</ele>
        <time>2008-05-04T15:30:39Z</time>
      </trkpt>
      <trkpt lat="44.18587" lon="3.11711">
        <ele>613.94</ele>
        <time>2008-05-04T15:30:52Z</time>
      </trkpt>
      <trkpt lat="44.18566" lon="3.11709">
        <ele>612.5</ele>
        <time>2008-05-04T15:30:57Z</time>
      </trkpt>
      <trkpt lat="44.18561" lon="3.11708">
        <ele>612.02</ele>
        <time>2008-05-04T15:30:58Z</time>
      </trkpt>
      <trkpt lat="44.18531" lon="3.11689">
        <ele>611.06</ele>
        <time>2008-05-04T15:31:04Z</time>
      </trkpt>
      <trkpt lat="44.18527" lon="3.11685">
        <ele>610.57</ele>
        <time>2008-05-04T15:31:05Z</time>
      </trkpt>
      <trkpt lat="44.18524" lon="3.11681">
        <ele>610.57</ele>
        <time>2008-05-04T15:31:06Z</time>
      </trkpt>
      <trkpt lat="44.1852" lon="3.11676">
        <ele>610.57</ele>
        <time>2008-05-04T15:31:07Z</time>
      </trkpt>
      <trkpt lat="44.18517" lon="3.11672">
        <ele>610.09</ele>
        <time>2008-05-04T15:31:08Z</time>
      </trkpt>
      <trkpt lat="44.18469" lon="3.11599">
        <ele>607.69</ele>
        <time>2008-05-04T15:31:21Z</time>
      </trkpt>
      <trkpt lat="44.18466" lon="3.11594">
        <ele>607.21</ele>
        <time>2008-05-04T15:31:22Z</time>
      </trkpt>
      <trkpt lat="44.18462" lon="3.1159">
        <ele>607.69</ele>
        <time>2008-05-04T15:31:23Z</time>
      </trkpt>
      <trkpt lat="44.18458" lon="3.11587">
        <ele>607.69</ele>
        <time>2008-05-04T15:31:24Z</time>
      </trkpt>
      <trkpt lat="44.18455" lon="3.11584">
        <ele>607.69</ele>
        <time>2008-05-04T15:31:25Z</time>
      </trkpt>
      <trkpt lat="44.18451" lon="3.11582">
        <ele>608.17</ele>
        <time>2008-05-04T15:31:26Z</time>
      </trkpt>
      <trkpt lat="44.18425" lon="3.11558">
        <ele>611.06</ele>
        <time>2008-05-04T15:31:36Z</time>
      </trkpt>
      <trkpt lat="44.18414" lon="3.11526">
        <ele>614.42</ele>
        <time>2008-05-04T15:31:45Z</time>
      </trkpt>
      <trkpt lat="44.18391" lon="3.115">
        <ele>616.82</ele>
        <time>2008-05-04T15:31:56Z</time>
      </trkpt>
      <trkpt lat="44.18358" lon="3.11481">
        <ele>620.19</ele>
        <time>2008-05-04T15:32:10Z</time>
      </trkpt>
      <trkpt lat="44.18326" lon="3.11462">
        <ele>622.59</ele>
        <time>2008-05-04T15:32:26Z</time>
      </trkpt>
      <trkpt lat="44.1829" lon="3.11448">
        <ele>624.99</ele>
        <time>2008-05-04T15:32:42Z</time>
      </trkpt>
      <trkpt lat="44.18246" lon="3.11451">
        <ele>624.99</ele>
        <time>2008-05-04T15:32:57Z</time>
      </trkpt>
      <trkpt lat="44.1822" lon="3.11458">
        <ele>624.03</ele>
        <time>2008-05-04T15:33:04Z</time>
      </trkpt>
      <trkpt lat="44.18216" lon="3.11459">
        <ele>624.03</ele>
        <time>2008-05-04T15:33:05Z</time>
      </trkpt>
      <trkpt lat="44.18195" lon="3.11459">
        <ele>622.59</ele>
        <time>2008-05-04T15:33:09Z</time>
      </trkpt>
      <trkpt lat="44.18109" lon="3.11439">
        <ele>619.71</ele>
        <time>2008-05-04T15:33:22Z</time>
      </trkpt>
      <trkpt lat="44.18026" lon="3.11426">
        <ele>617.3</ele>
        <time>2008-05-04T15:33:36Z</time>
      </trkpt>
      <trkpt lat="44.18002" lon="3.11419">
        <ele>616.82</ele>
        <time>2008-05-04T15:33:40Z</time>
      </trkpt>
      <trkpt lat="44.17977" lon="3.11405">
        <ele>615.38</ele>
        <time>2008-05-04T15:33:44Z</time>
      </trkpt>
      <trkpt lat="44.17928" lon="3.11376">
        <ele>612.02</ele>
        <time>2008-05-04T15:33:50Z</time>
      </trkpt>
      <trkpt lat="44.17891" lon="3.11354">
        <ele>608.17</ele>
        <time>2008-05-04T15:33:54Z</time>
      </trkpt>
      <trkpt lat="44.17851" lon="3.11329">
        <ele>604.81</ele>
        <time>2008-05-04T15:33:58Z</time>
      </trkpt>
      <trkpt lat="44.17842" lon="3.11326">
        <ele>603.85</ele>
        <time>2008-05-04T15:33:59Z</time>
      </trkpt>
      <trkpt lat="44.17832" lon="3.11324">
        <ele>603.85</ele>
        <time>2008-05-04T15:34:00Z</time>
      </trkpt>
      <trkpt lat="44.17823" lon="3.11323">
        <ele>602.88</ele>
        <time>2008-05-04T15:34:01Z</time>
      </trkpt>
      <trkpt lat="44.17812" lon="3.11322">
        <ele>601.92</ele>
        <time>2008-05-04T15:34:02Z</time>
      </trkpt>
      <trkpt lat="44.17802" lon="3.11323">
        <ele>601.44</ele>
        <time>2008-05-04T15:34:03Z</time>
      </trkpt>
      <trkpt lat="44.17763" lon="3.11327">
        <ele>598.56</ele>
        <time>2008-05-04T15:34:07Z</time>
      </trkpt>
      <trkpt lat="44.1774" lon="3.11329">
        <ele>597.12</ele>
        <time>2008-05-04T15:34:10Z</time>
      </trkpt>
      <trkpt lat="44.17732" lon="3.11326">
        <ele>596.64</ele>
        <time>2008-05-04T15:34:11Z</time>
      </trkpt>
      <trkpt lat="44.17724" lon="3.11324">
        <ele>596.15</ele>
        <time>2008-05-04T15:34:12Z</time>
      </trkpt>
      <trkpt lat="44.17689" lon="3.11308">
        <ele>594.23</ele>
        <time>2008-05-04T15:34:16Z</time>
      </trkpt>
      <trkpt lat="44.17672" lon="3.113">
        <ele>592.79</ele>
        <time>2008-05-04T15:34:18Z</time>
      </trkpt>
      <trkpt lat="44.1762" lon="3.1127">
        <ele>590.39</ele>
        <time>2008-05-04T15:34:24Z</time>
      </trkpt>
      <trkpt lat="44.17585" lon="3.11247">
        <ele>587.98</ele>
        <time>2008-05-04T15:34:28Z</time>
      </trkpt>
      <trkpt lat="44.17567" lon="3.11239">
        <ele>586.54</ele>
        <time>2008-05-04T15:34:30Z</time>
      </trkpt>
      <trkpt lat="44.17558" lon="3.11237">
        <ele>586.54</ele>
        <time>2008-05-04T15:34:31Z</time>
      </trkpt>
      <trkpt lat="44.17548" lon="3.11237">
        <ele>586.06</ele>
        <time>2008-05-04T15:34:32Z</time>
      </trkpt>
      <trkpt lat="44.17539" lon="3.11239">
        <ele>586.06</ele>
        <time>2008-05-04T15:34:33Z</time>
      </trkpt>
      <trkpt lat="44.17531" lon="3.11242">
        <ele>585.58</ele>
        <time>2008-05-04T15:34:34Z</time>
      </trkpt>
      <trkpt lat="44.17523" lon="3.11248">
        <ele>586.06</ele>
        <time>2008-05-04T15:34:35Z</time>
      </trkpt>
      <trkpt lat="44.17517" lon="3.11254">
        <ele>586.54</ele>
        <time>2008-05-04T15:34:36Z</time>
      </trkpt>
      <trkpt lat="44.17509" lon="3.1126">
        <ele>586.54</ele>
        <time>2008-05-04T15:34:37Z</time>
      </trkpt>
      <trkpt lat="44.17503" lon="3.11263">
        <ele>586.54</ele>
        <time>2008-05-04T15:34:38Z</time>
      </trkpt>
      <trkpt lat="44.17497" lon="3.11265">
        <ele>587.02</ele>
        <time>2008-05-04T15:34:39Z</time>
      </trkpt>
      <trkpt lat="44.17491" lon="3.11265">
        <ele>587.02</ele>
        <time>2008-05-04T15:34:40Z</time>
      </trkpt>
      <trkpt lat="44.17485" lon="3.11263">
        <ele>587.02</ele>
        <time>2008-05-04T15:34:41Z</time>
      </trkpt>
      <trkpt lat="44.1748" lon="3.11259">
        <ele>586.54</ele>
        <time>2008-05-04T15:34:42Z</time>
      </trkpt>
      <trkpt lat="44.17474" lon="3.11254">
        <ele>586.06</ele>
        <time>2008-05-04T15:34:43Z</time>
      </trkpt>
      <trkpt lat="44.17469" lon="3.11248">
        <ele>586.06</ele>
        <time>2008-05-04T15:34:44Z</time>
      </trkpt>
      <trkpt lat="44.17467" lon="3.11241">
        <ele>585.58</ele>
        <time>2008-05-04T15:34:45Z</time>
      </trkpt>
      <trkpt lat="44.17462" lon="3.1123">
        <ele>584.14</ele>
        <time>2008-05-04T15:34:51Z</time>
      </trkpt>
      <trkpt lat="44.17446" lon="3.11202">
        <ele>582.7</ele>
        <time>2008-05-04T15:46:18Z</time>
      </trkpt>
      <trkpt lat="44.17404" lon="3.11137">
        <ele>581.25</ele>
        <time>2008-05-04T15:46:33Z</time>
      </trkpt>
      <trkpt lat="44.17396" lon="3.11123">
        <ele>581.25</ele>
        <time>2008-05-04T15:46:36Z</time>
      </trkpt>
      <trkpt lat="44.17392" lon="3.11119">
        <ele>581.25</ele>
        <time>2008-05-04T15:46:37Z</time>
      </trkpt>
      <trkpt lat="44.17365" lon="3.11096">
        <ele>580.77</ele>
        <time>2008-05-04T15:46:44Z</time>
      </trkpt>
      <trkpt lat="44.17316" lon="3.11067">
        <ele>579.33</ele>
        <time>2008-05-04T15:46:55Z</time>
      </trkpt>
      <trkpt lat="44.17271" lon="3.11033">
        <ele>577.41</ele>
        <time>2008-05-04T15:47:06Z</time>
      </trkpt>
      <trkpt lat="44.17242" lon="3.11009">
        <ele>574.04</ele>
        <time>2008-05-04T15:47:13Z</time>
      </trkpt>
      <trkpt lat="44.17238" lon="3.11008">
        <ele>574.04</ele>
        <time>2008-05-04T15:47:14Z</time>
      </trkpt>
      <trkpt lat="44.17233" lon="3.11007">
        <ele>574.04</ele>
        <time>2008-05-04T15:47:15Z</time>
      </trkpt>
      <trkpt lat="44.17229" lon="3.11009">
        <ele>573.08</ele>
        <time>2008-05-04T15:47:16Z</time>
      </trkpt>
      <trkpt lat="44.17225" lon="3.11013">
        <ele>572.6</ele>
        <time>2008-05-04T15:47:17Z</time>
      </trkpt>
      <trkpt lat="44.17219" lon="3.11017">
        <ele>572.12</ele>
        <time>2008-05-04T15:47:18Z</time>
      </trkpt>
      <trkpt lat="44.17212" lon="3.11023">
        <ele>572.12</ele>
        <time>2008-05-04T15:47:19Z</time>
      </trkpt>
      <trkpt lat="44.17207" lon="3.11031">
        <ele>571.16</ele>
        <time>2008-05-04T15:47:20Z</time>
      </trkpt>
      <trkpt lat="44.17202" lon="3.11039">
        <ele>570.2</ele>
        <time>2008-05-04T15:47:21Z</time>
      </trkpt>
      <trkpt lat="44.17193" lon="3.11053">
        <ele>568.76</ele>
        <time>2008-05-04T15:47:23Z</time>
      </trkpt>
      <trkpt lat="44.17188" lon="3.11059">
        <ele>568.28</ele>
        <time>2008-05-04T15:47:24Z</time>
      </trkpt>
      <trkpt lat="44.17183" lon="3.11064">
        <ele>567.8</ele>
        <time>2008-05-04T15:47:25Z</time>
      </trkpt>
      <trkpt lat="44.17176" lon="3.11066">
        <ele>567.32</ele>
        <time>2008-05-04T15:47:26Z</time>
      </trkpt>
      <trkpt lat="44.17169" lon="3.11065">
        <ele>566.83</ele>
        <time>2008-05-04T15:47:27Z</time>
      </trkpt>
      <trkpt lat="44.17162" lon="3.11064">
        <ele>566.35</ele>
        <time>2008-05-04T15:47:28Z</time>
      </trkpt>
      <trkpt lat="44.17155" lon="3.11061">
        <ele>566.35</ele>
        <time>2008-05-04T15:47:29Z</time>
      </trkpt>
      <trkpt lat="44.17139" lon="3.11054">
        <ele>565.39</ele>
        <time>2008-05-04T15:47:31Z</time>
      </trkpt>
      <trkpt lat="44.17131" lon="3.11049">
        <ele>563.95</ele>
        <time>2008-05-04T15:47:32Z</time>
      </trkpt>
      <trkpt lat="44.17124" lon="3.11043">
        <ele>562.99</ele>
        <time>2008-05-04T15:47:33Z</time>
      </trkpt>
      <trkpt lat="44.17117" lon="3.11036">
        <ele>562.99</ele>
        <time>2008-05-04T15:47:34Z</time>
      </trkpt>
      <trkpt lat="44.17085" lon="3.11008">
        <ele>560.59</ele>
        <time>2008-05-04T15:47:38Z</time>
      </trkpt>
      <trkpt lat="44.17061" lon="3.10988">
        <ele>557.22</ele>
        <time>2008-05-04T15:47:41Z</time>
      </trkpt>
      <trkpt lat="44.17051" lon="3.10976">
        <ele>554.82</ele>
        <time>2008-05-04T15:47:43Z</time>
      </trkpt>
      <trkpt lat="44.17046" lon="3.10969">
        <ele>553.38</ele>
        <time>2008-05-04T15:47:44Z</time>
      </trkpt>
      <trkpt lat="44.17036" lon="3.10956">
        <ele>550.97</ele>
        <time>2008-05-04T15:47:47Z</time>
      </trkpt>
      <trkpt lat="44.17034" lon="3.10955">
        <ele>550.97</ele>
        <time>2008-05-04T15:47:48Z</time>
      </trkpt>
      <trkpt lat="44.17034" lon="3.10955">
        <ele>550.97</ele>
        <time>2008-05-04T15:47:49Z</time>
      </trkpt>
      <trkpt lat="44.17031" lon="3.10958">
        <ele>550.01</ele>
        <time>2008-05-04T15:47:57Z</time>
      </trkpt>
      <trkpt lat="44.17031" lon="3.10963">
        <ele>549.53</ele>
        <time>2008-05-04T15:47:58Z</time>
      </trkpt>
      <trkpt lat="44.17032" lon="3.1097">
        <ele>548.57</ele>
        <time>2008-05-04T15:47:59Z</time>
      </trkpt>
      <trkpt lat="44.17035" lon="3.10986">
        <ele>547.13</ele>
        <time>2008-05-04T15:48:01Z</time>
      </trkpt>
      <trkpt lat="44.17037" lon="3.10999">
        <ele>546.65</ele>
        <time>2008-05-04T15:48:02Z</time>
      </trkpt>
      <trkpt lat="44.17042" lon="3.11012">
        <ele>544.72</ele>
        <time>2008-05-04T15:48:04Z</time>
      </trkpt>
      <trkpt lat="44.17041" lon="3.11017">
        <ele>544.24</ele>
        <time>2008-05-04T15:48:05Z</time>
      </trkpt>
      <trkpt lat="44.17038" lon="3.1102">
        <ele>543.76</ele>
        <time>2008-05-04T15:48:06Z</time>
      </trkpt>
      <trkpt lat="44.17035" lon="3.11021">
        <ele>543.76</ele>
        <time>2008-05-04T15:48:07Z</time>
      </trkpt>
      <trkpt lat="44.17031" lon="3.1102">
        <ele>543.28</ele>
        <time>2008-05-04T15:48:08Z</time>
      </trkpt>
      <trkpt lat="44.17028" lon="3.11015">
        <ele>542.32</ele>
        <time>2008-05-04T15:48:09Z</time>
      </trkpt>
      <trkpt lat="44.17024" lon="3.1101">
        <ele>542.32</ele>
        <time>2008-05-04T15:48:10Z</time>
      </trkpt>
      <trkpt lat="44.17011" lon="3.10991">
        <ele>540.88</ele>
        <time>2008-05-04T15:48:13Z</time>
      </trkpt>
      <trkpt lat="44.16995" lon="3.10966">
        <ele>539.44</ele>
        <time>2008-05-04T15:48:16Z</time>
      </trkpt>
      <trkpt lat="44.16974" lon="3.10937">
        <ele>536.07</ele>
        <time>2008-05-04T15:48:19Z</time>
      </trkpt>
      <trkpt lat="44.16934" lon="3.10894">
        <ele>533.19</ele>
        <time>2008-05-04T15:48:24Z</time>
      </trkpt>
      <trkpt lat="44.16926" lon="3.10887">
        <ele>532.71</ele>
        <time>2008-05-04T15:48:25Z</time>
      </trkpt>
      <trkpt lat="44.16866" lon="3.1081">
        <ele>532.71</ele>
        <time>2008-05-04T15:48:37Z</time>
      </trkpt>
      <trkpt lat="44.16842" lon="3.10772">
        <ele>533.67</ele>
        <time>2008-05-04T15:48:45Z</time>
      </trkpt>
      <trkpt lat="44.16835" lon="3.10766">
        <ele>534.15</ele>
        <time>2008-05-04T15:48:47Z</time>
      </trkpt>
      <trkpt lat="44.16831" lon="3.10765">
        <ele>534.15</ele>
        <time>2008-05-04T15:48:48Z</time>
      </trkpt>
      <trkpt lat="44.16827" lon="3.10762">
        <ele>534.15</ele>
        <time>2008-05-04T15:48:49Z</time>
      </trkpt>
      <trkpt lat="44.16823" lon="3.10759">
        <ele>534.15</ele>
        <time>2008-05-04T15:48:50Z</time>
      </trkpt>
      <trkpt lat="44.16819" lon="3.10756">
        <ele>534.15</ele>
        <time>2008-05-04T15:48:51Z</time>
      </trkpt>
      <trkpt lat="44.16788" lon="3.1074">
        <ele>535.59</ele>
        <time>2008-05-04T15:48:58Z</time>
      </trkpt>
      <trkpt lat="44.16784" lon="3.10739">
        <ele>535.59</ele>
        <time>2008-05-04T15:48:59Z</time>
      </trkpt>
      <trkpt lat="44.1678" lon="3.10737">
        <ele>536.07</ele>
        <time>2008-05-04T15:49:00Z</time>
      </trkpt>
      <trkpt lat="44.16775" lon="3.10736">
        <ele>536.07</ele>
        <time>2008-05-04T15:49:01Z</time>
      </trkpt>
      <trkpt lat="44.16771" lon="3.10735">
        <ele>536.07</ele>
        <time>2008-05-04T15:49:02Z</time>
      </trkpt>
      <trkpt lat="44.16766" lon="3.10735">
        <ele>536.07</ele>
        <time>2008-05-04T15:49:03Z</time>
      </trkpt>
      <trkpt lat="44.16762" lon="3.10733">
        <ele>536.55</ele>
        <time>2008-05-04T15:49:04Z</time>
      </trkpt>
      <trkpt lat="44.16759" lon="3.1073">
        <ele>536.55</ele>
        <time>2008-05-04T15:49:05Z</time>
      </trkpt>
      <trkpt lat="44.16734" lon="3.10721">
        <ele>535.59</ele>
        <time>2008-05-04T15:49:11Z</time>
      </trkpt>
      <trkpt lat="44.16702" lon="3.10716">
        <ele>534.63</ele>
        <time>2008-05-04T15:49:17Z</time>
      </trkpt>
      <trkpt lat="44.16697" lon="3.10713">
        <ele>534.15</ele>
        <time>2008-05-04T15:49:18Z</time>
      </trkpt>
      <trkpt lat="44.16692" lon="3.10708">
        <ele>533.67</ele>
        <time>2008-05-04T15:49:19Z</time>
      </trkpt>
      <trkpt lat="44.16679" lon="3.10692">
        <ele>532.23</ele>
        <time>2008-05-04T15:49:22Z</time>
      </trkpt>
      <trkpt lat="44.16674" lon="3.10683">
        <ele>531.75</ele>
        <time>2008-05-04T15:49:23Z</time>
      </trkpt>
      <trkpt lat="44.1667" lon="3.10674">
        <ele>531.27</ele>
        <time>2008-05-04T15:49:24Z</time>
      </trkpt>
      <trkpt lat="44.16667" lon="3.10663">
        <ele>529.82</ele>
        <time>2008-05-04T15:49:25Z</time>
      </trkpt>
      <trkpt lat="44.16665" lon="3.10651">
        <ele>529.34</ele>
        <time>2008-05-04T15:49:26Z</time>
      </trkpt>
      <trkpt lat="44.16656" lon="3.10596">
        <ele>525.98</ele>
        <time>2008-05-04T15:49:30Z</time>
      </trkpt>
      <trkpt lat="44.1665" lon="3.10541">
        <ele>522.61</ele>
        <time>2008-05-04T15:49:34Z</time>
      </trkpt>
      <trkpt lat="44.16646" lon="3.10528">
        <ele>522.13</ele>
        <time>2008-05-04T15:49:35Z</time>
      </trkpt>
      <trkpt lat="44.16642" lon="3.10515">
        <ele>521.17</ele>
        <time>2008-05-04T15:49:36Z</time>
      </trkpt>
      <trkpt lat="44.16631" lon="3.1048">
        <ele>518.77</ele>
        <time>2008-05-04T15:49:39Z</time>
      </trkpt>
      <trkpt lat="44.16629" lon="3.10467">
        <ele>518.77</ele>
        <time>2008-05-04T15:49:40Z</time>
      </trkpt>
      <trkpt lat="44.16627" lon="3.10455">
        <ele>518.29</ele>
        <time>2008-05-04T15:49:41Z</time>
      </trkpt>
      <trkpt lat="44.16627" lon="3.10444">
        <ele>518.77</ele>
        <time>2008-05-04T15:49:42Z</time>
      </trkpt>
      <trkpt lat="44.16627" lon="3.10433">
        <ele>519.25</ele>
        <time>2008-05-04T15:49:43Z</time>
      </trkpt>
      <trkpt lat="44.16624" lon="3.10389">
        <ele>519.73</ele>
        <time>2008-05-04T15:49:48Z</time>
      </trkpt>
      <trkpt lat="44.16625" lon="3.10383">
        <ele>519.73</ele>
        <time>2008-05-04T15:49:49Z</time>
      </trkpt>
      <trkpt lat="44.16628" lon="3.10377">
        <ele>520.21</ele>
        <time>2008-05-04T15:49:50Z</time>
      </trkpt>
      <trkpt lat="44.16631" lon="3.10371">
        <ele>520.21</ele>
        <time>2008-05-04T15:49:51Z</time>
      </trkpt>
      <trkpt lat="44.16634" lon="3.10366">
        <ele>520.69</ele>
        <time>2008-05-04T15:49:52Z</time>
      </trkpt>
      <trkpt lat="44.1665" lon="3.10336">
        <ele>522.13</ele>
        <time>2008-05-04T15:49:58Z</time>
      </trkpt>
      <trkpt lat="44.16653" lon="3.10319">
        <ele>523.09</ele>
        <time>2008-05-04T15:50:01Z</time>
      </trkpt>
      <trkpt lat="44.16659" lon="3.10257">
        <ele>522.61</ele>
        <time>2008-05-04T15:50:11Z</time>
      </trkpt>
      <trkpt lat="44.16658" lon="3.10251">
        <ele>522.61</ele>
        <time>2008-05-04T15:50:12Z</time>
      </trkpt>
      <trkpt lat="44.16656" lon="3.10245">
        <ele>522.13</ele>
        <time>2008-05-04T15:50:13Z</time>
      </trkpt>
      <trkpt lat="44.16653" lon="3.1024">
        <ele>522.13</ele>
        <time>2008-05-04T15:50:14Z</time>
      </trkpt>
      <trkpt lat="44.1665" lon="3.10237">
        <ele>522.13</ele>
        <time>2008-05-04T15:50:15Z</time>
      </trkpt>
      <trkpt lat="44.16646" lon="3.10234">
        <ele>522.13</ele>
        <time>2008-05-04T15:50:16Z</time>
      </trkpt>
      <trkpt lat="44.16641" lon="3.10231">
        <ele>521.65</ele>
        <time>2008-05-04T15:50:17Z</time>
      </trkpt>
      <trkpt lat="44.16637" lon="3.10229">
        <ele>521.65</ele>
        <time>2008-05-04T15:50:18Z</time>
      </trkpt>
      <trkpt lat="44.16583" lon="3.10189">
        <ele>522.61</ele>
        <time>2008-05-04T15:50:32Z</time>
      </trkpt>
      <trkpt lat="44.16552" lon="3.10162">
        <ele>523.09</ele>
        <time>2008-05-04T15:50:43Z</time>
      </trkpt>
      <trkpt lat="44.16553" lon="3.1016">
        <ele>523.58</ele>
        <time>2008-05-04T15:50:44Z</time>
      </trkpt>
      <trkpt lat="44.16555" lon="3.10158">
        <ele>524.06</ele>
        <time>2008-05-04T15:50:45Z</time>
      </trkpt>
      <trkpt lat="44.16557" lon="3.10156">
        <ele>524.54</ele>
        <time>2008-05-04T15:50:46Z</time>
      </trkpt>
      <trkpt lat="44.16559" lon="3.10154">
        <ele>524.54</ele>
        <time>2008-05-04T15:50:47Z</time>
      </trkpt>
      <trkpt lat="44.16563" lon="3.10147">
        <ele>525.98</ele>
        <time>2008-05-04T15:50:50Z</time>
      </trkpt>
      <trkpt lat="44.16576" lon="3.10137">
        <ele>528.38</ele>
        <time>2008-05-04T15:50:56Z</time>
      </trkpt>
      <trkpt lat="44.16601" lon="3.10132">
        <ele>532.23</ele>
        <time>2008-05-04T15:51:07Z</time>
      </trkpt>
      <trkpt lat="44.16623" lon="3.1012">
        <ele>535.11</ele>
        <time>2008-05-04T15:51:19Z</time>
      </trkpt>
      <trkpt lat="44.16645" lon="3.10103">
        <ele>538.48</ele>
        <time>2008-05-04T15:51:32Z</time>
      </trkpt>
      <trkpt lat="44.16659" lon="3.10091">
        <ele>541.84</ele>
        <time>2008-05-04T15:51:41Z</time>
      </trkpt>
      <trkpt lat="44.16677" lon="3.10078">
        <ele>544.72</ele>
        <time>2008-05-04T15:51:51Z</time>
      </trkpt>
      <trkpt lat="44.16691" lon="3.10066">
        <ele>547.61</ele>
        <time>2008-05-04T15:52:04Z</time>
      </trkpt>
      <trkpt lat="44.16698" lon="3.10057">
        <ele>549.05</ele>
        <time>2008-05-04T15:52:11Z</time>
      </trkpt>
      <trkpt lat="44.16716" lon="3.10049">
        <ele>552.41</ele>
        <time>2008-05-04T15:52:24Z</time>
      </trkpt>
      <trkpt lat="44.16726" lon="3.10047">
        <ele>553.38</ele>
        <time>2008-05-04T15:52:31Z</time>
      </trkpt>
      <trkpt lat="44.16728" lon="3.10046">
        <ele>553.38</ele>
        <time>2008-05-04T15:52:32Z</time>
      </trkpt>
      <trkpt lat="44.16729" lon="3.10046">
        <ele>553.38</ele>
        <time>2008-05-04T15:52:33Z</time>
      </trkpt>
      <trkpt lat="44.16731" lon="3.10045">
        <ele>553.86</ele>
        <time>2008-05-04T15:52:34Z</time>
      </trkpt>
      <trkpt lat="44.16733" lon="3.10045">
        <ele>553.86</ele>
        <time>2008-05-04T15:52:35Z</time>
      </trkpt>
      <trkpt lat="44.16734" lon="3.10044">
        <ele>553.86</ele>
        <time>2008-05-04T15:52:36Z</time>
      </trkpt>
      <trkpt lat="44.16736" lon="3.10044">
        <ele>554.34</ele>
        <time>2008-05-04T15:52:37Z</time>
      </trkpt>
      <trkpt lat="44.16737" lon="3.10044">
        <ele>554.34</ele>
        <time>2008-05-04T15:52:38Z</time>
      </trkpt>
      <trkpt lat="44.16755" lon="3.10034">
        <ele>556.26</ele>
        <time>2008-05-04T15:52:51Z</time>
      </trkpt>
      <trkpt lat="44.16777" lon="3.10018">
        <ele>558.66</ele>
        <time>2008-05-04T15:53:06Z</time>
      </trkpt>
      <trkpt lat="44.16796" lon="3.09998">
        <ele>559.62</ele>
        <time>2008-05-04T15:53:20Z</time>
      </trkpt>
      <trkpt lat="44.16804" lon="3.09987">
        <ele>559.14</ele>
        <time>2008-05-04T15:53:23Z</time>
      </trkpt>
      <trkpt lat="44.16844" lon="3.09926">
        <ele>556.26</ele>
        <time>2008-05-04T15:53:32Z</time>
      </trkpt>
      <trkpt lat="44.16891" lon="3.09854">
        <ele>553.38</ele>
        <time>2008-05-04T15:53:39Z</time>
      </trkpt>
      <trkpt lat="44.16925" lon="3.09802">
        <ele>551.93</ele>
        <time>2008-05-04T15:53:44Z</time>
      </trkpt>
      <trkpt lat="44.1693" lon="3.09791">
        <ele>551.93</ele>
        <time>2008-05-04T15:53:45Z</time>
      </trkpt>
      <trkpt lat="44.16944" lon="3.09759">
        <ele>552.41</ele>
        <time>2008-05-04T15:53:48Z</time>
      </trkpt>
      <trkpt lat="44.1695" lon="3.0975">
        <ele>552.41</ele>
        <time>2008-05-04T15:53:49Z</time>
      </trkpt>
      <trkpt lat="44.16956" lon="3.09742">
        <ele>552.41</ele>
        <time>2008-05-04T15:53:50Z</time>
      </trkpt>
      <trkpt lat="44.17041" lon="3.09666">
        <ele>552.41</ele>
        <time>2008-05-04T15:54:02Z</time>
      </trkpt>
      <trkpt lat="44.17066" lon="3.09646">
        <ele>552.9</ele>
        <time>2008-05-04T15:54:06Z</time>
      </trkpt>
      <trkpt lat="44.17071" lon="3.09639">
        <ele>553.38</ele>
        <time>2008-05-04T15:54:07Z</time>
      </trkpt>
      <trkpt lat="44.17076" lon="3.09633">
        <ele>553.38</ele>
        <time>2008-05-04T15:54:08Z</time>
      </trkpt>
      <trkpt lat="44.17106" lon="3.0959">
        <ele>556.74</ele>
        <time>2008-05-04T15:54:18Z</time>
      </trkpt>
      <trkpt lat="44.17124" lon="3.09567">
        <ele>560.11</ele>
        <time>2008-05-04T15:54:27Z</time>
      </trkpt>
      <trkpt lat="44.17127" lon="3.09564">
        <ele>561.07</ele>
        <time>2008-05-04T15:54:29Z</time>
      </trkpt>
      <trkpt lat="44.17142" lon="3.09553">
        <ele>563.95</ele>
        <time>2008-05-04T15:54:39Z</time>
      </trkpt>
      <trkpt lat="44.17157" lon="3.09548">
        <ele>566.83</ele>
        <time>2008-05-04T15:54:50Z</time>
      </trkpt>
      <trkpt lat="44.17175" lon="3.09544">
        <ele>570.2</ele>
        <time>2008-05-04T15:55:02Z</time>
      </trkpt>
      <trkpt lat="44.17184" lon="3.09543">
        <ele>571.16</ele>
        <time>2008-05-04T15:55:08Z</time>
      </trkpt>
      <trkpt lat="44.17186" lon="3.09543">
        <ele>571.16</ele>
        <time>2008-05-04T15:55:09Z</time>
      </trkpt>
      <trkpt lat="44.17187" lon="3.09542">
        <ele>571.64</ele>
        <time>2008-05-04T15:55:10Z</time>
      </trkpt>
      <trkpt lat="44.17188" lon="3.09542">
        <ele>571.64</ele>
        <time>2008-05-04T15:55:11Z</time>
      </trkpt>
      <trkpt lat="44.1719" lon="3.09542">
        <ele>571.64</ele>
        <time>2008-05-04T15:55:12Z</time>
      </trkpt>
      <trkpt lat="44.17191" lon="3.09542">
        <ele>571.64</ele>
        <time>2008-05-04T15:55:13Z</time>
      </trkpt>
      <trkpt lat="44.17192" lon="3.09543">
        <ele>571.64</ele>
        <time>2008-05-04T15:55:14Z</time>
      </trkpt>
      <trkpt lat="44.17194" lon="3.09543">
        <ele>571.64</ele>
        <time>2008-05-04T15:55:15Z</time>
      </trkpt>
      <trkpt lat="44.17196" lon="3.09545">
        <ele>571.64</ele>
        <time>2008-05-04T15:55:16Z</time>
      </trkpt>
      <trkpt lat="44.17198" lon="3.09547">
        <ele>572.12</ele>
        <time>2008-05-04T15:55:17Z</time>
      </trkpt>
      <trkpt lat="44.172" lon="3.09549">
        <ele>572.12</ele>
        <time>2008-05-04T15:55:18Z</time>
      </trkpt>
      <trkpt lat="44.17202" lon="3.0955">
        <ele>572.12</ele>
        <time>2008-05-04T15:55:19Z</time>
      </trkpt>
      <trkpt lat="44.1724" lon="3.09568">
        <ele>573.08</ele>
        <time>2008-05-04T15:55:34Z</time>
      </trkpt>
      <trkpt lat="44.17277" lon="3.09557">
        <ele>573.08</ele>
        <time>2008-05-04T15:55:47Z</time>
      </trkpt>
      <trkpt lat="44.17302" lon="3.09544">
        <ele>574.53</ele>
        <time>2008-05-04T15:55:58Z</time>
      </trkpt>
      <trkpt lat="44.17324" lon="3.0954">
        <ele>576.45</ele>
        <time>2008-05-04T15:56:09Z</time>
      </trkpt>
      <trkpt lat="44.17349" lon="3.09538">
        <ele>578.37</ele>
        <time>2008-05-04T15:56:23Z</time>
      </trkpt>
      <trkpt lat="44.17373" lon="3.09536">
        <ele>581.25</ele>
        <time>2008-05-04T15:56:35Z</time>
      </trkpt>
      <trkpt lat="44.17389" lon="3.09535">
        <ele>584.62</ele>
        <time>2008-05-04T15:56:45Z</time>
      </trkpt>
      <trkpt lat="44.17405" lon="3.09537">
        <ele>587.5</ele>
        <time>2008-05-04T15:56:58Z</time>
      </trkpt>
      <trkpt lat="44.17426" lon="3.09538">
        <ele>590.87</ele>
        <time>2008-05-04T15:57:14Z</time>
      </trkpt>
      <trkpt lat="44.17447" lon="3.09536">
        <ele>594.23</ele>
        <time>2008-05-04T15:57:29Z</time>
      </trkpt>
      <trkpt lat="44.17459" lon="3.09532">
        <ele>596.64</ele>
        <time>2008-05-04T15:57:38Z</time>
      </trkpt>
      <trkpt lat="44.17465" lon="3.09529">
        <ele>597.12</ele>
        <time>2008-05-04T15:57:42Z</time>
      </trkpt>
      <trkpt lat="44.17482" lon="3.09519">
        <ele>600</ele>
        <time>2008-05-04T15:57:56Z</time>
      </trkpt>
      <trkpt lat="44.175" lon="3.09504">
        <ele>602.4</ele>
        <time>2008-05-04T15:58:11Z</time>
      </trkpt>
      <trkpt lat="44.17521" lon="3.09488">
        <ele>603.36</ele>
        <time>2008-05-04T15:58:25Z</time>
      </trkpt>
      <trkpt lat="44.17543" lon="3.09472">
        <ele>604.81</ele>
        <time>2008-05-04T15:58:39Z</time>
      </trkpt>
      <trkpt lat="44.17573" lon="3.09453">
        <ele>605.29</ele>
        <time>2008-05-04T15:58:54Z</time>
      </trkpt>
      <trkpt lat="44.17603" lon="3.09441">
        <ele>604.81</ele>
        <time>2008-05-04T15:59:05Z</time>
      </trkpt>
      <trkpt lat="44.17639" lon="3.09438">
        <ele>604.33</ele>
        <time>2008-05-04T15:59:14Z</time>
      </trkpt>
      <trkpt lat="44.1767" lon="3.09465">
        <ele>605.77</ele>
        <time>2008-05-04T15:59:25Z</time>
      </trkpt>
      <trkpt lat="44.17693" lon="3.09537">
        <ele>604.81</ele>
        <time>2008-05-04T15:59:40Z</time>
      </trkpt>
      <trkpt lat="44.17697" lon="3.09548">
        <ele>604.81</ele>
        <time>2008-05-04T15:59:42Z</time>
      </trkpt>
      <trkpt lat="44.17699" lon="3.09553">
        <ele>605.29</ele>
        <time>2008-05-04T15:59:43Z</time>
      </trkpt>
      <trkpt lat="44.17702" lon="3.09557">
        <ele>604.81</ele>
        <time>2008-05-04T15:59:44Z</time>
      </trkpt>
      <trkpt lat="44.17722" lon="3.09599">
        <ele>608.17</ele>
        <time>2008-05-04T15:59:56Z</time>
      </trkpt>
      <trkpt lat="44.17742" lon="3.09624">
        <ele>611.54</ele>
        <time>2008-05-04T16:00:08Z</time>
      </trkpt>
      <trkpt lat="44.1777" lon="3.09661">
        <ele>613.94</ele>
        <time>2008-05-04T16:00:24Z</time>
      </trkpt>
      <trkpt lat="44.17778" lon="3.0968">
        <ele>616.34</ele>
        <time>2008-05-04T16:00:37Z</time>
      </trkpt>
      <trkpt lat="44.17783" lon="3.09692">
        <ele>617.78</ele>
        <time>2008-05-04T16:00:47Z</time>
      </trkpt>
      <trkpt lat="44.17783" lon="3.09694">
        <ele>618.26</ele>
        <time>2008-05-04T16:00:48Z</time>
      </trkpt>
      <trkpt lat="44.1778" lon="3.09716">
        <ele>620.19</ele>
        <time>2008-05-04T16:01:02Z</time>
      </trkpt>
      <trkpt lat="44.17779" lon="3.09717">
        <ele>619.71</ele>
        <time>2008-05-04T16:01:03Z</time>
      </trkpt>
      <trkpt lat="44.17778" lon="3.09717">
        <ele>619.71</ele>
        <time>2008-05-04T16:01:04Z</time>
      </trkpt>
      <trkpt lat="44.17773" lon="3.09721">
        <ele>620.19</ele>
        <time>2008-05-04T16:01:21Z</time>
      </trkpt>
      <trkpt lat="44.17775" lon="3.09718">
        <ele>621.63</ele>
        <time>2008-05-04T16:05:43Z</time>
      </trkpt>
    </trkseg>
  </trk>
  <rte>
    <name><![CDATA[Chemin à Chemin1]]></name>
      <rtept lat="44.17842" lon="3.09016">
        <ele>547.2</ele>
        <name><![CDATA[Chemin]]></name>
        <desc><![CDATA[Chemin]]></desc>
        <cmt><![CDATA[Chemin]]></cmt>
      </rtept>
      <rtept lat="44.17913" lon="3.09046">
        <ele>549.8</ele>
        <name><![CDATA[Chemin1]]></name>
        <desc><![CDATA[Chemin]]></desc>
        <cmt><![CDATA[Chemin]]></cmt>
      </rtept>
    </rte>
</gpx>